<?xml version="1.0" encoding="UTF-8" standalone="no" ?>
<gpx xmlns="http://www.topografix.com/GPX/1/1" xmlns:xsi="http://www.w3.org/2001/XMLSchema-instance" xsi:schemaLocation="http://www.topografix.com/GPX/1/1 http://www.topografix.com/GPX/1/1/gpx.xsd" version="1.1" creator="VisuGPX - https://www.visugpx.com">
  <metadata>
    <name>83-D -Abbaye du Thoronet</name>
    <desc><![CDATA[83-D -Abbaye du Thoronet : ND du Glaive]]></desc>
  </metadata>
  <trk>
    <name><![CDATA[2017-12-17-D+- abbaye thoronet et nd du glaive]]></name>
    <trkseg>
      <trkpt lat="43.46042" lon="6.26098">
        <ele>188.5</ele>
        <time>2017-12-17T08:17:37Z</time>
      </trkpt>
      <trkpt lat="43.46042" lon="6.26098">
        <ele>188.5</ele>
        <time>2017-12-17T08:17:38Z</time>
      </trkpt>
      <trkpt lat="43.46048" lon="6.26107">
        <ele>188.7</ele>
        <time>2017-12-17T08:18:08Z</time>
      </trkpt>
      <trkpt lat="43.46038" lon="6.26107">
        <ele>189</ele>
        <time>2017-12-17T08:20:50Z</time>
      </trkpt>
      <trkpt lat="43.46048" lon="6.26107">
        <ele>188.9</ele>
        <time>2017-12-17T08:21:06Z</time>
      </trkpt>
      <trkpt lat="43.46039" lon="6.26103">
        <ele>188.1</ele>
        <time>2017-12-17T08:25:05Z</time>
      </trkpt>
      <trkpt lat="43.46032" lon="6.26112">
        <ele>188.7</ele>
        <time>2017-12-17T08:25:15Z</time>
      </trkpt>
      <trkpt lat="43.46027" lon="6.26101">
        <ele>189.6</ele>
        <time>2017-12-17T08:25:54Z</time>
      </trkpt>
      <trkpt lat="43.46027" lon="6.26088">
        <ele>191.3</ele>
        <time>2017-12-17T08:26:09Z</time>
      </trkpt>
      <trkpt lat="43.46024" lon="6.26076">
        <ele>193.2</ele>
        <time>2017-12-17T08:26:28Z</time>
      </trkpt>
      <trkpt lat="43.46015" lon="6.26072">
        <ele>195.2</ele>
        <time>2017-12-17T08:26:40Z</time>
      </trkpt>
      <trkpt lat="43.46009" lon="6.26081">
        <ele>197.3</ele>
        <time>2017-12-17T08:26:51Z</time>
      </trkpt>
      <trkpt lat="43.45999" lon="6.26083">
        <ele>198.7</ele>
        <time>2017-12-17T08:27:01Z</time>
      </trkpt>
      <trkpt lat="43.45993" lon="6.26075">
        <ele>201.5</ele>
        <time>2017-12-17T08:27:17Z</time>
      </trkpt>
      <trkpt lat="43.45996" lon="6.26062">
        <ele>202.6</ele>
        <time>2017-12-17T08:27:25Z</time>
      </trkpt>
      <trkpt lat="43.45999" lon="6.26049">
        <ele>203.5</ele>
        <time>2017-12-17T08:27:35Z</time>
      </trkpt>
      <trkpt lat="43.46004" lon="6.26038">
        <ele>204</ele>
        <time>2017-12-17T08:27:42Z</time>
      </trkpt>
      <trkpt lat="43.46005" lon="6.26025">
        <ele>204.5</ele>
        <time>2017-12-17T08:27:50Z</time>
      </trkpt>
      <trkpt lat="43.46005" lon="6.26012">
        <ele>204.3</ele>
        <time>2017-12-17T08:27:59Z</time>
      </trkpt>
      <trkpt lat="43.46006" lon="6.25999">
        <ele>204.1</ele>
        <time>2017-12-17T08:28:09Z</time>
      </trkpt>
      <trkpt lat="43.46006" lon="6.25986">
        <ele>203.9</ele>
        <time>2017-12-17T08:28:17Z</time>
      </trkpt>
      <trkpt lat="43.46009" lon="6.25973">
        <ele>204.5</ele>
        <time>2017-12-17T08:28:28Z</time>
      </trkpt>
      <trkpt lat="43.4601" lon="6.2596">
        <ele>205.2</ele>
        <time>2017-12-17T08:28:38Z</time>
      </trkpt>
      <trkpt lat="43.4601" lon="6.25947">
        <ele>205.4</ele>
        <time>2017-12-17T08:28:44Z</time>
      </trkpt>
      <trkpt lat="43.46014" lon="6.25934">
        <ele>205.8</ele>
        <time>2017-12-17T08:28:51Z</time>
      </trkpt>
      <trkpt lat="43.4602" lon="6.25922">
        <ele>205.1</ele>
        <time>2017-12-17T08:28:59Z</time>
      </trkpt>
      <trkpt lat="43.46026" lon="6.25914">
        <ele>205.1</ele>
        <time>2017-12-17T08:29:05Z</time>
      </trkpt>
      <trkpt lat="43.46033" lon="6.25904">
        <ele>205</ele>
        <time>2017-12-17T08:29:13Z</time>
      </trkpt>
      <trkpt lat="43.46038" lon="6.25893">
        <ele>205.2</ele>
        <time>2017-12-17T08:29:20Z</time>
      </trkpt>
      <trkpt lat="43.46042" lon="6.25882">
        <ele>205.7</ele>
        <time>2017-12-17T08:29:28Z</time>
      </trkpt>
      <trkpt lat="43.46045" lon="6.25869">
        <ele>205.7</ele>
        <time>2017-12-17T08:29:38Z</time>
      </trkpt>
      <trkpt lat="43.46039" lon="6.25859">
        <ele>206.1</ele>
        <time>2017-12-17T08:29:54Z</time>
      </trkpt>
      <trkpt lat="43.46036" lon="6.25847">
        <ele>207.1</ele>
        <time>2017-12-17T08:30:03Z</time>
      </trkpt>
      <trkpt lat="43.46037" lon="6.25834">
        <ele>208.2</ele>
        <time>2017-12-17T08:30:14Z</time>
      </trkpt>
      <trkpt lat="43.46036" lon="6.25821">
        <ele>209</ele>
        <time>2017-12-17T08:30:23Z</time>
      </trkpt>
      <trkpt lat="43.46035" lon="6.25807">
        <ele>210.7</ele>
        <time>2017-12-17T08:30:35Z</time>
      </trkpt>
      <trkpt lat="43.46034" lon="6.25795">
        <ele>212.3</ele>
        <time>2017-12-17T08:30:47Z</time>
      </trkpt>
      <trkpt lat="43.46035" lon="6.25782">
        <ele>214.3</ele>
        <time>2017-12-17T08:30:58Z</time>
      </trkpt>
      <trkpt lat="43.46032" lon="6.25769">
        <ele>215.8</ele>
        <time>2017-12-17T08:31:09Z</time>
      </trkpt>
      <trkpt lat="43.46033" lon="6.25756">
        <ele>217.8</ele>
        <time>2017-12-17T08:31:20Z</time>
      </trkpt>
      <trkpt lat="43.46029" lon="6.25743">
        <ele>219.8</ele>
        <time>2017-12-17T08:31:31Z</time>
      </trkpt>
      <trkpt lat="43.46029" lon="6.2573">
        <ele>221.5</ele>
        <time>2017-12-17T08:31:41Z</time>
      </trkpt>
      <trkpt lat="43.46026" lon="6.25717">
        <ele>222.9</ele>
        <time>2017-12-17T08:31:53Z</time>
      </trkpt>
      <trkpt lat="43.46021" lon="6.25706">
        <ele>223.4</ele>
        <time>2017-12-17T08:32:00Z</time>
      </trkpt>
      <trkpt lat="43.46014" lon="6.25696">
        <ele>224.7</ele>
        <time>2017-12-17T08:32:11Z</time>
      </trkpt>
      <trkpt lat="43.46008" lon="6.25686">
        <ele>225.8</ele>
        <time>2017-12-17T08:32:18Z</time>
      </trkpt>
      <trkpt lat="43.46002" lon="6.25677">
        <ele>226.9</ele>
        <time>2017-12-17T08:32:28Z</time>
      </trkpt>
      <trkpt lat="43.45995" lon="6.25669">
        <ele>230</ele>
        <time>2017-12-17T08:32:45Z</time>
      </trkpt>
      <trkpt lat="43.45989" lon="6.25659">
        <ele>231.6</ele>
        <time>2017-12-17T08:32:56Z</time>
      </trkpt>
      <trkpt lat="43.4598" lon="6.25653">
        <ele>232.7</ele>
        <time>2017-12-17T08:33:07Z</time>
      </trkpt>
      <trkpt lat="43.45971" lon="6.25647">
        <ele>232.9</ele>
        <time>2017-12-17T08:33:16Z</time>
      </trkpt>
      <trkpt lat="43.45961" lon="6.25645">
        <ele>234.9</ele>
        <time>2017-12-17T08:33:30Z</time>
      </trkpt>
      <trkpt lat="43.45954" lon="6.25636">
        <ele>236</ele>
        <time>2017-12-17T08:33:39Z</time>
      </trkpt>
      <trkpt lat="43.45951" lon="6.25624">
        <ele>237</ele>
        <time>2017-12-17T08:33:51Z</time>
      </trkpt>
      <trkpt lat="43.45946" lon="6.25613">
        <ele>239.6</ele>
        <time>2017-12-17T08:34:05Z</time>
      </trkpt>
      <trkpt lat="43.45946" lon="6.25599">
        <ele>241.8</ele>
        <time>2017-12-17T08:34:22Z</time>
      </trkpt>
      <trkpt lat="43.45947" lon="6.25586">
        <ele>243.3</ele>
        <time>2017-12-17T08:34:34Z</time>
      </trkpt>
      <trkpt lat="43.45954" lon="6.25578">
        <ele>244.5</ele>
        <time>2017-12-17T08:34:44Z</time>
      </trkpt>
      <trkpt lat="43.4596" lon="6.25568">
        <ele>246.1</ele>
        <time>2017-12-17T08:34:55Z</time>
      </trkpt>
      <trkpt lat="43.45967" lon="6.25558">
        <ele>248.3</ele>
        <time>2017-12-17T08:35:08Z</time>
      </trkpt>
      <trkpt lat="43.45974" lon="6.25548">
        <ele>251</ele>
        <time>2017-12-17T08:35:27Z</time>
      </trkpt>
      <trkpt lat="43.45982" lon="6.25543">
        <ele>251.4</ele>
        <time>2017-12-17T08:35:35Z</time>
      </trkpt>
      <trkpt lat="43.45992" lon="6.2554">
        <ele>252.7</ele>
        <time>2017-12-17T08:35:45Z</time>
      </trkpt>
      <trkpt lat="43.46001" lon="6.25536">
        <ele>253.2</ele>
        <time>2017-12-17T08:36:09Z</time>
      </trkpt>
      <trkpt lat="43.4601" lon="6.25531">
        <ele>253.7</ele>
        <time>2017-12-17T08:36:19Z</time>
      </trkpt>
      <trkpt lat="43.46015" lon="6.2552">
        <ele>255.2</ele>
        <time>2017-12-17T08:36:32Z</time>
      </trkpt>
      <trkpt lat="43.46023" lon="6.25514">
        <ele>256</ele>
        <time>2017-12-17T08:36:43Z</time>
      </trkpt>
      <trkpt lat="43.46033" lon="6.25515">
        <ele>256.2</ele>
        <time>2017-12-17T08:37:35Z</time>
      </trkpt>
      <trkpt lat="43.46038" lon="6.25504">
        <ele>256.9</ele>
        <time>2017-12-17T08:37:59Z</time>
      </trkpt>
      <trkpt lat="43.46038" lon="6.2549">
        <ele>259</ele>
        <time>2017-12-17T08:38:13Z</time>
      </trkpt>
      <trkpt lat="43.46041" lon="6.25477">
        <ele>259.9</ele>
        <time>2017-12-17T08:38:22Z</time>
      </trkpt>
      <trkpt lat="43.46037" lon="6.25464">
        <ele>261.3</ele>
        <time>2017-12-17T08:38:33Z</time>
      </trkpt>
      <trkpt lat="43.46033" lon="6.25451">
        <ele>263.3</ele>
        <time>2017-12-17T08:38:47Z</time>
      </trkpt>
      <trkpt lat="43.46026" lon="6.25444">
        <ele>264.2</ele>
        <time>2017-12-17T08:38:53Z</time>
      </trkpt>
      <trkpt lat="43.46017" lon="6.25438">
        <ele>264.5</ele>
        <time>2017-12-17T08:39:00Z</time>
      </trkpt>
      <trkpt lat="43.46008" lon="6.25439">
        <ele>266.3</ele>
        <time>2017-12-17T08:39:13Z</time>
      </trkpt>
      <trkpt lat="43.45999" lon="6.25441">
        <ele>270.8</ele>
        <time>2017-12-17T08:39:33Z</time>
      </trkpt>
      <trkpt lat="43.4599" lon="6.2544">
        <ele>273.7</ele>
        <time>2017-12-17T08:39:51Z</time>
      </trkpt>
      <trkpt lat="43.45986" lon="6.25428">
        <ele>274.4</ele>
        <time>2017-12-17T08:40:33Z</time>
      </trkpt>
      <trkpt lat="43.45981" lon="6.25417">
        <ele>274.4</ele>
        <time>2017-12-17T08:40:55Z</time>
      </trkpt>
      <trkpt lat="43.45974" lon="6.25408">
        <ele>274.4</ele>
        <time>2017-12-17T08:41:04Z</time>
      </trkpt>
      <trkpt lat="43.4597" lon="6.25396">
        <ele>274.8</ele>
        <time>2017-12-17T08:41:14Z</time>
      </trkpt>
      <trkpt lat="43.45964" lon="6.25386">
        <ele>275.1</ele>
        <time>2017-12-17T08:41:23Z</time>
      </trkpt>
      <trkpt lat="43.45959" lon="6.25375">
        <ele>274.8</ele>
        <time>2017-12-17T08:41:33Z</time>
      </trkpt>
      <trkpt lat="43.45957" lon="6.25362">
        <ele>274.1</ele>
        <time>2017-12-17T08:41:40Z</time>
      </trkpt>
      <trkpt lat="43.45953" lon="6.25349">
        <ele>273.1</ele>
        <time>2017-12-17T08:41:50Z</time>
      </trkpt>
      <trkpt lat="43.45951" lon="6.25336">
        <ele>272.6</ele>
        <time>2017-12-17T08:41:58Z</time>
      </trkpt>
      <trkpt lat="43.45948" lon="6.25324">
        <ele>271.9</ele>
        <time>2017-12-17T08:42:08Z</time>
      </trkpt>
      <trkpt lat="43.45942" lon="6.25312">
        <ele>271.4</ele>
        <time>2017-12-17T08:42:16Z</time>
      </trkpt>
      <trkpt lat="43.45937" lon="6.253">
        <ele>271.1</ele>
        <time>2017-12-17T08:42:24Z</time>
      </trkpt>
      <trkpt lat="43.45932" lon="6.25289">
        <ele>271.2</ele>
        <time>2017-12-17T08:42:31Z</time>
      </trkpt>
      <trkpt lat="43.45928" lon="6.25277">
        <ele>271.1</ele>
        <time>2017-12-17T08:42:39Z</time>
      </trkpt>
      <trkpt lat="43.45921" lon="6.25268">
        <ele>271.2</ele>
        <time>2017-12-17T08:42:47Z</time>
      </trkpt>
      <trkpt lat="43.45914" lon="6.25259">
        <ele>270.9</ele>
        <time>2017-12-17T08:42:55Z</time>
      </trkpt>
      <trkpt lat="43.45905" lon="6.25253">
        <ele>270.2</ele>
        <time>2017-12-17T08:43:04Z</time>
      </trkpt>
      <trkpt lat="43.45896" lon="6.25249">
        <ele>269.3</ele>
        <time>2017-12-17T08:43:12Z</time>
      </trkpt>
      <trkpt lat="43.45886" lon="6.2525">
        <ele>268.3</ele>
        <time>2017-12-17T08:43:20Z</time>
      </trkpt>
      <trkpt lat="43.45877" lon="6.25253">
        <ele>267.2</ele>
        <time>2017-12-17T08:43:30Z</time>
      </trkpt>
      <trkpt lat="43.45867" lon="6.25256">
        <ele>266.1</ele>
        <time>2017-12-17T08:43:39Z</time>
      </trkpt>
      <trkpt lat="43.45858" lon="6.25258">
        <ele>264.8</ele>
        <time>2017-12-17T08:43:48Z</time>
      </trkpt>
      <trkpt lat="43.45849" lon="6.25256">
        <ele>264.5</ele>
        <time>2017-12-17T08:43:55Z</time>
      </trkpt>
      <trkpt lat="43.4584" lon="6.25252">
        <ele>264.6</ele>
        <time>2017-12-17T08:44:04Z</time>
      </trkpt>
      <trkpt lat="43.45833" lon="6.25244">
        <ele>264.1</ele>
        <time>2017-12-17T08:44:11Z</time>
      </trkpt>
      <trkpt lat="43.45824" lon="6.25239">
        <ele>263.9</ele>
        <time>2017-12-17T08:44:19Z</time>
      </trkpt>
      <trkpt lat="43.45816" lon="6.2523">
        <ele>263.4</ele>
        <time>2017-12-17T08:44:27Z</time>
      </trkpt>
      <trkpt lat="43.4581" lon="6.2522">
        <ele>262.9</ele>
        <time>2017-12-17T08:44:35Z</time>
      </trkpt>
      <trkpt lat="43.45804" lon="6.2521">
        <ele>262</ele>
        <time>2017-12-17T08:44:43Z</time>
      </trkpt>
      <trkpt lat="43.45798" lon="6.25201">
        <ele>260.2</ele>
        <time>2017-12-17T08:44:52Z</time>
      </trkpt>
      <trkpt lat="43.45791" lon="6.25193">
        <ele>259.4</ele>
        <time>2017-12-17T08:45:00Z</time>
      </trkpt>
      <trkpt lat="43.45784" lon="6.25184">
        <ele>258.7</ele>
        <time>2017-12-17T08:45:08Z</time>
      </trkpt>
      <trkpt lat="43.45778" lon="6.25173">
        <ele>258.2</ele>
        <time>2017-12-17T08:45:17Z</time>
      </trkpt>
      <trkpt lat="43.45779" lon="6.25161">
        <ele>257.4</ele>
        <time>2017-12-17T08:45:27Z</time>
      </trkpt>
      <trkpt lat="43.45789" lon="6.25157">
        <ele>256.7</ele>
        <time>2017-12-17T08:47:33Z</time>
      </trkpt>
      <trkpt lat="43.45785" lon="6.25168">
        <ele>256</ele>
        <time>2017-12-17T08:49:48Z</time>
      </trkpt>
      <trkpt lat="43.45794" lon="6.25173">
        <ele>254.1</ele>
        <time>2017-12-17T08:51:45Z</time>
      </trkpt>
      <trkpt lat="43.45803" lon="6.25174">
        <ele>253</ele>
        <time>2017-12-17T08:51:55Z</time>
      </trkpt>
      <trkpt lat="43.45812" lon="6.25171">
        <ele>252.1</ele>
        <time>2017-12-17T08:52:03Z</time>
      </trkpt>
      <trkpt lat="43.45822" lon="6.25171">
        <ele>251.3</ele>
        <time>2017-12-17T08:52:11Z</time>
      </trkpt>
      <trkpt lat="43.45832" lon="6.25168">
        <ele>250.4</ele>
        <time>2017-12-17T08:52:19Z</time>
      </trkpt>
      <trkpt lat="43.4584" lon="6.25163">
        <ele>249.2</ele>
        <time>2017-12-17T08:52:27Z</time>
      </trkpt>
      <trkpt lat="43.45849" lon="6.25159">
        <ele>248.3</ele>
        <time>2017-12-17T08:52:34Z</time>
      </trkpt>
      <trkpt lat="43.45857" lon="6.25151">
        <ele>246.6</ele>
        <time>2017-12-17T08:52:46Z</time>
      </trkpt>
      <trkpt lat="43.45863" lon="6.25141">
        <ele>245.8</ele>
        <time>2017-12-17T08:52:54Z</time>
      </trkpt>
      <trkpt lat="43.45867" lon="6.25131">
        <ele>244.5</ele>
        <time>2017-12-17T08:53:04Z</time>
      </trkpt>
      <trkpt lat="43.45868" lon="6.25118">
        <ele>244</ele>
        <time>2017-12-17T08:53:13Z</time>
      </trkpt>
      <trkpt lat="43.45869" lon="6.25105">
        <ele>243</ele>
        <time>2017-12-17T08:53:21Z</time>
      </trkpt>
      <trkpt lat="43.4587" lon="6.25092">
        <ele>242</ele>
        <time>2017-12-17T08:53:30Z</time>
      </trkpt>
      <trkpt lat="43.45872" lon="6.25079">
        <ele>240.8</ele>
        <time>2017-12-17T08:53:38Z</time>
      </trkpt>
      <trkpt lat="43.45871" lon="6.25066">
        <ele>239.5</ele>
        <time>2017-12-17T08:53:46Z</time>
      </trkpt>
      <trkpt lat="43.45865" lon="6.25055">
        <ele>238.5</ele>
        <time>2017-12-17T08:53:54Z</time>
      </trkpt>
      <trkpt lat="43.45858" lon="6.25047">
        <ele>237.3</ele>
        <time>2017-12-17T08:54:03Z</time>
      </trkpt>
      <trkpt lat="43.45851" lon="6.25038">
        <ele>235.7</ele>
        <time>2017-12-17T08:54:13Z</time>
      </trkpt>
      <trkpt lat="43.45846" lon="6.25027">
        <ele>234.4</ele>
        <time>2017-12-17T08:54:22Z</time>
      </trkpt>
      <trkpt lat="43.4584" lon="6.25017">
        <ele>233.6</ele>
        <time>2017-12-17T08:54:31Z</time>
      </trkpt>
      <trkpt lat="43.45833" lon="6.25008">
        <ele>232.8</ele>
        <time>2017-12-17T08:54:39Z</time>
      </trkpt>
      <trkpt lat="43.4583" lon="6.24996">
        <ele>232</ele>
        <time>2017-12-17T08:54:48Z</time>
      </trkpt>
      <trkpt lat="43.45831" lon="6.24982">
        <ele>231.1</ele>
        <time>2017-12-17T08:54:57Z</time>
      </trkpt>
      <trkpt lat="43.45823" lon="6.24975">
        <ele>231</ele>
        <time>2017-12-17T08:55:06Z</time>
      </trkpt>
      <trkpt lat="43.45814" lon="6.24973">
        <ele>231.7</ele>
        <time>2017-12-17T08:55:14Z</time>
      </trkpt>
      <trkpt lat="43.45806" lon="6.24965">
        <ele>232.2</ele>
        <time>2017-12-17T08:55:23Z</time>
      </trkpt>
      <trkpt lat="43.45796" lon="6.24968">
        <ele>231.3</ele>
        <time>2017-12-17T08:55:40Z</time>
      </trkpt>
      <trkpt lat="43.45787" lon="6.24968">
        <ele>231.4</ele>
        <time>2017-12-17T08:55:49Z</time>
      </trkpt>
      <trkpt lat="43.45777" lon="6.24965">
        <ele>232.2</ele>
        <time>2017-12-17T08:55:59Z</time>
      </trkpt>
      <trkpt lat="43.45769" lon="6.2496">
        <ele>232.4</ele>
        <time>2017-12-17T08:56:08Z</time>
      </trkpt>
      <trkpt lat="43.45761" lon="6.24953">
        <ele>232.6</ele>
        <time>2017-12-17T08:56:17Z</time>
      </trkpt>
      <trkpt lat="43.45755" lon="6.24944">
        <ele>232.8</ele>
        <time>2017-12-17T08:56:25Z</time>
      </trkpt>
      <trkpt lat="43.45745" lon="6.24939">
        <ele>233.2</ele>
        <time>2017-12-17T08:56:36Z</time>
      </trkpt>
      <trkpt lat="43.45736" lon="6.24934">
        <ele>233.2</ele>
        <time>2017-12-17T08:56:45Z</time>
      </trkpt>
      <trkpt lat="43.45729" lon="6.24926">
        <ele>233.4</ele>
        <time>2017-12-17T08:56:59Z</time>
      </trkpt>
      <trkpt lat="43.45725" lon="6.24914">
        <ele>234.1</ele>
        <time>2017-12-17T08:57:13Z</time>
      </trkpt>
      <trkpt lat="43.45716" lon="6.2491">
        <ele>234.1</ele>
        <time>2017-12-17T08:57:26Z</time>
      </trkpt>
      <trkpt lat="43.45708" lon="6.24903">
        <ele>234.2</ele>
        <time>2017-12-17T08:57:53Z</time>
      </trkpt>
      <trkpt lat="43.457" lon="6.2491">
        <ele>235.4</ele>
        <time>2017-12-17T08:58:22Z</time>
      </trkpt>
      <trkpt lat="43.45693" lon="6.24902">
        <ele>236.2</ele>
        <time>2017-12-17T08:58:42Z</time>
      </trkpt>
      <trkpt lat="43.45701" lon="6.24894">
        <ele>235.3</ele>
        <time>2017-12-17T08:58:57Z</time>
      </trkpt>
      <trkpt lat="43.457" lon="6.24882">
        <ele>235.6</ele>
        <time>2017-12-17T08:59:25Z</time>
      </trkpt>
      <trkpt lat="43.45695" lon="6.24869">
        <ele>237.1</ele>
        <time>2017-12-17T08:59:47Z</time>
      </trkpt>
      <trkpt lat="43.4569" lon="6.24859">
        <ele>237.2</ele>
        <time>2017-12-17T09:00:27Z</time>
      </trkpt>
      <trkpt lat="43.4569" lon="6.24846">
        <ele>236.9</ele>
        <time>2017-12-17T09:00:52Z</time>
      </trkpt>
      <trkpt lat="43.45691" lon="6.24832">
        <ele>237.5</ele>
        <time>2017-12-17T09:01:16Z</time>
      </trkpt>
      <trkpt lat="43.45688" lon="6.2482">
        <ele>237.2</ele>
        <time>2017-12-17T09:01:28Z</time>
      </trkpt>
      <trkpt lat="43.45682" lon="6.2481">
        <ele>237.9</ele>
        <time>2017-12-17T09:01:38Z</time>
      </trkpt>
      <trkpt lat="43.45679" lon="6.24798">
        <ele>237.9</ele>
        <time>2017-12-17T09:01:48Z</time>
      </trkpt>
      <trkpt lat="43.45674" lon="6.24787">
        <ele>238.3</ele>
        <time>2017-12-17T09:01:56Z</time>
      </trkpt>
      <trkpt lat="43.45668" lon="6.24776">
        <ele>238.4</ele>
        <time>2017-12-17T09:02:05Z</time>
      </trkpt>
      <trkpt lat="43.4566" lon="6.24769">
        <ele>239.1</ele>
        <time>2017-12-17T09:02:12Z</time>
      </trkpt>
      <trkpt lat="43.4565" lon="6.24763">
        <ele>239.8</ele>
        <time>2017-12-17T09:02:20Z</time>
      </trkpt>
      <trkpt lat="43.45642" lon="6.24757">
        <ele>240.6</ele>
        <time>2017-12-17T09:02:27Z</time>
      </trkpt>
      <trkpt lat="43.45634" lon="6.24751">
        <ele>241.7</ele>
        <time>2017-12-17T09:02:35Z</time>
      </trkpt>
      <trkpt lat="43.45627" lon="6.24741">
        <ele>242.5</ele>
        <time>2017-12-17T09:02:43Z</time>
      </trkpt>
      <trkpt lat="43.45621" lon="6.24731">
        <ele>243</ele>
        <time>2017-12-17T09:02:51Z</time>
      </trkpt>
      <trkpt lat="43.45614" lon="6.24722">
        <ele>243.3</ele>
        <time>2017-12-17T09:02:58Z</time>
      </trkpt>
      <trkpt lat="43.45603" lon="6.24722">
        <ele>243.6</ele>
        <time>2017-12-17T09:03:07Z</time>
      </trkpt>
      <trkpt lat="43.45595" lon="6.24728">
        <ele>243.9</ele>
        <time>2017-12-17T09:03:15Z</time>
      </trkpt>
      <trkpt lat="43.45586" lon="6.24723">
        <ele>243.8</ele>
        <time>2017-12-17T09:03:33Z</time>
      </trkpt>
      <trkpt lat="43.45579" lon="6.24731">
        <ele>244</ele>
        <time>2017-12-17T09:03:43Z</time>
      </trkpt>
      <trkpt lat="43.45579" lon="6.24743">
        <ele>243.5</ele>
        <time>2017-12-17T09:04:18Z</time>
      </trkpt>
      <trkpt lat="43.45571" lon="6.24752">
        <ele>243.5</ele>
        <time>2017-12-17T09:04:26Z</time>
      </trkpt>
      <trkpt lat="43.45565" lon="6.24761">
        <ele>243.5</ele>
        <time>2017-12-17T09:04:33Z</time>
      </trkpt>
      <trkpt lat="43.45564" lon="6.24775">
        <ele>243.4</ele>
        <time>2017-12-17T09:04:42Z</time>
      </trkpt>
      <trkpt lat="43.45564" lon="6.24789">
        <ele>243.4</ele>
        <time>2017-12-17T09:04:49Z</time>
      </trkpt>
      <trkpt lat="43.45564" lon="6.24802">
        <ele>243.3</ele>
        <time>2017-12-17T09:04:57Z</time>
      </trkpt>
      <trkpt lat="43.45561" lon="6.24813">
        <ele>243.3</ele>
        <time>2017-12-17T09:05:06Z</time>
      </trkpt>
      <trkpt lat="43.45559" lon="6.24825">
        <ele>243.2</ele>
        <time>2017-12-17T09:05:14Z</time>
      </trkpt>
      <trkpt lat="43.45555" lon="6.24838">
        <ele>243.2</ele>
        <time>2017-12-17T09:05:22Z</time>
      </trkpt>
      <trkpt lat="43.45552" lon="6.24851">
        <ele>243.8</ele>
        <time>2017-12-17T09:05:31Z</time>
      </trkpt>
      <trkpt lat="43.4555" lon="6.24864">
        <ele>244.4</ele>
        <time>2017-12-17T09:05:39Z</time>
      </trkpt>
      <trkpt lat="43.45547" lon="6.24876">
        <ele>244.8</ele>
        <time>2017-12-17T09:05:47Z</time>
      </trkpt>
      <trkpt lat="43.45545" lon="6.24888">
        <ele>245.4</ele>
        <time>2017-12-17T09:05:55Z</time>
      </trkpt>
      <trkpt lat="43.45545" lon="6.24901">
        <ele>246</ele>
        <time>2017-12-17T09:06:04Z</time>
      </trkpt>
      <trkpt lat="43.45539" lon="6.24912">
        <ele>246.8</ele>
        <time>2017-12-17T09:06:12Z</time>
      </trkpt>
      <trkpt lat="43.45534" lon="6.24923">
        <ele>247.2</ele>
        <time>2017-12-17T09:06:20Z</time>
      </trkpt>
      <trkpt lat="43.45529" lon="6.24934">
        <ele>247.7</ele>
        <time>2017-12-17T09:06:28Z</time>
      </trkpt>
      <trkpt lat="43.45525" lon="6.24945">
        <ele>247.9</ele>
        <time>2017-12-17T09:06:36Z</time>
      </trkpt>
      <trkpt lat="43.45522" lon="6.24957">
        <ele>248.2</ele>
        <time>2017-12-17T09:06:44Z</time>
      </trkpt>
      <trkpt lat="43.45517" lon="6.24968">
        <ele>248.9</ele>
        <time>2017-12-17T09:06:53Z</time>
      </trkpt>
      <trkpt lat="43.45513" lon="6.24979">
        <ele>249.5</ele>
        <time>2017-12-17T09:07:02Z</time>
      </trkpt>
      <trkpt lat="43.45511" lon="6.24992">
        <ele>250</ele>
        <time>2017-12-17T09:07:12Z</time>
      </trkpt>
      <trkpt lat="43.45511" lon="6.25004">
        <ele>250.7</ele>
        <time>2017-12-17T09:07:21Z</time>
      </trkpt>
      <trkpt lat="43.45512" lon="6.25017">
        <ele>252.1</ele>
        <time>2017-12-17T09:07:32Z</time>
      </trkpt>
      <trkpt lat="43.45515" lon="6.2503">
        <ele>253.9</ele>
        <time>2017-12-17T09:07:43Z</time>
      </trkpt>
      <trkpt lat="43.45519" lon="6.25041">
        <ele>254.9</ele>
        <time>2017-12-17T09:07:52Z</time>
      </trkpt>
      <trkpt lat="43.45521" lon="6.25055">
        <ele>256.8</ele>
        <time>2017-12-17T09:08:05Z</time>
      </trkpt>
      <trkpt lat="43.45517" lon="6.25067">
        <ele>258</ele>
        <time>2017-12-17T09:08:16Z</time>
      </trkpt>
      <trkpt lat="43.45512" lon="6.25078">
        <ele>259.3</ele>
        <time>2017-12-17T09:08:25Z</time>
      </trkpt>
      <trkpt lat="43.45505" lon="6.25087">
        <ele>261.1</ele>
        <time>2017-12-17T09:08:34Z</time>
      </trkpt>
      <trkpt lat="43.45499" lon="6.25097">
        <ele>262.6</ele>
        <time>2017-12-17T09:08:43Z</time>
      </trkpt>
      <trkpt lat="43.45493" lon="6.25107">
        <ele>264.1</ele>
        <time>2017-12-17T09:08:53Z</time>
      </trkpt>
      <trkpt lat="43.45486" lon="6.25114">
        <ele>266.1</ele>
        <time>2017-12-17T09:09:08Z</time>
      </trkpt>
      <trkpt lat="43.45477" lon="6.25121">
        <ele>267.8</ele>
        <time>2017-12-17T09:09:21Z</time>
      </trkpt>
      <trkpt lat="43.45471" lon="6.2513">
        <ele>269.6</ele>
        <time>2017-12-17T09:09:32Z</time>
      </trkpt>
      <trkpt lat="43.45465" lon="6.25141">
        <ele>271.5</ele>
        <time>2017-12-17T09:09:44Z</time>
      </trkpt>
      <trkpt lat="43.45457" lon="6.25148">
        <ele>273.6</ele>
        <time>2017-12-17T09:09:56Z</time>
      </trkpt>
      <trkpt lat="43.45452" lon="6.25159">
        <ele>275.1</ele>
        <time>2017-12-17T09:10:06Z</time>
      </trkpt>
      <trkpt lat="43.45446" lon="6.25169">
        <ele>276.4</ele>
        <time>2017-12-17T09:10:19Z</time>
      </trkpt>
      <trkpt lat="43.45438" lon="6.25177">
        <ele>278.2</ele>
        <time>2017-12-17T09:10:31Z</time>
      </trkpt>
      <trkpt lat="43.45432" lon="6.25186">
        <ele>280</ele>
        <time>2017-12-17T09:10:43Z</time>
      </trkpt>
      <trkpt lat="43.45427" lon="6.25197">
        <ele>281.8</ele>
        <time>2017-12-17T09:10:54Z</time>
      </trkpt>
      <trkpt lat="43.4542" lon="6.25206">
        <ele>283.6</ele>
        <time>2017-12-17T09:11:04Z</time>
      </trkpt>
      <trkpt lat="43.45414" lon="6.25215">
        <ele>285.1</ele>
        <time>2017-12-17T09:11:13Z</time>
      </trkpt>
      <trkpt lat="43.45408" lon="6.25226">
        <ele>286.7</ele>
        <time>2017-12-17T09:11:23Z</time>
      </trkpt>
      <trkpt lat="43.45402" lon="6.25236">
        <ele>288.3</ele>
        <time>2017-12-17T09:11:34Z</time>
      </trkpt>
      <trkpt lat="43.45398" lon="6.25248">
        <ele>289.9</ele>
        <time>2017-12-17T09:11:45Z</time>
      </trkpt>
      <trkpt lat="43.45395" lon="6.2526">
        <ele>291.2</ele>
        <time>2017-12-17T09:11:54Z</time>
      </trkpt>
      <trkpt lat="43.45393" lon="6.25274">
        <ele>292.4</ele>
        <time>2017-12-17T09:12:04Z</time>
      </trkpt>
      <trkpt lat="43.45393" lon="6.25287">
        <ele>293</ele>
        <time>2017-12-17T09:12:12Z</time>
      </trkpt>
      <trkpt lat="43.45393" lon="6.253">
        <ele>293.2</ele>
        <time>2017-12-17T09:12:24Z</time>
      </trkpt>
      <trkpt lat="43.45394" lon="6.25313">
        <ele>292.5</ele>
        <time>2017-12-17T09:12:34Z</time>
      </trkpt>
      <trkpt lat="43.45397" lon="6.25325">
        <ele>291.4</ele>
        <time>2017-12-17T09:17:14Z</time>
      </trkpt>
      <trkpt lat="43.45394" lon="6.25339">
        <ele>290.6</ele>
        <time>2017-12-17T09:17:27Z</time>
      </trkpt>
      <trkpt lat="43.45393" lon="6.25353">
        <ele>289.4</ele>
        <time>2017-12-17T09:17:38Z</time>
      </trkpt>
      <trkpt lat="43.45391" lon="6.25365">
        <ele>288.4</ele>
        <time>2017-12-17T09:17:46Z</time>
      </trkpt>
      <trkpt lat="43.45391" lon="6.25379">
        <ele>287.5</ele>
        <time>2017-12-17T09:17:54Z</time>
      </trkpt>
      <trkpt lat="43.4539" lon="6.25391">
        <ele>286</ele>
        <time>2017-12-17T09:18:02Z</time>
      </trkpt>
      <trkpt lat="43.45391" lon="6.25404">
        <ele>284.5</ele>
        <time>2017-12-17T09:18:10Z</time>
      </trkpt>
      <trkpt lat="43.45392" lon="6.25418">
        <ele>282.4</ele>
        <time>2017-12-17T09:18:18Z</time>
      </trkpt>
      <trkpt lat="43.45394" lon="6.2543">
        <ele>280.7</ele>
        <time>2017-12-17T09:18:26Z</time>
      </trkpt>
      <trkpt lat="43.45394" lon="6.25443">
        <ele>278.9</ele>
        <time>2017-12-17T09:18:36Z</time>
      </trkpt>
      <trkpt lat="43.45392" lon="6.25456">
        <ele>277.5</ele>
        <time>2017-12-17T09:18:44Z</time>
      </trkpt>
      <trkpt lat="43.45391" lon="6.25469">
        <ele>275.6</ele>
        <time>2017-12-17T09:18:53Z</time>
      </trkpt>
      <trkpt lat="43.45388" lon="6.25481">
        <ele>274</ele>
        <time>2017-12-17T09:19:01Z</time>
      </trkpt>
      <trkpt lat="43.45386" lon="6.25495">
        <ele>272.6</ele>
        <time>2017-12-17T09:19:09Z</time>
      </trkpt>
      <trkpt lat="43.45385" lon="6.25508">
        <ele>271.4</ele>
        <time>2017-12-17T09:19:18Z</time>
      </trkpt>
      <trkpt lat="43.45381" lon="6.2552">
        <ele>270.5</ele>
        <time>2017-12-17T09:19:25Z</time>
      </trkpt>
      <trkpt lat="43.4538" lon="6.25533">
        <ele>269.5</ele>
        <time>2017-12-17T09:19:32Z</time>
      </trkpt>
      <trkpt lat="43.45376" lon="6.25545">
        <ele>268.7</ele>
        <time>2017-12-17T09:19:38Z</time>
      </trkpt>
      <trkpt lat="43.45374" lon="6.25558">
        <ele>268</ele>
        <time>2017-12-17T09:19:45Z</time>
      </trkpt>
      <trkpt lat="43.45371" lon="6.25571">
        <ele>267.4</ele>
        <time>2017-12-17T09:19:52Z</time>
      </trkpt>
      <trkpt lat="43.45369" lon="6.25583">
        <ele>266.5</ele>
        <time>2017-12-17T09:19:59Z</time>
      </trkpt>
      <trkpt lat="43.45367" lon="6.25597">
        <ele>266</ele>
        <time>2017-12-17T09:20:06Z</time>
      </trkpt>
      <trkpt lat="43.45366" lon="6.25611">
        <ele>265.3</ele>
        <time>2017-12-17T09:20:15Z</time>
      </trkpt>
      <trkpt lat="43.45364" lon="6.25623">
        <ele>264.5</ele>
        <time>2017-12-17T09:20:22Z</time>
      </trkpt>
      <trkpt lat="43.45362" lon="6.25637">
        <ele>263.4</ele>
        <time>2017-12-17T09:20:29Z</time>
      </trkpt>
      <trkpt lat="43.45361" lon="6.2565">
        <ele>262.8</ele>
        <time>2017-12-17T09:20:36Z</time>
      </trkpt>
      <trkpt lat="43.45357" lon="6.25662">
        <ele>262.3</ele>
        <time>2017-12-17T09:20:43Z</time>
      </trkpt>
      <trkpt lat="43.45354" lon="6.25676">
        <ele>262.1</ele>
        <time>2017-12-17T09:20:50Z</time>
      </trkpt>
      <trkpt lat="43.45348" lon="6.25686">
        <ele>262.6</ele>
        <time>2017-12-17T09:20:57Z</time>
      </trkpt>
      <trkpt lat="43.45341" lon="6.25695">
        <ele>263.3</ele>
        <time>2017-12-17T09:21:04Z</time>
      </trkpt>
      <trkpt lat="43.45334" lon="6.25702">
        <ele>263.8</ele>
        <time>2017-12-17T09:21:12Z</time>
      </trkpt>
      <trkpt lat="43.45327" lon="6.2571">
        <ele>263.5</ele>
        <time>2017-12-17T09:21:19Z</time>
      </trkpt>
      <trkpt lat="43.4532" lon="6.25719">
        <ele>262.7</ele>
        <time>2017-12-17T09:21:26Z</time>
      </trkpt>
      <trkpt lat="43.45313" lon="6.25728">
        <ele>261.7</ele>
        <time>2017-12-17T09:21:34Z</time>
      </trkpt>
      <trkpt lat="43.45308" lon="6.25739">
        <ele>260.4</ele>
        <time>2017-12-17T09:21:41Z</time>
      </trkpt>
      <trkpt lat="43.45304" lon="6.25751">
        <ele>259.5</ele>
        <time>2017-12-17T09:21:49Z</time>
      </trkpt>
      <trkpt lat="43.45302" lon="6.25739">
        <ele>259.2</ele>
        <time>2017-12-17T09:22:19Z</time>
      </trkpt>
      <trkpt lat="43.45293" lon="6.25734">
        <ele>259.3</ele>
        <time>2017-12-17T09:22:51Z</time>
      </trkpt>
      <trkpt lat="43.45283" lon="6.25736">
        <ele>259.2</ele>
        <time>2017-12-17T09:22:59Z</time>
      </trkpt>
      <trkpt lat="43.45279" lon="6.25724">
        <ele>259.6</ele>
        <time>2017-12-17T09:23:08Z</time>
      </trkpt>
      <trkpt lat="43.45279" lon="6.25711">
        <ele>259.8</ele>
        <time>2017-12-17T09:23:21Z</time>
      </trkpt>
      <trkpt lat="43.45284" lon="6.257">
        <ele>259.4</ele>
        <time>2017-12-17T09:23:31Z</time>
      </trkpt>
      <trkpt lat="43.4529" lon="6.2569">
        <ele>258.8</ele>
        <time>2017-12-17T09:23:42Z</time>
      </trkpt>
      <trkpt lat="43.4529" lon="6.25677">
        <ele>257.5</ele>
        <time>2017-12-17T09:23:52Z</time>
      </trkpt>
      <trkpt lat="43.45294" lon="6.25664">
        <ele>256</ele>
        <time>2017-12-17T09:24:03Z</time>
      </trkpt>
      <trkpt lat="43.45298" lon="6.25651">
        <ele>254.9</ele>
        <time>2017-12-17T09:24:13Z</time>
      </trkpt>
      <trkpt lat="43.45303" lon="6.25641">
        <ele>255.8</ele>
        <time>2017-12-17T09:24:23Z</time>
      </trkpt>
      <trkpt lat="43.45308" lon="6.25629">
        <ele>256.6</ele>
        <time>2017-12-17T09:24:33Z</time>
      </trkpt>
      <trkpt lat="43.45308" lon="6.25617">
        <ele>257.5</ele>
        <time>2017-12-17T09:24:42Z</time>
      </trkpt>
      <trkpt lat="43.45308" lon="6.25604">
        <ele>258.9</ele>
        <time>2017-12-17T09:24:52Z</time>
      </trkpt>
      <trkpt lat="43.45314" lon="6.25594">
        <ele>260.9</ele>
        <time>2017-12-17T09:25:03Z</time>
      </trkpt>
      <trkpt lat="43.45321" lon="6.25586">
        <ele>261.7</ele>
        <time>2017-12-17T09:25:31Z</time>
      </trkpt>
      <trkpt lat="43.45311" lon="6.25586">
        <ele>263.2</ele>
        <time>2017-12-17T09:26:01Z</time>
      </trkpt>
      <trkpt lat="43.45304" lon="6.25593">
        <ele>265.8</ele>
        <time>2017-12-17T09:26:12Z</time>
      </trkpt>
      <trkpt lat="43.45296" lon="6.256">
        <ele>268.5</ele>
        <time>2017-12-17T09:26:23Z</time>
      </trkpt>
      <trkpt lat="43.45288" lon="6.25606">
        <ele>270.8</ele>
        <time>2017-12-17T09:26:37Z</time>
      </trkpt>
      <trkpt lat="43.45278" lon="6.25609">
        <ele>273.8</ele>
        <time>2017-12-17T09:26:53Z</time>
      </trkpt>
      <trkpt lat="43.45269" lon="6.25615">
        <ele>275.8</ele>
        <time>2017-12-17T09:27:06Z</time>
      </trkpt>
      <trkpt lat="43.45262" lon="6.25623">
        <ele>277.1</ele>
        <time>2017-12-17T09:27:17Z</time>
      </trkpt>
      <trkpt lat="43.45253" lon="6.25623">
        <ele>278.5</ele>
        <time>2017-12-17T09:27:29Z</time>
      </trkpt>
      <trkpt lat="43.45245" lon="6.25619">
        <ele>279.5</ele>
        <time>2017-12-17T09:27:43Z</time>
      </trkpt>
      <trkpt lat="43.45236" lon="6.25613">
        <ele>281.6</ele>
        <time>2017-12-17T09:27:58Z</time>
      </trkpt>
      <trkpt lat="43.45228" lon="6.25606">
        <ele>283.9</ele>
        <time>2017-12-17T09:28:13Z</time>
      </trkpt>
      <trkpt lat="43.45219" lon="6.25601">
        <ele>285.5</ele>
        <time>2017-12-17T09:28:28Z</time>
      </trkpt>
      <trkpt lat="43.45211" lon="6.25596">
        <ele>287.5</ele>
        <time>2017-12-17T09:28:45Z</time>
      </trkpt>
      <trkpt lat="43.45203" lon="6.25588">
        <ele>289.2</ele>
        <time>2017-12-17T09:28:59Z</time>
      </trkpt>
      <trkpt lat="43.45196" lon="6.2558">
        <ele>291.3</ele>
        <time>2017-12-17T09:29:13Z</time>
      </trkpt>
      <trkpt lat="43.45188" lon="6.25574">
        <ele>293.5</ele>
        <time>2017-12-17T09:29:29Z</time>
      </trkpt>
      <trkpt lat="43.4518" lon="6.2557">
        <ele>295.9</ele>
        <time>2017-12-17T09:29:44Z</time>
      </trkpt>
      <trkpt lat="43.4517" lon="6.25568">
        <ele>298.1</ele>
        <time>2017-12-17T09:29:59Z</time>
      </trkpt>
      <trkpt lat="43.45163" lon="6.25561">
        <ele>300.2</ele>
        <time>2017-12-17T09:30:15Z</time>
      </trkpt>
      <trkpt lat="43.4516" lon="6.25549">
        <ele>301.8</ele>
        <time>2017-12-17T09:30:26Z</time>
      </trkpt>
      <trkpt lat="43.45162" lon="6.25537">
        <ele>302.4</ele>
        <time>2017-12-17T09:30:36Z</time>
      </trkpt>
      <trkpt lat="43.45164" lon="6.25525">
        <ele>303.3</ele>
        <time>2017-12-17T09:30:47Z</time>
      </trkpt>
      <trkpt lat="43.45163" lon="6.25512">
        <ele>304.8</ele>
        <time>2017-12-17T09:30:59Z</time>
      </trkpt>
      <trkpt lat="43.45164" lon="6.25499">
        <ele>306.1</ele>
        <time>2017-12-17T09:31:10Z</time>
      </trkpt>
      <trkpt lat="43.45164" lon="6.25486">
        <ele>307.2</ele>
        <time>2017-12-17T09:31:23Z</time>
      </trkpt>
      <trkpt lat="43.45165" lon="6.25472">
        <ele>307.8</ele>
        <time>2017-12-17T09:31:35Z</time>
      </trkpt>
      <trkpt lat="43.45162" lon="6.2546">
        <ele>308.1</ele>
        <time>2017-12-17T09:31:47Z</time>
      </trkpt>
      <trkpt lat="43.45165" lon="6.25448">
        <ele>307.5</ele>
        <time>2017-12-17T09:34:06Z</time>
      </trkpt>
      <trkpt lat="43.45167" lon="6.25436">
        <ele>307</ele>
        <time>2017-12-17T09:34:17Z</time>
      </trkpt>
      <trkpt lat="43.45164" lon="6.25424">
        <ele>305.7</ele>
        <time>2017-12-17T09:34:51Z</time>
      </trkpt>
      <trkpt lat="43.45162" lon="6.25411">
        <ele>303.8</ele>
        <time>2017-12-17T09:35:08Z</time>
      </trkpt>
      <trkpt lat="43.45158" lon="6.254">
        <ele>301.4</ele>
        <time>2017-12-17T09:35:23Z</time>
      </trkpt>
      <trkpt lat="43.45153" lon="6.2539">
        <ele>299.2</ele>
        <time>2017-12-17T09:35:36Z</time>
      </trkpt>
      <trkpt lat="43.4515" lon="6.25377">
        <ele>296.3</ele>
        <time>2017-12-17T09:35:51Z</time>
      </trkpt>
      <trkpt lat="43.45147" lon="6.25365">
        <ele>293.3</ele>
        <time>2017-12-17T09:36:05Z</time>
      </trkpt>
      <trkpt lat="43.45145" lon="6.25352">
        <ele>290.4</ele>
        <time>2017-12-17T09:36:19Z</time>
      </trkpt>
      <trkpt lat="43.45143" lon="6.2534">
        <ele>287.4</ele>
        <time>2017-12-17T09:36:36Z</time>
      </trkpt>
      <trkpt lat="43.45142" lon="6.25326">
        <ele>284.7</ele>
        <time>2017-12-17T09:36:52Z</time>
      </trkpt>
      <trkpt lat="43.4514" lon="6.25313">
        <ele>283.5</ele>
        <time>2017-12-17T09:37:00Z</time>
      </trkpt>
      <trkpt lat="43.45143" lon="6.25301">
        <ele>283.2</ele>
        <time>2017-12-17T09:37:11Z</time>
      </trkpt>
      <trkpt lat="43.45147" lon="6.25289">
        <ele>283</ele>
        <time>2017-12-17T09:37:20Z</time>
      </trkpt>
      <trkpt lat="43.45147" lon="6.25276">
        <ele>282.9</ele>
        <time>2017-12-17T09:37:29Z</time>
      </trkpt>
      <trkpt lat="43.45147" lon="6.25264">
        <ele>282.6</ele>
        <time>2017-12-17T09:37:37Z</time>
      </trkpt>
      <trkpt lat="43.45146" lon="6.2525">
        <ele>282.5</ele>
        <time>2017-12-17T09:37:46Z</time>
      </trkpt>
      <trkpt lat="43.45147" lon="6.25237">
        <ele>282.5</ele>
        <time>2017-12-17T09:37:55Z</time>
      </trkpt>
      <trkpt lat="43.4515" lon="6.25226">
        <ele>282.2</ele>
        <time>2017-12-17T09:38:05Z</time>
      </trkpt>
      <trkpt lat="43.45155" lon="6.25215">
        <ele>281.7</ele>
        <time>2017-12-17T09:38:14Z</time>
      </trkpt>
      <trkpt lat="43.45159" lon="6.25202">
        <ele>281.1</ele>
        <time>2017-12-17T09:38:25Z</time>
      </trkpt>
      <trkpt lat="43.45163" lon="6.2519">
        <ele>280.6</ele>
        <time>2017-12-17T09:38:35Z</time>
      </trkpt>
      <trkpt lat="43.45163" lon="6.25176">
        <ele>280.5</ele>
        <time>2017-12-17T09:38:44Z</time>
      </trkpt>
      <trkpt lat="43.45162" lon="6.25163">
        <ele>280.4</ele>
        <time>2017-12-17T09:38:53Z</time>
      </trkpt>
      <trkpt lat="43.45163" lon="6.25151">
        <ele>279.6</ele>
        <time>2017-12-17T09:39:02Z</time>
      </trkpt>
      <trkpt lat="43.45163" lon="6.25138">
        <ele>278.7</ele>
        <time>2017-12-17T09:39:12Z</time>
      </trkpt>
      <trkpt lat="43.45162" lon="6.25125">
        <ele>278.2</ele>
        <time>2017-12-17T09:39:22Z</time>
      </trkpt>
      <trkpt lat="43.45161" lon="6.25112">
        <ele>277.6</ele>
        <time>2017-12-17T09:39:32Z</time>
      </trkpt>
      <trkpt lat="43.45157" lon="6.251">
        <ele>277.2</ele>
        <time>2017-12-17T09:39:42Z</time>
      </trkpt>
      <trkpt lat="43.45155" lon="6.25087">
        <ele>276.3</ele>
        <time>2017-12-17T09:39:52Z</time>
      </trkpt>
      <trkpt lat="43.45153" lon="6.25075">
        <ele>275.6</ele>
        <time>2017-12-17T09:40:01Z</time>
      </trkpt>
      <trkpt lat="43.4515" lon="6.25062">
        <ele>275</ele>
        <time>2017-12-17T09:40:10Z</time>
      </trkpt>
      <trkpt lat="43.45148" lon="6.25049">
        <ele>275</ele>
        <time>2017-12-17T09:40:19Z</time>
      </trkpt>
      <trkpt lat="43.45146" lon="6.25036">
        <ele>274.7</ele>
        <time>2017-12-17T09:40:27Z</time>
      </trkpt>
      <trkpt lat="43.45145" lon="6.25024">
        <ele>274.3</ele>
        <time>2017-12-17T09:40:35Z</time>
      </trkpt>
      <trkpt lat="43.45143" lon="6.25011">
        <ele>274.3</ele>
        <time>2017-12-17T09:40:43Z</time>
      </trkpt>
      <trkpt lat="43.45139" lon="6.25">
        <ele>273.6</ele>
        <time>2017-12-17T09:40:51Z</time>
      </trkpt>
      <trkpt lat="43.45136" lon="6.24988">
        <ele>273.3</ele>
        <time>2017-12-17T09:41:00Z</time>
      </trkpt>
      <trkpt lat="43.45133" lon="6.24976">
        <ele>272.6</ele>
        <time>2017-12-17T09:41:09Z</time>
      </trkpt>
      <trkpt lat="43.45132" lon="6.24963">
        <ele>271.9</ele>
        <time>2017-12-17T09:41:18Z</time>
      </trkpt>
      <trkpt lat="43.45131" lon="6.24951">
        <ele>271.6</ele>
        <time>2017-12-17T09:41:27Z</time>
      </trkpt>
      <trkpt lat="43.45131" lon="6.24938">
        <ele>271</ele>
        <time>2017-12-17T09:41:37Z</time>
      </trkpt>
      <trkpt lat="43.45135" lon="6.24926">
        <ele>270.2</ele>
        <time>2017-12-17T09:41:44Z</time>
      </trkpt>
      <trkpt lat="43.45137" lon="6.24912">
        <ele>269.1</ele>
        <time>2017-12-17T09:41:53Z</time>
      </trkpt>
      <trkpt lat="43.45135" lon="6.249">
        <ele>268.8</ele>
        <time>2017-12-17T09:42:01Z</time>
      </trkpt>
      <trkpt lat="43.45134" lon="6.24886">
        <ele>267.9</ele>
        <time>2017-12-17T09:42:10Z</time>
      </trkpt>
      <trkpt lat="43.45132" lon="6.24874">
        <ele>266.6</ele>
        <time>2017-12-17T09:42:20Z</time>
      </trkpt>
      <trkpt lat="43.45131" lon="6.24861">
        <ele>265.6</ele>
        <time>2017-12-17T09:42:29Z</time>
      </trkpt>
      <trkpt lat="43.45129" lon="6.24848">
        <ele>264.7</ele>
        <time>2017-12-17T09:42:39Z</time>
      </trkpt>
      <trkpt lat="43.45127" lon="6.24835">
        <ele>264.1</ele>
        <time>2017-12-17T09:42:47Z</time>
      </trkpt>
      <trkpt lat="43.45124" lon="6.24823">
        <ele>263.7</ele>
        <time>2017-12-17T09:42:55Z</time>
      </trkpt>
      <trkpt lat="43.45119" lon="6.24812">
        <ele>263</ele>
        <time>2017-12-17T09:43:05Z</time>
      </trkpt>
      <trkpt lat="43.45116" lon="6.24801">
        <ele>262.3</ele>
        <time>2017-12-17T09:43:13Z</time>
      </trkpt>
      <trkpt lat="43.45111" lon="6.2479">
        <ele>261.9</ele>
        <time>2017-12-17T09:43:21Z</time>
      </trkpt>
      <trkpt lat="43.45107" lon="6.24778">
        <ele>261.7</ele>
        <time>2017-12-17T09:43:30Z</time>
      </trkpt>
      <trkpt lat="43.45103" lon="6.24765">
        <ele>261.3</ele>
        <time>2017-12-17T09:43:39Z</time>
      </trkpt>
      <trkpt lat="43.45099" lon="6.24754">
        <ele>260</ele>
        <time>2017-12-17T09:43:47Z</time>
      </trkpt>
      <trkpt lat="43.45093" lon="6.24744">
        <ele>258.8</ele>
        <time>2017-12-17T09:43:55Z</time>
      </trkpt>
      <trkpt lat="43.45089" lon="6.24731">
        <ele>258.7</ele>
        <time>2017-12-17T09:44:04Z</time>
      </trkpt>
      <trkpt lat="43.45086" lon="6.24718">
        <ele>258.4</ele>
        <time>2017-12-17T09:44:13Z</time>
      </trkpt>
      <trkpt lat="43.45082" lon="6.24707">
        <ele>257.9</ele>
        <time>2017-12-17T09:44:20Z</time>
      </trkpt>
      <trkpt lat="43.45078" lon="6.24695">
        <ele>257.2</ele>
        <time>2017-12-17T09:44:29Z</time>
      </trkpt>
      <trkpt lat="43.45073" lon="6.24683">
        <ele>257.2</ele>
        <time>2017-12-17T09:44:38Z</time>
      </trkpt>
      <trkpt lat="43.4507" lon="6.2467">
        <ele>256.2</ele>
        <time>2017-12-17T09:44:46Z</time>
      </trkpt>
      <trkpt lat="43.45065" lon="6.24659">
        <ele>256.4</ele>
        <time>2017-12-17T09:44:54Z</time>
      </trkpt>
      <trkpt lat="43.45058" lon="6.24649">
        <ele>256.4</ele>
        <time>2017-12-17T09:45:01Z</time>
      </trkpt>
      <trkpt lat="43.4505" lon="6.24644">
        <ele>256.4</ele>
        <time>2017-12-17T09:45:08Z</time>
      </trkpt>
      <trkpt lat="43.45043" lon="6.24634">
        <ele>256.2</ele>
        <time>2017-12-17T09:45:16Z</time>
      </trkpt>
      <trkpt lat="43.45044" lon="6.24622">
        <ele>257</ele>
        <time>2017-12-17T09:45:26Z</time>
      </trkpt>
      <trkpt lat="43.45048" lon="6.2461">
        <ele>256.5</ele>
        <time>2017-12-17T09:45:35Z</time>
      </trkpt>
      <trkpt lat="43.45046" lon="6.24596">
        <ele>256</ele>
        <time>2017-12-17T09:45:44Z</time>
      </trkpt>
      <trkpt lat="43.45044" lon="6.24583">
        <ele>255.2</ele>
        <time>2017-12-17T09:45:53Z</time>
      </trkpt>
      <trkpt lat="43.4504" lon="6.2457">
        <ele>254.6</ele>
        <time>2017-12-17T09:46:01Z</time>
      </trkpt>
      <trkpt lat="43.45033" lon="6.24562">
        <ele>254.1</ele>
        <time>2017-12-17T09:46:09Z</time>
      </trkpt>
      <trkpt lat="43.45024" lon="6.24556">
        <ele>254</ele>
        <time>2017-12-17T09:46:18Z</time>
      </trkpt>
      <trkpt lat="43.45015" lon="6.24558">
        <ele>253.9</ele>
        <time>2017-12-17T09:46:27Z</time>
      </trkpt>
      <trkpt lat="43.45006" lon="6.24559">
        <ele>253.8</ele>
        <time>2017-12-17T09:46:35Z</time>
      </trkpt>
      <trkpt lat="43.44998" lon="6.24552">
        <ele>253.9</ele>
        <time>2017-12-17T09:46:42Z</time>
      </trkpt>
      <trkpt lat="43.44989" lon="6.24544">
        <ele>253.7</ele>
        <time>2017-12-17T09:46:50Z</time>
      </trkpt>
      <trkpt lat="43.44983" lon="6.24534">
        <ele>253.2</ele>
        <time>2017-12-17T09:46:58Z</time>
      </trkpt>
      <trkpt lat="43.44977" lon="6.24523">
        <ele>253</ele>
        <time>2017-12-17T09:47:04Z</time>
      </trkpt>
      <trkpt lat="43.44974" lon="6.2451">
        <ele>252.4</ele>
        <time>2017-12-17T09:47:11Z</time>
      </trkpt>
      <trkpt lat="43.44971" lon="6.24498">
        <ele>252.2</ele>
        <time>2017-12-17T09:47:19Z</time>
      </trkpt>
      <trkpt lat="43.44971" lon="6.24486">
        <ele>252</ele>
        <time>2017-12-17T09:47:26Z</time>
      </trkpt>
      <trkpt lat="43.44969" lon="6.24473">
        <ele>251.3</ele>
        <time>2017-12-17T09:47:35Z</time>
      </trkpt>
      <trkpt lat="43.4497" lon="6.24461">
        <ele>250.7</ele>
        <time>2017-12-17T09:47:43Z</time>
      </trkpt>
      <trkpt lat="43.44968" lon="6.24449">
        <ele>250</ele>
        <time>2017-12-17T09:47:51Z</time>
      </trkpt>
      <trkpt lat="43.4497" lon="6.24436">
        <ele>249.4</ele>
        <time>2017-12-17T09:47:59Z</time>
      </trkpt>
      <trkpt lat="43.44972" lon="6.24423">
        <ele>248.8</ele>
        <time>2017-12-17T09:48:08Z</time>
      </trkpt>
      <trkpt lat="43.44973" lon="6.24409">
        <ele>248.3</ele>
        <time>2017-12-17T09:48:16Z</time>
      </trkpt>
      <trkpt lat="43.44969" lon="6.24397">
        <ele>247.9</ele>
        <time>2017-12-17T09:48:25Z</time>
      </trkpt>
      <trkpt lat="43.44965" lon="6.24385">
        <ele>247.2</ele>
        <time>2017-12-17T09:48:34Z</time>
      </trkpt>
      <trkpt lat="43.44959" lon="6.24373">
        <ele>246.6</ele>
        <time>2017-12-17T09:48:43Z</time>
      </trkpt>
      <trkpt lat="43.44954" lon="6.24363">
        <ele>246.1</ele>
        <time>2017-12-17T09:48:52Z</time>
      </trkpt>
      <trkpt lat="43.44949" lon="6.24353">
        <ele>245.8</ele>
        <time>2017-12-17T09:49:02Z</time>
      </trkpt>
      <trkpt lat="43.44944" lon="6.2434">
        <ele>245.3</ele>
        <time>2017-12-17T09:49:11Z</time>
      </trkpt>
      <trkpt lat="43.44938" lon="6.2433">
        <ele>244.1</ele>
        <time>2017-12-17T09:50:01Z</time>
      </trkpt>
      <trkpt lat="43.44935" lon="6.24319">
        <ele>243.8</ele>
        <time>2017-12-17T09:50:12Z</time>
      </trkpt>
      <trkpt lat="43.44931" lon="6.24308">
        <ele>243.2</ele>
        <time>2017-12-17T09:50:20Z</time>
      </trkpt>
      <trkpt lat="43.44926" lon="6.24295">
        <ele>242.6</ele>
        <time>2017-12-17T09:50:29Z</time>
      </trkpt>
      <trkpt lat="43.44924" lon="6.24282">
        <ele>241.7</ele>
        <time>2017-12-17T09:50:38Z</time>
      </trkpt>
      <trkpt lat="43.44919" lon="6.2427">
        <ele>240.9</ele>
        <time>2017-12-17T09:50:47Z</time>
      </trkpt>
      <trkpt lat="43.44917" lon="6.24258">
        <ele>240.1</ele>
        <time>2017-12-17T09:50:55Z</time>
      </trkpt>
      <trkpt lat="43.44913" lon="6.24245">
        <ele>239.7</ele>
        <time>2017-12-17T09:51:05Z</time>
      </trkpt>
      <trkpt lat="43.44908" lon="6.24234">
        <ele>239.4</ele>
        <time>2017-12-17T09:51:13Z</time>
      </trkpt>
      <trkpt lat="43.44906" lon="6.24221">
        <ele>238.3</ele>
        <time>2017-12-17T09:51:22Z</time>
      </trkpt>
      <trkpt lat="43.44901" lon="6.24209">
        <ele>237</ele>
        <time>2017-12-17T09:51:31Z</time>
      </trkpt>
      <trkpt lat="43.44898" lon="6.24196">
        <ele>236.2</ele>
        <time>2017-12-17T09:51:40Z</time>
      </trkpt>
      <trkpt lat="43.44896" lon="6.24183">
        <ele>235.8</ele>
        <time>2017-12-17T09:51:48Z</time>
      </trkpt>
      <trkpt lat="43.44895" lon="6.24169">
        <ele>234.9</ele>
        <time>2017-12-17T09:51:57Z</time>
      </trkpt>
      <trkpt lat="43.44887" lon="6.24161">
        <ele>234.8</ele>
        <time>2017-12-17T09:52:06Z</time>
      </trkpt>
      <trkpt lat="43.4488" lon="6.24152">
        <ele>234.2</ele>
        <time>2017-12-17T09:52:15Z</time>
      </trkpt>
      <trkpt lat="43.44872" lon="6.24143">
        <ele>233.9</ele>
        <time>2017-12-17T09:52:25Z</time>
      </trkpt>
      <trkpt lat="43.44864" lon="6.24136">
        <ele>233.7</ele>
        <time>2017-12-17T09:52:38Z</time>
      </trkpt>
      <trkpt lat="43.44865" lon="6.24123">
        <ele>232.2</ele>
        <time>2017-12-17T09:53:14Z</time>
      </trkpt>
      <trkpt lat="43.44865" lon="6.2411">
        <ele>231.3</ele>
        <time>2017-12-17T09:53:46Z</time>
      </trkpt>
      <trkpt lat="43.44858" lon="6.241">
        <ele>231</ele>
        <time>2017-12-17T09:53:59Z</time>
      </trkpt>
      <trkpt lat="43.44851" lon="6.24091">
        <ele>231.6</ele>
        <time>2017-12-17T09:54:10Z</time>
      </trkpt>
      <trkpt lat="43.44846" lon="6.2408">
        <ele>232.2</ele>
        <time>2017-12-17T09:54:18Z</time>
      </trkpt>
      <trkpt lat="43.44845" lon="6.24066">
        <ele>232.6</ele>
        <time>2017-12-17T09:54:27Z</time>
      </trkpt>
      <trkpt lat="43.4484" lon="6.24056">
        <ele>232.4</ele>
        <time>2017-12-17T09:54:37Z</time>
      </trkpt>
      <trkpt lat="43.44836" lon="6.24044">
        <ele>232.6</ele>
        <time>2017-12-17T09:54:53Z</time>
      </trkpt>
      <trkpt lat="43.44834" lon="6.24031">
        <ele>232.3</ele>
        <time>2017-12-17T09:55:02Z</time>
      </trkpt>
      <trkpt lat="43.4483" lon="6.24019">
        <ele>232.3</ele>
        <time>2017-12-17T09:55:11Z</time>
      </trkpt>
      <trkpt lat="43.44827" lon="6.24007">
        <ele>232.3</ele>
        <time>2017-12-17T09:55:18Z</time>
      </trkpt>
      <trkpt lat="43.44825" lon="6.23994">
        <ele>231.6</ele>
        <time>2017-12-17T09:55:26Z</time>
      </trkpt>
      <trkpt lat="43.44823" lon="6.23981">
        <ele>231</ele>
        <time>2017-12-17T09:55:35Z</time>
      </trkpt>
      <trkpt lat="43.4482" lon="6.23968">
        <ele>231.2</ele>
        <time>2017-12-17T09:55:43Z</time>
      </trkpt>
      <trkpt lat="43.44819" lon="6.23955">
        <ele>231.2</ele>
        <time>2017-12-17T09:55:50Z</time>
      </trkpt>
      <trkpt lat="43.44817" lon="6.23943">
        <ele>230.9</ele>
        <time>2017-12-17T09:55:57Z</time>
      </trkpt>
      <trkpt lat="43.44815" lon="6.23929">
        <ele>230.5</ele>
        <time>2017-12-17T09:56:05Z</time>
      </trkpt>
      <trkpt lat="43.44814" lon="6.23917">
        <ele>229.5</ele>
        <time>2017-12-17T09:56:13Z</time>
      </trkpt>
      <trkpt lat="43.44812" lon="6.23905">
        <ele>228.3</ele>
        <time>2017-12-17T09:56:20Z</time>
      </trkpt>
      <trkpt lat="43.4481" lon="6.23892">
        <ele>228.4</ele>
        <time>2017-12-17T09:56:27Z</time>
      </trkpt>
      <trkpt lat="43.44807" lon="6.23879">
        <ele>228.5</ele>
        <time>2017-12-17T09:56:35Z</time>
      </trkpt>
      <trkpt lat="43.44806" lon="6.23866">
        <ele>228</ele>
        <time>2017-12-17T09:56:42Z</time>
      </trkpt>
      <trkpt lat="43.44809" lon="6.23854">
        <ele>227.8</ele>
        <time>2017-12-17T09:56:49Z</time>
      </trkpt>
      <trkpt lat="43.44807" lon="6.23841">
        <ele>227.5</ele>
        <time>2017-12-17T09:56:56Z</time>
      </trkpt>
      <trkpt lat="43.44804" lon="6.23828">
        <ele>226.6</ele>
        <time>2017-12-17T09:57:03Z</time>
      </trkpt>
      <trkpt lat="43.44802" lon="6.23815">
        <ele>226.3</ele>
        <time>2017-12-17T09:57:11Z</time>
      </trkpt>
      <trkpt lat="43.44803" lon="6.23802">
        <ele>227</ele>
        <time>2017-12-17T09:57:18Z</time>
      </trkpt>
      <trkpt lat="43.44802" lon="6.2379">
        <ele>226</ele>
        <time>2017-12-17T09:57:25Z</time>
      </trkpt>
      <trkpt lat="43.44803" lon="6.23777">
        <ele>224.9</ele>
        <time>2017-12-17T09:57:32Z</time>
      </trkpt>
      <trkpt lat="43.44804" lon="6.23764">
        <ele>224.5</ele>
        <time>2017-12-17T09:57:40Z</time>
      </trkpt>
      <trkpt lat="43.44802" lon="6.23752">
        <ele>224.6</ele>
        <time>2017-12-17T09:57:47Z</time>
      </trkpt>
      <trkpt lat="43.44796" lon="6.23742">
        <ele>224.7</ele>
        <time>2017-12-17T09:57:55Z</time>
      </trkpt>
      <trkpt lat="43.44788" lon="6.23734">
        <ele>224.6</ele>
        <time>2017-12-17T09:58:03Z</time>
      </trkpt>
      <trkpt lat="43.44783" lon="6.23721">
        <ele>224.4</ele>
        <time>2017-12-17T09:58:10Z</time>
      </trkpt>
      <trkpt lat="43.44779" lon="6.23709">
        <ele>224</ele>
        <time>2017-12-17T09:58:18Z</time>
      </trkpt>
      <trkpt lat="43.44778" lon="6.23696">
        <ele>223.4</ele>
        <time>2017-12-17T09:58:25Z</time>
      </trkpt>
      <trkpt lat="43.44778" lon="6.23683">
        <ele>222.9</ele>
        <time>2017-12-17T09:58:32Z</time>
      </trkpt>
      <trkpt lat="43.44777" lon="6.2367">
        <ele>222.7</ele>
        <time>2017-12-17T09:58:39Z</time>
      </trkpt>
      <trkpt lat="43.44782" lon="6.23659">
        <ele>222.7</ele>
        <time>2017-12-17T09:58:47Z</time>
      </trkpt>
      <trkpt lat="43.44786" lon="6.23647">
        <ele>222.7</ele>
        <time>2017-12-17T09:58:55Z</time>
      </trkpt>
      <trkpt lat="43.44787" lon="6.23634">
        <ele>222.4</ele>
        <time>2017-12-17T09:59:02Z</time>
      </trkpt>
      <trkpt lat="43.44789" lon="6.23621">
        <ele>222.2</ele>
        <time>2017-12-17T09:59:09Z</time>
      </trkpt>
      <trkpt lat="43.44791" lon="6.23609">
        <ele>221.7</ele>
        <time>2017-12-17T09:59:16Z</time>
      </trkpt>
      <trkpt lat="43.44794" lon="6.23596">
        <ele>221.7</ele>
        <time>2017-12-17T09:59:24Z</time>
      </trkpt>
      <trkpt lat="43.44801" lon="6.23587">
        <ele>221.6</ele>
        <time>2017-12-17T09:59:32Z</time>
      </trkpt>
      <trkpt lat="43.44807" lon="6.23577">
        <ele>221.1</ele>
        <time>2017-12-17T09:59:41Z</time>
      </trkpt>
      <trkpt lat="43.44801" lon="6.23565">
        <ele>220.8</ele>
        <time>2017-12-17T09:59:49Z</time>
      </trkpt>
      <trkpt lat="43.44797" lon="6.23554">
        <ele>220.7</ele>
        <time>2017-12-17T09:59:56Z</time>
      </trkpt>
      <trkpt lat="43.44793" lon="6.23542">
        <ele>220.8</ele>
        <time>2017-12-17T10:00:04Z</time>
      </trkpt>
      <trkpt lat="43.44789" lon="6.2353">
        <ele>220.7</ele>
        <time>2017-12-17T10:00:11Z</time>
      </trkpt>
      <trkpt lat="43.44785" lon="6.23519">
        <ele>220.2</ele>
        <time>2017-12-17T10:00:18Z</time>
      </trkpt>
      <trkpt lat="43.44786" lon="6.23506">
        <ele>220.2</ele>
        <time>2017-12-17T10:00:39Z</time>
      </trkpt>
      <trkpt lat="43.44776" lon="6.23503">
        <ele>220.5</ele>
        <time>2017-12-17T10:00:58Z</time>
      </trkpt>
      <trkpt lat="43.44773" lon="6.23491">
        <ele>220.3</ele>
        <time>2017-12-17T10:01:08Z</time>
      </trkpt>
      <trkpt lat="43.44776" lon="6.23478">
        <ele>220.2</ele>
        <time>2017-12-17T10:01:22Z</time>
      </trkpt>
      <trkpt lat="43.44779" lon="6.23466">
        <ele>219.7</ele>
        <time>2017-12-17T10:01:34Z</time>
      </trkpt>
      <trkpt lat="43.44772" lon="6.23459">
        <ele>220.2</ele>
        <time>2017-12-17T10:01:45Z</time>
      </trkpt>
      <trkpt lat="43.44763" lon="6.23464">
        <ele>220.9</ele>
        <time>2017-12-17T10:02:19Z</time>
      </trkpt>
      <trkpt lat="43.44754" lon="6.23463">
        <ele>221.6</ele>
        <time>2017-12-17T10:02:28Z</time>
      </trkpt>
      <trkpt lat="43.44745" lon="6.23464">
        <ele>222.5</ele>
        <time>2017-12-17T10:02:37Z</time>
      </trkpt>
      <trkpt lat="43.44735" lon="6.23463">
        <ele>223.4</ele>
        <time>2017-12-17T10:02:46Z</time>
      </trkpt>
      <trkpt lat="43.44726" lon="6.23465">
        <ele>224.5</ele>
        <time>2017-12-17T10:02:55Z</time>
      </trkpt>
      <trkpt lat="43.44716" lon="6.23464">
        <ele>225.5</ele>
        <time>2017-12-17T10:03:02Z</time>
      </trkpt>
      <trkpt lat="43.44707" lon="6.23463">
        <ele>226.4</ele>
        <time>2017-12-17T10:03:10Z</time>
      </trkpt>
      <trkpt lat="43.44697" lon="6.23463">
        <ele>227.4</ele>
        <time>2017-12-17T10:03:19Z</time>
      </trkpt>
      <trkpt lat="43.44687" lon="6.2346">
        <ele>228.3</ele>
        <time>2017-12-17T10:03:27Z</time>
      </trkpt>
      <trkpt lat="43.44678" lon="6.23455">
        <ele>229.3</ele>
        <time>2017-12-17T10:03:36Z</time>
      </trkpt>
      <trkpt lat="43.44671" lon="6.23446">
        <ele>229.9</ele>
        <time>2017-12-17T10:03:43Z</time>
      </trkpt>
      <trkpt lat="43.44666" lon="6.23436">
        <ele>230.4</ele>
        <time>2017-12-17T10:03:50Z</time>
      </trkpt>
      <trkpt lat="43.44658" lon="6.23427">
        <ele>230.6</ele>
        <time>2017-12-17T10:03:58Z</time>
      </trkpt>
      <trkpt lat="43.44654" lon="6.23415">
        <ele>230.6</ele>
        <time>2017-12-17T10:04:06Z</time>
      </trkpt>
      <trkpt lat="43.44649" lon="6.23404">
        <ele>230.6</ele>
        <time>2017-12-17T10:04:14Z</time>
      </trkpt>
      <trkpt lat="43.44644" lon="6.23391">
        <ele>230.7</ele>
        <time>2017-12-17T10:04:22Z</time>
      </trkpt>
      <trkpt lat="43.44638" lon="6.23382">
        <ele>231.2</ele>
        <time>2017-12-17T10:04:30Z</time>
      </trkpt>
      <trkpt lat="43.44632" lon="6.2337">
        <ele>231.5</ele>
        <time>2017-12-17T10:04:38Z</time>
      </trkpt>
      <trkpt lat="43.44628" lon="6.23357">
        <ele>231.6</ele>
        <time>2017-12-17T10:04:47Z</time>
      </trkpt>
      <trkpt lat="43.44622" lon="6.23348">
        <ele>232.4</ele>
        <time>2017-12-17T10:04:55Z</time>
      </trkpt>
      <trkpt lat="43.44615" lon="6.23339">
        <ele>233.2</ele>
        <time>2017-12-17T10:05:03Z</time>
      </trkpt>
      <trkpt lat="43.44612" lon="6.23326">
        <ele>233.5</ele>
        <time>2017-12-17T10:05:10Z</time>
      </trkpt>
      <trkpt lat="43.44607" lon="6.23312">
        <ele>233.8</ele>
        <time>2017-12-17T10:05:18Z</time>
      </trkpt>
      <trkpt lat="43.44604" lon="6.23301">
        <ele>234.2</ele>
        <time>2017-12-17T10:05:25Z</time>
      </trkpt>
      <trkpt lat="43.44598" lon="6.23289">
        <ele>234.8</ele>
        <time>2017-12-17T10:05:35Z</time>
      </trkpt>
      <trkpt lat="43.44591" lon="6.2328">
        <ele>235.7</ele>
        <time>2017-12-17T10:05:44Z</time>
      </trkpt>
      <trkpt lat="43.44583" lon="6.23273">
        <ele>236.5</ele>
        <time>2017-12-17T10:05:51Z</time>
      </trkpt>
      <trkpt lat="43.44577" lon="6.23265">
        <ele>237.6</ele>
        <time>2017-12-17T10:05:59Z</time>
      </trkpt>
      <trkpt lat="43.44568" lon="6.23259">
        <ele>238.7</ele>
        <time>2017-12-17T10:06:07Z</time>
      </trkpt>
      <trkpt lat="43.44559" lon="6.23253">
        <ele>239.5</ele>
        <time>2017-12-17T10:06:14Z</time>
      </trkpt>
      <trkpt lat="43.44551" lon="6.23247">
        <ele>240.7</ele>
        <time>2017-12-17T10:06:23Z</time>
      </trkpt>
      <trkpt lat="43.44543" lon="6.23239">
        <ele>241.8</ele>
        <time>2017-12-17T10:06:32Z</time>
      </trkpt>
      <trkpt lat="43.44536" lon="6.2323">
        <ele>242.7</ele>
        <time>2017-12-17T10:06:42Z</time>
      </trkpt>
      <trkpt lat="43.44529" lon="6.23221">
        <ele>243.6</ele>
        <time>2017-12-17T10:06:49Z</time>
      </trkpt>
      <trkpt lat="43.44524" lon="6.23211">
        <ele>244.4</ele>
        <time>2017-12-17T10:06:57Z</time>
      </trkpt>
      <trkpt lat="43.44517" lon="6.23201">
        <ele>245.7</ele>
        <time>2017-12-17T10:07:06Z</time>
      </trkpt>
      <trkpt lat="43.44512" lon="6.2319">
        <ele>247.1</ele>
        <time>2017-12-17T10:07:15Z</time>
      </trkpt>
      <trkpt lat="43.44506" lon="6.23178">
        <ele>248.6</ele>
        <time>2017-12-17T10:07:24Z</time>
      </trkpt>
      <trkpt lat="43.44501" lon="6.23168">
        <ele>249.7</ele>
        <time>2017-12-17T10:07:34Z</time>
      </trkpt>
      <trkpt lat="43.44495" lon="6.23157">
        <ele>250.9</ele>
        <time>2017-12-17T10:07:44Z</time>
      </trkpt>
      <trkpt lat="43.44489" lon="6.23147">
        <ele>251.9</ele>
        <time>2017-12-17T10:07:52Z</time>
      </trkpt>
      <trkpt lat="43.44482" lon="6.23138">
        <ele>253.2</ele>
        <time>2017-12-17T10:08:01Z</time>
      </trkpt>
      <trkpt lat="43.44475" lon="6.2313">
        <ele>254.4</ele>
        <time>2017-12-17T10:08:10Z</time>
      </trkpt>
      <trkpt lat="43.44469" lon="6.2312">
        <ele>255.6</ele>
        <time>2017-12-17T10:08:18Z</time>
      </trkpt>
      <trkpt lat="43.44461" lon="6.23112">
        <ele>256.3</ele>
        <time>2017-12-17T10:08:27Z</time>
      </trkpt>
      <trkpt lat="43.44454" lon="6.23102">
        <ele>257.5</ele>
        <time>2017-12-17T10:08:37Z</time>
      </trkpt>
      <trkpt lat="43.44448" lon="6.23093">
        <ele>259.4</ele>
        <time>2017-12-17T10:08:46Z</time>
      </trkpt>
      <trkpt lat="43.4444" lon="6.23085">
        <ele>260.6</ele>
        <time>2017-12-17T10:08:54Z</time>
      </trkpt>
      <trkpt lat="43.44433" lon="6.23076">
        <ele>261.5</ele>
        <time>2017-12-17T10:09:03Z</time>
      </trkpt>
      <trkpt lat="43.44425" lon="6.23069">
        <ele>262.1</ele>
        <time>2017-12-17T10:09:11Z</time>
      </trkpt>
      <trkpt lat="43.44418" lon="6.2306">
        <ele>263.5</ele>
        <time>2017-12-17T10:09:20Z</time>
      </trkpt>
      <trkpt lat="43.4441" lon="6.23053">
        <ele>264.7</ele>
        <time>2017-12-17T10:09:28Z</time>
      </trkpt>
      <trkpt lat="43.44404" lon="6.23043">
        <ele>265.8</ele>
        <time>2017-12-17T10:09:36Z</time>
      </trkpt>
      <trkpt lat="43.44398" lon="6.23033">
        <ele>266.4</ele>
        <time>2017-12-17T10:09:44Z</time>
      </trkpt>
      <trkpt lat="43.44392" lon="6.23023">
        <ele>267.4</ele>
        <time>2017-12-17T10:09:53Z</time>
      </trkpt>
      <trkpt lat="43.44385" lon="6.23015">
        <ele>268.4</ele>
        <time>2017-12-17T10:10:01Z</time>
      </trkpt>
      <trkpt lat="43.44378" lon="6.23006">
        <ele>269.7</ele>
        <time>2017-12-17T10:10:09Z</time>
      </trkpt>
      <trkpt lat="43.44374" lon="6.22995">
        <ele>270.9</ele>
        <time>2017-12-17T10:10:18Z</time>
      </trkpt>
      <trkpt lat="43.44368" lon="6.22986">
        <ele>271.8</ele>
        <time>2017-12-17T10:10:26Z</time>
      </trkpt>
      <trkpt lat="43.44362" lon="6.22976">
        <ele>273.6</ele>
        <time>2017-12-17T10:10:35Z</time>
      </trkpt>
      <trkpt lat="43.44356" lon="6.22966">
        <ele>274.7</ele>
        <time>2017-12-17T10:10:43Z</time>
      </trkpt>
      <trkpt lat="43.44348" lon="6.22959">
        <ele>276.1</ele>
        <time>2017-12-17T10:10:52Z</time>
      </trkpt>
      <trkpt lat="43.44343" lon="6.22949">
        <ele>277.4</ele>
        <time>2017-12-17T10:11:01Z</time>
      </trkpt>
      <trkpt lat="43.44336" lon="6.22939">
        <ele>278.2</ele>
        <time>2017-12-17T10:11:09Z</time>
      </trkpt>
      <trkpt lat="43.44329" lon="6.22929">
        <ele>279.1</ele>
        <time>2017-12-17T10:11:17Z</time>
      </trkpt>
      <trkpt lat="43.44322" lon="6.22919">
        <ele>279.8</ele>
        <time>2017-12-17T10:11:25Z</time>
      </trkpt>
      <trkpt lat="43.44315" lon="6.22911">
        <ele>280.8</ele>
        <time>2017-12-17T10:11:36Z</time>
      </trkpt>
      <trkpt lat="43.44306" lon="6.22912">
        <ele>283.1</ele>
        <time>2017-12-17T10:11:48Z</time>
      </trkpt>
      <trkpt lat="43.44303" lon="6.22925">
        <ele>285.2</ele>
        <time>2017-12-17T10:11:59Z</time>
      </trkpt>
      <trkpt lat="43.44304" lon="6.22938">
        <ele>286.2</ele>
        <time>2017-12-17T10:12:07Z</time>
      </trkpt>
      <trkpt lat="43.44305" lon="6.22951">
        <ele>287.3</ele>
        <time>2017-12-17T10:12:16Z</time>
      </trkpt>
      <trkpt lat="43.44304" lon="6.22964">
        <ele>288.6</ele>
        <time>2017-12-17T10:12:25Z</time>
      </trkpt>
      <trkpt lat="43.44303" lon="6.22976">
        <ele>289.9</ele>
        <time>2017-12-17T10:12:33Z</time>
      </trkpt>
      <trkpt lat="43.44303" lon="6.22989">
        <ele>291.2</ele>
        <time>2017-12-17T10:12:42Z</time>
      </trkpt>
      <trkpt lat="43.44302" lon="6.23002">
        <ele>292.4</ele>
        <time>2017-12-17T10:12:51Z</time>
      </trkpt>
      <trkpt lat="43.44301" lon="6.23015">
        <ele>293.7</ele>
        <time>2017-12-17T10:12:59Z</time>
      </trkpt>
      <trkpt lat="43.443" lon="6.23028">
        <ele>295</ele>
        <time>2017-12-17T10:13:08Z</time>
      </trkpt>
      <trkpt lat="43.44294" lon="6.23038">
        <ele>296.3</ele>
        <time>2017-12-17T10:13:16Z</time>
      </trkpt>
      <trkpt lat="43.44284" lon="6.23043">
        <ele>297.8</ele>
        <time>2017-12-17T10:13:25Z</time>
      </trkpt>
      <trkpt lat="43.44275" lon="6.23041">
        <ele>299.9</ele>
        <time>2017-12-17T10:13:34Z</time>
      </trkpt>
      <trkpt lat="43.44266" lon="6.23039">
        <ele>301.9</ele>
        <time>2017-12-17T10:13:44Z</time>
      </trkpt>
      <trkpt lat="43.44257" lon="6.23038">
        <ele>304.2</ele>
        <time>2017-12-17T10:13:57Z</time>
      </trkpt>
      <trkpt lat="43.44248" lon="6.23043">
        <ele>305.4</ele>
        <time>2017-12-17T10:14:06Z</time>
      </trkpt>
      <trkpt lat="43.44239" lon="6.23049">
        <ele>306.7</ele>
        <time>2017-12-17T10:14:14Z</time>
      </trkpt>
      <trkpt lat="43.44231" lon="6.23054">
        <ele>307.7</ele>
        <time>2017-12-17T10:14:22Z</time>
      </trkpt>
      <trkpt lat="43.44222" lon="6.23059">
        <ele>309.1</ele>
        <time>2017-12-17T10:14:31Z</time>
      </trkpt>
      <trkpt lat="43.44214" lon="6.23065">
        <ele>310.1</ele>
        <time>2017-12-17T10:14:40Z</time>
      </trkpt>
      <trkpt lat="43.44207" lon="6.23073">
        <ele>311.3</ele>
        <time>2017-12-17T10:14:49Z</time>
      </trkpt>
      <trkpt lat="43.44201" lon="6.23083">
        <ele>311.8</ele>
        <time>2017-12-17T10:14:57Z</time>
      </trkpt>
      <trkpt lat="43.44197" lon="6.23094">
        <ele>312.5</ele>
        <time>2017-12-17T10:15:05Z</time>
      </trkpt>
      <trkpt lat="43.44191" lon="6.23104">
        <ele>313.5</ele>
        <time>2017-12-17T10:15:14Z</time>
      </trkpt>
      <trkpt lat="43.44184" lon="6.23113">
        <ele>313.6</ele>
        <time>2017-12-17T10:15:23Z</time>
      </trkpt>
      <trkpt lat="43.44174" lon="6.23116">
        <ele>314</ele>
        <time>2017-12-17T10:15:31Z</time>
      </trkpt>
      <trkpt lat="43.44165" lon="6.23116">
        <ele>314.1</ele>
        <time>2017-12-17T10:15:39Z</time>
      </trkpt>
      <trkpt lat="43.44155" lon="6.2312">
        <ele>313.8</ele>
        <time>2017-12-17T10:15:47Z</time>
      </trkpt>
      <trkpt lat="43.44147" lon="6.23124">
        <ele>313.8</ele>
        <time>2017-12-17T10:15:54Z</time>
      </trkpt>
      <trkpt lat="43.44137" lon="6.23126">
        <ele>314.2</ele>
        <time>2017-12-17T10:16:02Z</time>
      </trkpt>
      <trkpt lat="43.44127" lon="6.2313">
        <ele>314.3</ele>
        <time>2017-12-17T10:16:14Z</time>
      </trkpt>
      <trkpt lat="43.44119" lon="6.23137">
        <ele>314.1</ele>
        <time>2017-12-17T10:16:23Z</time>
      </trkpt>
      <trkpt lat="43.44111" lon="6.23143">
        <ele>314.6</ele>
        <time>2017-12-17T10:16:36Z</time>
      </trkpt>
      <trkpt lat="43.44102" lon="6.23148">
        <ele>315.3</ele>
        <time>2017-12-17T10:16:45Z</time>
      </trkpt>
      <trkpt lat="43.44094" lon="6.23154">
        <ele>315.3</ele>
        <time>2017-12-17T10:16:55Z</time>
      </trkpt>
      <trkpt lat="43.44085" lon="6.23156">
        <ele>315.8</ele>
        <time>2017-12-17T10:17:04Z</time>
      </trkpt>
      <trkpt lat="43.44076" lon="6.23161">
        <ele>315.9</ele>
        <time>2017-12-17T10:17:12Z</time>
      </trkpt>
      <trkpt lat="43.44067" lon="6.23166">
        <ele>315.9</ele>
        <time>2017-12-17T10:17:23Z</time>
      </trkpt>
      <trkpt lat="43.44059" lon="6.23171">
        <ele>315.2</ele>
        <time>2017-12-17T10:18:44Z</time>
      </trkpt>
      <trkpt lat="43.44068" lon="6.23172">
        <ele>316</ele>
        <time>2017-12-17T10:19:37Z</time>
      </trkpt>
      <trkpt lat="43.44075" lon="6.2318">
        <ele>316</ele>
        <time>2017-12-17T10:19:46Z</time>
      </trkpt>
      <trkpt lat="43.44085" lon="6.23181">
        <ele>315.8</ele>
        <time>2017-12-17T10:19:58Z</time>
      </trkpt>
      <trkpt lat="43.44092" lon="6.23174">
        <ele>315.9</ele>
        <time>2017-12-17T10:20:10Z</time>
      </trkpt>
      <trkpt lat="43.44093" lon="6.23187">
        <ele>316</ele>
        <time>2017-12-17T10:21:25Z</time>
      </trkpt>
      <trkpt lat="43.44093" lon="6.23175">
        <ele>315.7</ele>
        <time>2017-12-17T10:21:45Z</time>
      </trkpt>
      <trkpt lat="43.4409" lon="6.23162">
        <ele>315.9</ele>
        <time>2017-12-17T10:21:58Z</time>
      </trkpt>
      <trkpt lat="43.44089" lon="6.2315">
        <ele>316.8</ele>
        <time>2017-12-17T10:22:09Z</time>
      </trkpt>
      <trkpt lat="43.44092" lon="6.23137">
        <ele>317</ele>
        <time>2017-12-17T10:22:20Z</time>
      </trkpt>
      <trkpt lat="43.44092" lon="6.23125">
        <ele>316.7</ele>
        <time>2017-12-17T10:22:28Z</time>
      </trkpt>
      <trkpt lat="43.44093" lon="6.23111">
        <ele>316.4</ele>
        <time>2017-12-17T10:22:37Z</time>
      </trkpt>
      <trkpt lat="43.44094" lon="6.23099">
        <ele>315.9</ele>
        <time>2017-12-17T10:22:45Z</time>
      </trkpt>
      <trkpt lat="43.44095" lon="6.23086">
        <ele>316.1</ele>
        <time>2017-12-17T10:22:53Z</time>
      </trkpt>
      <trkpt lat="43.44094" lon="6.23073">
        <ele>315.5</ele>
        <time>2017-12-17T10:23:02Z</time>
      </trkpt>
      <trkpt lat="43.44095" lon="6.2306">
        <ele>315.1</ele>
        <time>2017-12-17T10:23:10Z</time>
      </trkpt>
      <trkpt lat="43.44096" lon="6.23047">
        <ele>315</ele>
        <time>2017-12-17T10:23:18Z</time>
      </trkpt>
      <trkpt lat="43.44097" lon="6.23034">
        <ele>314.7</ele>
        <time>2017-12-17T10:23:26Z</time>
      </trkpt>
      <trkpt lat="43.44099" lon="6.2302">
        <ele>314.5</ele>
        <time>2017-12-17T10:23:34Z</time>
      </trkpt>
      <trkpt lat="43.44101" lon="6.23007">
        <ele>313.8</ele>
        <time>2017-12-17T10:23:42Z</time>
      </trkpt>
      <trkpt lat="43.44098" lon="6.22994">
        <ele>312.9</ele>
        <time>2017-12-17T10:23:51Z</time>
      </trkpt>
      <trkpt lat="43.44099" lon="6.22982">
        <ele>312.3</ele>
        <time>2017-12-17T10:24:03Z</time>
      </trkpt>
      <trkpt lat="43.44097" lon="6.22969">
        <ele>310.4</ele>
        <time>2017-12-17T10:24:33Z</time>
      </trkpt>
      <trkpt lat="43.44088" lon="6.22972">
        <ele>310.1</ele>
        <time>2017-12-17T10:26:18Z</time>
      </trkpt>
      <trkpt lat="43.44096" lon="6.22977">
        <ele>309.8</ele>
        <time>2017-12-17T10:27:33Z</time>
      </trkpt>
      <trkpt lat="43.44101" lon="6.22988">
        <ele>310.8</ele>
        <time>2017-12-17T10:27:45Z</time>
      </trkpt>
      <trkpt lat="43.44101" lon="6.23">
        <ele>311.7</ele>
        <time>2017-12-17T10:27:58Z</time>
      </trkpt>
      <trkpt lat="43.44106" lon="6.23011">
        <ele>313</ele>
        <time>2017-12-17T10:28:15Z</time>
      </trkpt>
      <trkpt lat="43.44103" lon="6.23023">
        <ele>313.3</ele>
        <time>2017-12-17T10:28:25Z</time>
      </trkpt>
      <trkpt lat="43.44102" lon="6.23036">
        <ele>314.7</ele>
        <time>2017-12-17T10:28:38Z</time>
      </trkpt>
      <trkpt lat="43.441" lon="6.23049">
        <ele>315</ele>
        <time>2017-12-17T10:28:51Z</time>
      </trkpt>
      <trkpt lat="43.44099" lon="6.23062">
        <ele>315.4</ele>
        <time>2017-12-17T10:29:04Z</time>
      </trkpt>
      <trkpt lat="43.44097" lon="6.23074">
        <ele>315.7</ele>
        <time>2017-12-17T10:29:14Z</time>
      </trkpt>
      <trkpt lat="43.44098" lon="6.23087">
        <ele>315.9</ele>
        <time>2017-12-17T10:29:26Z</time>
      </trkpt>
      <trkpt lat="43.44096" lon="6.231">
        <ele>315.9</ele>
        <time>2017-12-17T10:29:38Z</time>
      </trkpt>
      <trkpt lat="43.44095" lon="6.23112">
        <ele>316.5</ele>
        <time>2017-12-17T10:29:47Z</time>
      </trkpt>
      <trkpt lat="43.44095" lon="6.23125">
        <ele>316.6</ele>
        <time>2017-12-17T10:29:58Z</time>
      </trkpt>
      <trkpt lat="43.44093" lon="6.23138">
        <ele>316.8</ele>
        <time>2017-12-17T10:30:08Z</time>
      </trkpt>
      <trkpt lat="43.44083" lon="6.2314">
        <ele>316.3</ele>
        <time>2017-12-17T10:30:17Z</time>
      </trkpt>
      <trkpt lat="43.44074" lon="6.2314">
        <ele>316.3</ele>
        <time>2017-12-17T10:30:24Z</time>
      </trkpt>
      <trkpt lat="43.44064" lon="6.23138">
        <ele>316.7</ele>
        <time>2017-12-17T10:30:33Z</time>
      </trkpt>
      <trkpt lat="43.44057" lon="6.23129">
        <ele>317.2</ele>
        <time>2017-12-17T10:31:22Z</time>
      </trkpt>
      <trkpt lat="43.4406" lon="6.23142">
        <ele>317</ele>
        <time>2017-12-17T10:31:33Z</time>
      </trkpt>
      <trkpt lat="43.44052" lon="6.23148">
        <ele>316.9</ele>
        <time>2017-12-17T10:31:51Z</time>
      </trkpt>
      <trkpt lat="43.44047" lon="6.23138">
        <ele>317.1</ele>
        <time>2017-12-17T10:32:05Z</time>
      </trkpt>
      <trkpt lat="43.44052" lon="6.2315">
        <ele>316.5</ele>
        <time>2017-12-17T10:32:34Z</time>
      </trkpt>
      <trkpt lat="43.44062" lon="6.2315">
        <ele>317</ele>
        <time>2017-12-17T10:32:44Z</time>
      </trkpt>
      <trkpt lat="43.44071" lon="6.23152">
        <ele>317.3</ele>
        <time>2017-12-17T10:32:51Z</time>
      </trkpt>
      <trkpt lat="43.4408" lon="6.23156">
        <ele>317.3</ele>
        <time>2017-12-17T10:33:00Z</time>
      </trkpt>
      <trkpt lat="43.44088" lon="6.23163">
        <ele>317.3</ele>
        <time>2017-12-17T10:33:09Z</time>
      </trkpt>
      <trkpt lat="43.44091" lon="6.23175">
        <ele>316.7</ele>
        <time>2017-12-17T10:33:29Z</time>
      </trkpt>
      <trkpt lat="43.44097" lon="6.23184">
        <ele>316.8</ele>
        <time>2017-12-17T10:35:48Z</time>
      </trkpt>
      <trkpt lat="43.44101" lon="6.23196">
        <ele>317.3</ele>
        <time>2017-12-17T10:36:26Z</time>
      </trkpt>
      <trkpt lat="43.44105" lon="6.23208">
        <ele>316.6</ele>
        <time>2017-12-17T10:36:38Z</time>
      </trkpt>
      <trkpt lat="43.44109" lon="6.23219">
        <ele>316.2</ele>
        <time>2017-12-17T10:36:47Z</time>
      </trkpt>
      <trkpt lat="43.44114" lon="6.23231">
        <ele>315.9</ele>
        <time>2017-12-17T10:36:56Z</time>
      </trkpt>
      <trkpt lat="43.44118" lon="6.23242">
        <ele>315.9</ele>
        <time>2017-12-17T10:37:06Z</time>
      </trkpt>
      <trkpt lat="43.44126" lon="6.2325">
        <ele>315.8</ele>
        <time>2017-12-17T10:37:14Z</time>
      </trkpt>
      <trkpt lat="43.44131" lon="6.23261">
        <ele>315.6</ele>
        <time>2017-12-17T10:37:23Z</time>
      </trkpt>
      <trkpt lat="43.44134" lon="6.23273">
        <ele>315</ele>
        <time>2017-12-17T10:37:32Z</time>
      </trkpt>
      <trkpt lat="43.44124" lon="6.23273">
        <ele>308.7</ele>
        <time>2017-12-17T10:38:18Z</time>
      </trkpt>
      <trkpt lat="43.44118" lon="6.23283">
        <ele>302.2</ele>
        <time>2017-12-17T10:38:57Z</time>
      </trkpt>
      <trkpt lat="43.4411" lon="6.23286">
        <ele>296.9</ele>
        <time>2017-12-17T10:39:24Z</time>
      </trkpt>
      <trkpt lat="43.44104" lon="6.23276">
        <ele>294.9</ele>
        <time>2017-12-17T10:39:39Z</time>
      </trkpt>
      <trkpt lat="43.44098" lon="6.23286">
        <ele>293.5</ele>
        <time>2017-12-17T10:40:07Z</time>
      </trkpt>
      <trkpt lat="43.44104" lon="6.23296">
        <ele>291.3</ele>
        <time>2017-12-17T10:40:20Z</time>
      </trkpt>
      <trkpt lat="43.4411" lon="6.23307">
        <ele>289.7</ele>
        <time>2017-12-17T10:40:29Z</time>
      </trkpt>
      <trkpt lat="43.44114" lon="6.2332">
        <ele>288.3</ele>
        <time>2017-12-17T10:40:41Z</time>
      </trkpt>
      <trkpt lat="43.44109" lon="6.23333">
        <ele>282.8</ele>
        <time>2017-12-17T10:41:07Z</time>
      </trkpt>
      <trkpt lat="43.44101" lon="6.23337">
        <ele>278.5</ele>
        <time>2017-12-17T10:41:29Z</time>
      </trkpt>
      <trkpt lat="43.44103" lon="6.23349">
        <ele>275.5</ele>
        <time>2017-12-17T10:41:42Z</time>
      </trkpt>
      <trkpt lat="43.44094" lon="6.23355">
        <ele>269.7</ele>
        <time>2017-12-17T10:42:12Z</time>
      </trkpt>
      <trkpt lat="43.44085" lon="6.23359">
        <ele>266.6</ele>
        <time>2017-12-17T10:42:30Z</time>
      </trkpt>
      <trkpt lat="43.4408" lon="6.23369">
        <ele>261.1</ele>
        <time>2017-12-17T10:42:58Z</time>
      </trkpt>
      <trkpt lat="43.4407" lon="6.23369">
        <ele>258.4</ele>
        <time>2017-12-17T10:43:10Z</time>
      </trkpt>
      <trkpt lat="43.44062" lon="6.23375">
        <ele>255</ele>
        <time>2017-12-17T10:43:27Z</time>
      </trkpt>
      <trkpt lat="43.44057" lon="6.23385">
        <ele>250.7</ele>
        <time>2017-12-17T10:43:50Z</time>
      </trkpt>
      <trkpt lat="43.44047" lon="6.23388">
        <ele>248.5</ele>
        <time>2017-12-17T10:44:02Z</time>
      </trkpt>
      <trkpt lat="43.44046" lon="6.234">
        <ele>245.8</ele>
        <time>2017-12-17T10:44:16Z</time>
      </trkpt>
      <trkpt lat="43.44036" lon="6.23403">
        <ele>243.6</ele>
        <time>2017-12-17T10:44:29Z</time>
      </trkpt>
      <trkpt lat="43.44031" lon="6.23413">
        <ele>240.5</ele>
        <time>2017-12-17T10:44:48Z</time>
      </trkpt>
      <trkpt lat="43.44025" lon="6.23423">
        <ele>236.6</ele>
        <time>2017-12-17T10:45:06Z</time>
      </trkpt>
      <trkpt lat="43.44016" lon="6.23428">
        <ele>234.4</ele>
        <time>2017-12-17T10:45:18Z</time>
      </trkpt>
      <trkpt lat="43.4401" lon="6.23437">
        <ele>231.4</ele>
        <time>2017-12-17T10:45:34Z</time>
      </trkpt>
      <trkpt lat="43.44001" lon="6.23442">
        <ele>228.8</ele>
        <time>2017-12-17T10:45:49Z</time>
      </trkpt>
      <trkpt lat="43.43992" lon="6.23446">
        <ele>227.4</ele>
        <time>2017-12-17T10:45:58Z</time>
      </trkpt>
      <trkpt lat="43.43985" lon="6.23453">
        <ele>226</ele>
        <time>2017-12-17T10:46:07Z</time>
      </trkpt>
      <trkpt lat="43.43978" lon="6.23461">
        <ele>223.2</ele>
        <time>2017-12-17T10:46:27Z</time>
      </trkpt>
      <trkpt lat="43.4397" lon="6.23469">
        <ele>221.6</ele>
        <time>2017-12-17T10:46:39Z</time>
      </trkpt>
      <trkpt lat="43.43962" lon="6.23478">
        <ele>219.7</ele>
        <time>2017-12-17T10:46:50Z</time>
      </trkpt>
      <trkpt lat="43.43954" lon="6.23483">
        <ele>217.4</ele>
        <time>2017-12-17T10:47:30Z</time>
      </trkpt>
      <trkpt lat="43.43945" lon="6.23479">
        <ele>216.7</ele>
        <time>2017-12-17T10:47:44Z</time>
      </trkpt>
      <trkpt lat="43.43937" lon="6.23473">
        <ele>216.2</ele>
        <time>2017-12-17T10:47:52Z</time>
      </trkpt>
      <trkpt lat="43.43929" lon="6.23466">
        <ele>215.2</ele>
        <time>2017-12-17T10:48:02Z</time>
      </trkpt>
      <trkpt lat="43.43921" lon="6.23458">
        <ele>214.3</ele>
        <time>2017-12-17T10:48:11Z</time>
      </trkpt>
      <trkpt lat="43.43914" lon="6.23449">
        <ele>213.2</ele>
        <time>2017-12-17T10:48:20Z</time>
      </trkpt>
      <trkpt lat="43.43909" lon="6.23438">
        <ele>212.1</ele>
        <time>2017-12-17T10:48:37Z</time>
      </trkpt>
      <trkpt lat="43.43899" lon="6.23429">
        <ele>211.7</ele>
        <time>2017-12-17T10:48:46Z</time>
      </trkpt>
      <trkpt lat="43.43891" lon="6.23424">
        <ele>210.8</ele>
        <time>2017-12-17T10:48:59Z</time>
      </trkpt>
      <trkpt lat="43.43882" lon="6.2342">
        <ele>209.8</ele>
        <time>2017-12-17T10:49:11Z</time>
      </trkpt>
      <trkpt lat="43.43879" lon="6.23407">
        <ele>209.3</ele>
        <time>2017-12-17T10:49:24Z</time>
      </trkpt>
      <trkpt lat="43.4387" lon="6.23407">
        <ele>207.3</ele>
        <time>2017-12-17T10:49:36Z</time>
      </trkpt>
      <trkpt lat="43.43868" lon="6.23394">
        <ele>205.5</ele>
        <time>2017-12-17T10:49:49Z</time>
      </trkpt>
      <trkpt lat="43.43863" lon="6.23383">
        <ele>204.7</ele>
        <time>2017-12-17T10:50:12Z</time>
      </trkpt>
      <trkpt lat="43.43855" lon="6.23376">
        <ele>202.8</ele>
        <time>2017-12-17T10:50:23Z</time>
      </trkpt>
      <trkpt lat="43.43848" lon="6.23368">
        <ele>201.4</ele>
        <time>2017-12-17T10:50:40Z</time>
      </trkpt>
      <trkpt lat="43.43841" lon="6.23358">
        <ele>199.9</ele>
        <time>2017-12-17T10:50:50Z</time>
      </trkpt>
      <trkpt lat="43.43833" lon="6.23351">
        <ele>198.2</ele>
        <time>2017-12-17T10:50:59Z</time>
      </trkpt>
      <trkpt lat="43.43824" lon="6.23349">
        <ele>196.4</ele>
        <time>2017-12-17T10:51:10Z</time>
      </trkpt>
      <trkpt lat="43.4382" lon="6.23361">
        <ele>194.6</ele>
        <time>2017-12-17T10:51:20Z</time>
      </trkpt>
      <trkpt lat="43.43815" lon="6.23372">
        <ele>193.2</ele>
        <time>2017-12-17T10:51:29Z</time>
      </trkpt>
      <trkpt lat="43.43806" lon="6.23378">
        <ele>192.2</ele>
        <time>2017-12-17T10:51:38Z</time>
      </trkpt>
      <trkpt lat="43.43797" lon="6.23383">
        <ele>193.1</ele>
        <time>2017-12-17T10:51:45Z</time>
      </trkpt>
      <trkpt lat="43.43799" lon="6.23396">
        <ele>194</ele>
        <time>2017-12-17T10:51:52Z</time>
      </trkpt>
      <trkpt lat="43.43801" lon="6.23409">
        <ele>194</ele>
        <time>2017-12-17T10:52:01Z</time>
      </trkpt>
      <trkpt lat="43.43809" lon="6.23414">
        <ele>194.4</ele>
        <time>2017-12-17T10:52:12Z</time>
      </trkpt>
      <trkpt lat="43.43814" lon="6.23426">
        <ele>194.9</ele>
        <time>2017-12-17T10:52:22Z</time>
      </trkpt>
      <trkpt lat="43.43819" lon="6.23437">
        <ele>195.4</ele>
        <time>2017-12-17T10:52:29Z</time>
      </trkpt>
      <trkpt lat="43.43822" lon="6.23449">
        <ele>196.5</ele>
        <time>2017-12-17T10:52:38Z</time>
      </trkpt>
      <trkpt lat="43.43826" lon="6.2346">
        <ele>196.7</ele>
        <time>2017-12-17T10:52:47Z</time>
      </trkpt>
      <trkpt lat="43.43833" lon="6.2347">
        <ele>197.5</ele>
        <time>2017-12-17T10:52:56Z</time>
      </trkpt>
      <trkpt lat="43.43839" lon="6.23481">
        <ele>198.2</ele>
        <time>2017-12-17T10:53:04Z</time>
      </trkpt>
      <trkpt lat="43.43844" lon="6.23492">
        <ele>198.5</ele>
        <time>2017-12-17T10:53:11Z</time>
      </trkpt>
      <trkpt lat="43.43848" lon="6.23504">
        <ele>199.8</ele>
        <time>2017-12-17T10:53:19Z</time>
      </trkpt>
      <trkpt lat="43.43851" lon="6.23516">
        <ele>200.6</ele>
        <time>2017-12-17T10:53:27Z</time>
      </trkpt>
      <trkpt lat="43.43851" lon="6.23528">
        <ele>201.8</ele>
        <time>2017-12-17T10:53:35Z</time>
      </trkpt>
      <trkpt lat="43.43851" lon="6.23542">
        <ele>202.8</ele>
        <time>2017-12-17T10:53:43Z</time>
      </trkpt>
      <trkpt lat="43.43853" lon="6.23555">
        <ele>203.8</ele>
        <time>2017-12-17T10:53:52Z</time>
      </trkpt>
      <trkpt lat="43.43852" lon="6.23568">
        <ele>204.7</ele>
        <time>2017-12-17T10:54:01Z</time>
      </trkpt>
      <trkpt lat="43.43851" lon="6.23581">
        <ele>205.3</ele>
        <time>2017-12-17T10:54:10Z</time>
      </trkpt>
      <trkpt lat="43.43849" lon="6.23594">
        <ele>206.2</ele>
        <time>2017-12-17T10:54:19Z</time>
      </trkpt>
      <trkpt lat="43.43852" lon="6.23605">
        <ele>206.8</ele>
        <time>2017-12-17T10:54:28Z</time>
      </trkpt>
      <trkpt lat="43.43853" lon="6.23619">
        <ele>208</ele>
        <time>2017-12-17T10:54:38Z</time>
      </trkpt>
      <trkpt lat="43.43858" lon="6.2363">
        <ele>208.9</ele>
        <time>2017-12-17T10:54:47Z</time>
      </trkpt>
      <trkpt lat="43.4386" lon="6.23643">
        <ele>209.6</ele>
        <time>2017-12-17T10:54:56Z</time>
      </trkpt>
      <trkpt lat="43.43859" lon="6.23656">
        <ele>210</ele>
        <time>2017-12-17T10:55:05Z</time>
      </trkpt>
      <trkpt lat="43.4386" lon="6.23669">
        <ele>211</ele>
        <time>2017-12-17T10:55:16Z</time>
      </trkpt>
      <trkpt lat="43.4386" lon="6.23681">
        <ele>212.8</ele>
        <time>2017-12-17T10:55:25Z</time>
      </trkpt>
      <trkpt lat="43.43859" lon="6.23695">
        <ele>213.9</ele>
        <time>2017-12-17T10:55:34Z</time>
      </trkpt>
      <trkpt lat="43.43858" lon="6.23707">
        <ele>214.7</ele>
        <time>2017-12-17T10:55:43Z</time>
      </trkpt>
      <trkpt lat="43.4386" lon="6.2372">
        <ele>215.8</ele>
        <time>2017-12-17T10:55:53Z</time>
      </trkpt>
      <trkpt lat="43.43862" lon="6.23733">
        <ele>216.7</ele>
        <time>2017-12-17T10:56:02Z</time>
      </trkpt>
      <trkpt lat="43.43865" lon="6.23745">
        <ele>217.9</ele>
        <time>2017-12-17T10:56:12Z</time>
      </trkpt>
      <trkpt lat="43.43866" lon="6.23758">
        <ele>218.9</ele>
        <time>2017-12-17T10:56:22Z</time>
      </trkpt>
      <trkpt lat="43.4387" lon="6.2377">
        <ele>219.4</ele>
        <time>2017-12-17T10:56:31Z</time>
      </trkpt>
      <trkpt lat="43.43874" lon="6.23783">
        <ele>219.9</ele>
        <time>2017-12-17T10:56:41Z</time>
      </trkpt>
      <trkpt lat="43.43877" lon="6.23795">
        <ele>220.8</ele>
        <time>2017-12-17T10:56:51Z</time>
      </trkpt>
      <trkpt lat="43.43882" lon="6.23806">
        <ele>221.7</ele>
        <time>2017-12-17T10:57:01Z</time>
      </trkpt>
      <trkpt lat="43.4389" lon="6.23813">
        <ele>222.3</ele>
        <time>2017-12-17T10:57:09Z</time>
      </trkpt>
      <trkpt lat="43.43898" lon="6.23818">
        <ele>223.6</ele>
        <time>2017-12-17T10:57:17Z</time>
      </trkpt>
      <trkpt lat="43.43908" lon="6.23823">
        <ele>223.8</ele>
        <time>2017-12-17T10:57:24Z</time>
      </trkpt>
      <trkpt lat="43.43916" lon="6.23828">
        <ele>224.6</ele>
        <time>2017-12-17T10:57:32Z</time>
      </trkpt>
      <trkpt lat="43.43924" lon="6.23835">
        <ele>225.7</ele>
        <time>2017-12-17T10:57:42Z</time>
      </trkpt>
      <trkpt lat="43.43934" lon="6.23838">
        <ele>226.1</ele>
        <time>2017-12-17T10:57:52Z</time>
      </trkpt>
      <trkpt lat="43.43943" lon="6.23843">
        <ele>226.2</ele>
        <time>2017-12-17T10:57:59Z</time>
      </trkpt>
      <trkpt lat="43.43952" lon="6.23849">
        <ele>227</ele>
        <time>2017-12-17T10:58:06Z</time>
      </trkpt>
      <trkpt lat="43.43961" lon="6.23857">
        <ele>228.4</ele>
        <time>2017-12-17T10:58:15Z</time>
      </trkpt>
      <trkpt lat="43.43968" lon="6.23865">
        <ele>229.3</ele>
        <time>2017-12-17T10:58:24Z</time>
      </trkpt>
      <trkpt lat="43.43975" lon="6.23873">
        <ele>230.4</ele>
        <time>2017-12-17T10:58:32Z</time>
      </trkpt>
      <trkpt lat="43.4398" lon="6.23885">
        <ele>231.1</ele>
        <time>2017-12-17T10:58:44Z</time>
      </trkpt>
      <trkpt lat="43.43986" lon="6.23895">
        <ele>231.6</ele>
        <time>2017-12-17T10:58:54Z</time>
      </trkpt>
      <trkpt lat="43.43992" lon="6.23904">
        <ele>232.8</ele>
        <time>2017-12-17T10:59:04Z</time>
      </trkpt>
      <trkpt lat="43.44001" lon="6.23913">
        <ele>233.9</ele>
        <time>2017-12-17T10:59:13Z</time>
      </trkpt>
      <trkpt lat="43.44007" lon="6.23923">
        <ele>234.8</ele>
        <time>2017-12-17T10:59:23Z</time>
      </trkpt>
      <trkpt lat="43.44011" lon="6.23935">
        <ele>235.4</ele>
        <time>2017-12-17T10:59:31Z</time>
      </trkpt>
      <trkpt lat="43.44017" lon="6.23944">
        <ele>236.4</ele>
        <time>2017-12-17T10:59:41Z</time>
      </trkpt>
      <trkpt lat="43.44023" lon="6.23955">
        <ele>237</ele>
        <time>2017-12-17T10:59:51Z</time>
      </trkpt>
      <trkpt lat="43.44029" lon="6.23965">
        <ele>238.3</ele>
        <time>2017-12-17T11:00:01Z</time>
      </trkpt>
      <trkpt lat="43.44032" lon="6.23977">
        <ele>240</ele>
        <time>2017-12-17T11:00:12Z</time>
      </trkpt>
      <trkpt lat="43.44039" lon="6.23986">
        <ele>241.7</ele>
        <time>2017-12-17T11:00:23Z</time>
      </trkpt>
      <trkpt lat="43.44047" lon="6.23991">
        <ele>242.7</ele>
        <time>2017-12-17T11:00:30Z</time>
      </trkpt>
      <trkpt lat="43.44057" lon="6.23997">
        <ele>243.9</ele>
        <time>2017-12-17T11:00:38Z</time>
      </trkpt>
      <trkpt lat="43.44066" lon="6.24002">
        <ele>244.7</ele>
        <time>2017-12-17T11:00:46Z</time>
      </trkpt>
      <trkpt lat="43.44074" lon="6.24009">
        <ele>245.5</ele>
        <time>2017-12-17T11:00:56Z</time>
      </trkpt>
      <trkpt lat="43.44079" lon="6.2402">
        <ele>246.5</ele>
        <time>2017-12-17T11:01:07Z</time>
      </trkpt>
      <trkpt lat="43.44088" lon="6.24029">
        <ele>247.6</ele>
        <time>2017-12-17T11:01:16Z</time>
      </trkpt>
      <trkpt lat="43.44095" lon="6.24037">
        <ele>248.3</ele>
        <time>2017-12-17T11:01:24Z</time>
      </trkpt>
      <trkpt lat="43.44098" lon="6.2405">
        <ele>249</ele>
        <time>2017-12-17T11:01:33Z</time>
      </trkpt>
      <trkpt lat="43.441" lon="6.24063">
        <ele>249.6</ele>
        <time>2017-12-17T11:01:42Z</time>
      </trkpt>
      <trkpt lat="43.44105" lon="6.24074">
        <ele>250.5</ele>
        <time>2017-12-17T11:01:50Z</time>
      </trkpt>
      <trkpt lat="43.44108" lon="6.24087">
        <ele>251.6</ele>
        <time>2017-12-17T11:01:59Z</time>
      </trkpt>
      <trkpt lat="43.44112" lon="6.24099">
        <ele>252.5</ele>
        <time>2017-12-17T11:02:08Z</time>
      </trkpt>
      <trkpt lat="43.44114" lon="6.24112">
        <ele>253.5</ele>
        <time>2017-12-17T11:02:18Z</time>
      </trkpt>
      <trkpt lat="43.44115" lon="6.24125">
        <ele>254.7</ele>
        <time>2017-12-17T11:02:28Z</time>
      </trkpt>
      <trkpt lat="43.44114" lon="6.24138">
        <ele>255.4</ele>
        <time>2017-12-17T11:02:38Z</time>
      </trkpt>
      <trkpt lat="43.44118" lon="6.2415">
        <ele>256.6</ele>
        <time>2017-12-17T11:02:49Z</time>
      </trkpt>
      <trkpt lat="43.44121" lon="6.24162">
        <ele>257.4</ele>
        <time>2017-12-17T11:02:59Z</time>
      </trkpt>
      <trkpt lat="43.44122" lon="6.24174">
        <ele>258.5</ele>
        <time>2017-12-17T11:03:09Z</time>
      </trkpt>
      <trkpt lat="43.44124" lon="6.24187">
        <ele>259.5</ele>
        <time>2017-12-17T11:03:20Z</time>
      </trkpt>
      <trkpt lat="43.44123" lon="6.242">
        <ele>261</ele>
        <time>2017-12-17T11:03:30Z</time>
      </trkpt>
      <trkpt lat="43.44118" lon="6.24213">
        <ele>262.6</ele>
        <time>2017-12-17T11:03:40Z</time>
      </trkpt>
      <trkpt lat="43.44113" lon="6.24224">
        <ele>264.4</ele>
        <time>2017-12-17T11:03:49Z</time>
      </trkpt>
      <trkpt lat="43.44111" lon="6.24236">
        <ele>265.8</ele>
        <time>2017-12-17T11:03:59Z</time>
      </trkpt>
      <trkpt lat="43.44112" lon="6.24248">
        <ele>267.2</ele>
        <time>2017-12-17T11:04:10Z</time>
      </trkpt>
      <trkpt lat="43.44115" lon="6.24261">
        <ele>268.2</ele>
        <time>2017-12-17T11:04:21Z</time>
      </trkpt>
      <trkpt lat="43.44114" lon="6.24274">
        <ele>269.5</ele>
        <time>2017-12-17T11:04:31Z</time>
      </trkpt>
      <trkpt lat="43.44118" lon="6.24287">
        <ele>269.9</ele>
        <time>2017-12-17T11:04:42Z</time>
      </trkpt>
      <trkpt lat="43.44124" lon="6.24298">
        <ele>269.6</ele>
        <time>2017-12-17T11:04:51Z</time>
      </trkpt>
      <trkpt lat="43.44128" lon="6.2431">
        <ele>269.9</ele>
        <time>2017-12-17T11:05:01Z</time>
      </trkpt>
      <trkpt lat="43.44133" lon="6.24322">
        <ele>270.6</ele>
        <time>2017-12-17T11:05:10Z</time>
      </trkpt>
      <trkpt lat="43.4414" lon="6.24329">
        <ele>271.1</ele>
        <time>2017-12-17T11:05:18Z</time>
      </trkpt>
      <trkpt lat="43.44146" lon="6.2434">
        <ele>270.6</ele>
        <time>2017-12-17T11:05:27Z</time>
      </trkpt>
      <trkpt lat="43.44153" lon="6.2435">
        <ele>270.6</ele>
        <time>2017-12-17T11:05:36Z</time>
      </trkpt>
      <trkpt lat="43.44159" lon="6.24361">
        <ele>270.9</ele>
        <time>2017-12-17T11:05:45Z</time>
      </trkpt>
      <trkpt lat="43.44165" lon="6.24369">
        <ele>271.1</ele>
        <time>2017-12-17T11:05:52Z</time>
      </trkpt>
      <trkpt lat="43.44172" lon="6.2438">
        <ele>271.6</ele>
        <time>2017-12-17T11:06:01Z</time>
      </trkpt>
      <trkpt lat="43.44177" lon="6.2439">
        <ele>271.6</ele>
        <time>2017-12-17T11:06:10Z</time>
      </trkpt>
      <trkpt lat="43.44185" lon="6.24397">
        <ele>271.5</ele>
        <time>2017-12-17T11:06:17Z</time>
      </trkpt>
      <trkpt lat="43.44192" lon="6.24406">
        <ele>272</ele>
        <time>2017-12-17T11:06:26Z</time>
      </trkpt>
      <trkpt lat="43.44199" lon="6.24415">
        <ele>273.2</ele>
        <time>2017-12-17T11:06:36Z</time>
      </trkpt>
      <trkpt lat="43.44209" lon="6.24419">
        <ele>273.8</ele>
        <time>2017-12-17T11:06:44Z</time>
      </trkpt>
      <trkpt lat="43.44218" lon="6.24424">
        <ele>274.9</ele>
        <time>2017-12-17T11:06:54Z</time>
      </trkpt>
      <trkpt lat="43.44226" lon="6.24429">
        <ele>275.8</ele>
        <time>2017-12-17T11:07:05Z</time>
      </trkpt>
      <trkpt lat="43.44236" lon="6.24431">
        <ele>276.6</ele>
        <time>2017-12-17T11:07:13Z</time>
      </trkpt>
      <trkpt lat="43.44245" lon="6.24434">
        <ele>277.1</ele>
        <time>2017-12-17T11:07:24Z</time>
      </trkpt>
      <trkpt lat="43.44255" lon="6.24436">
        <ele>278</ele>
        <time>2017-12-17T11:07:33Z</time>
      </trkpt>
      <trkpt lat="43.44264" lon="6.24438">
        <ele>278.9</ele>
        <time>2017-12-17T11:07:40Z</time>
      </trkpt>
      <trkpt lat="43.44274" lon="6.24442">
        <ele>279.6</ele>
        <time>2017-12-17T11:07:48Z</time>
      </trkpt>
      <trkpt lat="43.44283" lon="6.24444">
        <ele>280.1</ele>
        <time>2017-12-17T11:07:59Z</time>
      </trkpt>
      <trkpt lat="43.44293" lon="6.24448">
        <ele>280.8</ele>
        <time>2017-12-17T11:08:08Z</time>
      </trkpt>
      <trkpt lat="43.44303" lon="6.2445">
        <ele>281.4</ele>
        <time>2017-12-17T11:08:16Z</time>
      </trkpt>
      <trkpt lat="43.44313" lon="6.24455">
        <ele>282</ele>
        <time>2017-12-17T11:08:24Z</time>
      </trkpt>
      <trkpt lat="43.44322" lon="6.24459">
        <ele>282.5</ele>
        <time>2017-12-17T11:08:31Z</time>
      </trkpt>
      <trkpt lat="43.4433" lon="6.24465">
        <ele>283.2</ele>
        <time>2017-12-17T11:08:38Z</time>
      </trkpt>
      <trkpt lat="43.44336" lon="6.24474">
        <ele>283.9</ele>
        <time>2017-12-17T11:08:47Z</time>
      </trkpt>
      <trkpt lat="43.4434" lon="6.24486">
        <ele>284.3</ele>
        <time>2017-12-17T11:08:57Z</time>
      </trkpt>
      <trkpt lat="43.44343" lon="6.24498">
        <ele>284.7</ele>
        <time>2017-12-17T11:09:04Z</time>
      </trkpt>
      <trkpt lat="43.44349" lon="6.24508">
        <ele>285.1</ele>
        <time>2017-12-17T11:09:12Z</time>
      </trkpt>
      <trkpt lat="43.4435" lon="6.24522">
        <ele>285.7</ele>
        <time>2017-12-17T11:09:21Z</time>
      </trkpt>
      <trkpt lat="43.44351" lon="6.24535">
        <ele>287.1</ele>
        <time>2017-12-17T11:09:30Z</time>
      </trkpt>
      <trkpt lat="43.44351" lon="6.24549">
        <ele>288.3</ele>
        <time>2017-12-17T11:09:39Z</time>
      </trkpt>
      <trkpt lat="43.4435" lon="6.24563">
        <ele>289</ele>
        <time>2017-12-17T11:09:47Z</time>
      </trkpt>
      <trkpt lat="43.4435" lon="6.24576">
        <ele>289.3</ele>
        <time>2017-12-17T11:09:55Z</time>
      </trkpt>
      <trkpt lat="43.44349" lon="6.2459">
        <ele>289.9</ele>
        <time>2017-12-17T11:10:04Z</time>
      </trkpt>
      <trkpt lat="43.44348" lon="6.24603">
        <ele>290.6</ele>
        <time>2017-12-17T11:10:12Z</time>
      </trkpt>
      <trkpt lat="43.44347" lon="6.24617">
        <ele>291.1</ele>
        <time>2017-12-17T11:10:19Z</time>
      </trkpt>
      <trkpt lat="43.44347" lon="6.2463">
        <ele>292.1</ele>
        <time>2017-12-17T11:10:27Z</time>
      </trkpt>
      <trkpt lat="43.44346" lon="6.24644">
        <ele>292.4</ele>
        <time>2017-12-17T11:10:36Z</time>
      </trkpt>
      <trkpt lat="43.44344" lon="6.24657">
        <ele>292.7</ele>
        <time>2017-12-17T11:10:45Z</time>
      </trkpt>
      <trkpt lat="43.44341" lon="6.24669">
        <ele>292.9</ele>
        <time>2017-12-17T11:10:51Z</time>
      </trkpt>
      <trkpt lat="43.44338" lon="6.24681">
        <ele>293.2</ele>
        <time>2017-12-17T11:10:58Z</time>
      </trkpt>
      <trkpt lat="43.44338" lon="6.24695">
        <ele>293.5</ele>
        <time>2017-12-17T11:11:07Z</time>
      </trkpt>
      <trkpt lat="43.44338" lon="6.24708">
        <ele>293.6</ele>
        <time>2017-12-17T11:11:15Z</time>
      </trkpt>
      <trkpt lat="43.4434" lon="6.24721">
        <ele>293.9</ele>
        <time>2017-12-17T11:11:24Z</time>
      </trkpt>
      <trkpt lat="43.4434" lon="6.24735">
        <ele>294.5</ele>
        <time>2017-12-17T11:11:33Z</time>
      </trkpt>
      <trkpt lat="43.44342" lon="6.24748">
        <ele>295.2</ele>
        <time>2017-12-17T11:11:41Z</time>
      </trkpt>
      <trkpt lat="43.4434" lon="6.24762">
        <ele>294.8</ele>
        <time>2017-12-17T11:11:49Z</time>
      </trkpt>
      <trkpt lat="43.44342" lon="6.24776">
        <ele>295.6</ele>
        <time>2017-12-17T11:11:58Z</time>
      </trkpt>
      <trkpt lat="43.44345" lon="6.24788">
        <ele>296.1</ele>
        <time>2017-12-17T11:12:06Z</time>
      </trkpt>
      <trkpt lat="43.44351" lon="6.24799">
        <ele>296.6</ele>
        <time>2017-12-17T11:12:16Z</time>
      </trkpt>
      <trkpt lat="43.44358" lon="6.24808">
        <ele>297.5</ele>
        <time>2017-12-17T11:12:23Z</time>
      </trkpt>
      <trkpt lat="43.44362" lon="6.24819">
        <ele>298.1</ele>
        <time>2017-12-17T11:12:31Z</time>
      </trkpt>
      <trkpt lat="43.44368" lon="6.2483">
        <ele>299</ele>
        <time>2017-12-17T11:12:39Z</time>
      </trkpt>
      <trkpt lat="43.44369" lon="6.24843">
        <ele>299.6</ele>
        <time>2017-12-17T11:12:47Z</time>
      </trkpt>
      <trkpt lat="43.44374" lon="6.24853">
        <ele>299.1</ele>
        <time>2017-12-17T11:12:56Z</time>
      </trkpt>
      <trkpt lat="43.44378" lon="6.24866">
        <ele>298.4</ele>
        <time>2017-12-17T11:13:05Z</time>
      </trkpt>
      <trkpt lat="43.44384" lon="6.24876">
        <ele>298.6</ele>
        <time>2017-12-17T11:14:12Z</time>
      </trkpt>
      <trkpt lat="43.44375" lon="6.24879">
        <ele>298.8</ele>
        <time>2017-12-17T11:16:50Z</time>
      </trkpt>
      <trkpt lat="43.44365" lon="6.24878">
        <ele>299.2</ele>
        <time>2017-12-17T11:17:00Z</time>
      </trkpt>
      <trkpt lat="43.44356" lon="6.24877">
        <ele>300.2</ele>
        <time>2017-12-17T11:17:09Z</time>
      </trkpt>
      <trkpt lat="43.44346" lon="6.24879">
        <ele>301.3</ele>
        <time>2017-12-17T11:17:20Z</time>
      </trkpt>
      <trkpt lat="43.44338" lon="6.24883">
        <ele>302.1</ele>
        <time>2017-12-17T11:17:30Z</time>
      </trkpt>
      <trkpt lat="43.4434" lon="6.24895">
        <ele>303.1</ele>
        <time>2017-12-17T11:17:40Z</time>
      </trkpt>
      <trkpt lat="43.44343" lon="6.24908">
        <ele>304.7</ele>
        <time>2017-12-17T11:17:51Z</time>
      </trkpt>
      <trkpt lat="43.44348" lon="6.2492">
        <ele>305.2</ele>
        <time>2017-12-17T11:18:01Z</time>
      </trkpt>
      <trkpt lat="43.44354" lon="6.24929">
        <ele>305.5</ele>
        <time>2017-12-17T11:18:09Z</time>
      </trkpt>
      <trkpt lat="43.44359" lon="6.2494">
        <ele>305.7</ele>
        <time>2017-12-17T11:18:17Z</time>
      </trkpt>
      <trkpt lat="43.44358" lon="6.24954">
        <ele>305.4</ele>
        <time>2017-12-17T11:18:26Z</time>
      </trkpt>
      <trkpt lat="43.44359" lon="6.24968">
        <ele>305.2</ele>
        <time>2017-12-17T11:18:35Z</time>
      </trkpt>
      <trkpt lat="43.44354" lon="6.24979">
        <ele>305.9</ele>
        <time>2017-12-17T11:18:44Z</time>
      </trkpt>
      <trkpt lat="43.4435" lon="6.24991">
        <ele>307.2</ele>
        <time>2017-12-17T11:18:53Z</time>
      </trkpt>
      <trkpt lat="43.44351" lon="6.25004">
        <ele>307.8</ele>
        <time>2017-12-17T11:19:03Z</time>
      </trkpt>
      <trkpt lat="43.44346" lon="6.25015">
        <ele>308.8</ele>
        <time>2017-12-17T11:19:13Z</time>
      </trkpt>
      <trkpt lat="43.44339" lon="6.25023">
        <ele>310.6</ele>
        <time>2017-12-17T11:19:25Z</time>
      </trkpt>
      <trkpt lat="43.4433" lon="6.25026">
        <ele>311.6</ele>
        <time>2017-12-17T11:19:33Z</time>
      </trkpt>
      <trkpt lat="43.44322" lon="6.25033">
        <ele>312.5</ele>
        <time>2017-12-17T11:19:41Z</time>
      </trkpt>
      <trkpt lat="43.44317" lon="6.25043">
        <ele>313.9</ele>
        <time>2017-12-17T11:19:51Z</time>
      </trkpt>
      <trkpt lat="43.44311" lon="6.25054">
        <ele>314.5</ele>
        <time>2017-12-17T11:20:02Z</time>
      </trkpt>
      <trkpt lat="43.44305" lon="6.25064">
        <ele>315.8</ele>
        <time>2017-12-17T11:20:13Z</time>
      </trkpt>
      <trkpt lat="43.44296" lon="6.25065">
        <ele>316.7</ele>
        <time>2017-12-17T11:20:22Z</time>
      </trkpt>
      <trkpt lat="43.44287" lon="6.25065">
        <ele>317.6</ele>
        <time>2017-12-17T11:20:31Z</time>
      </trkpt>
      <trkpt lat="43.44278" lon="6.25071">
        <ele>318.2</ele>
        <time>2017-12-17T11:20:41Z</time>
      </trkpt>
      <trkpt lat="43.4427" lon="6.25078">
        <ele>318</ele>
        <time>2017-12-17T11:20:51Z</time>
      </trkpt>
      <trkpt lat="43.4426" lon="6.25079">
        <ele>318.4</ele>
        <time>2017-12-17T11:21:00Z</time>
      </trkpt>
      <trkpt lat="43.44251" lon="6.25079">
        <ele>319.1</ele>
        <time>2017-12-17T11:21:08Z</time>
      </trkpt>
      <trkpt lat="43.44242" lon="6.25078">
        <ele>320.1</ele>
        <time>2017-12-17T11:21:14Z</time>
      </trkpt>
      <trkpt lat="43.44232" lon="6.25078">
        <ele>320.6</ele>
        <time>2017-12-17T11:21:24Z</time>
      </trkpt>
      <trkpt lat="43.44223" lon="6.25075">
        <ele>321.1</ele>
        <time>2017-12-17T11:21:32Z</time>
      </trkpt>
      <trkpt lat="43.44213" lon="6.25077">
        <ele>321.7</ele>
        <time>2017-12-17T11:21:42Z</time>
      </trkpt>
      <trkpt lat="43.44207" lon="6.25069">
        <ele>321.9</ele>
        <time>2017-12-17T11:21:56Z</time>
      </trkpt>
      <trkpt lat="43.442" lon="6.2506">
        <ele>321.6</ele>
        <time>2017-12-17T11:22:07Z</time>
      </trkpt>
      <trkpt lat="43.44207" lon="6.25069">
        <ele>322.8</ele>
        <time>2017-12-17T11:23:41Z</time>
      </trkpt>
      <trkpt lat="43.44211" lon="6.25082">
        <ele>322.7</ele>
        <time>2017-12-17T11:23:54Z</time>
      </trkpt>
      <trkpt lat="43.44215" lon="6.25094">
        <ele>323.2</ele>
        <time>2017-12-17T11:24:02Z</time>
      </trkpt>
      <trkpt lat="43.4422" lon="6.25104">
        <ele>323.4</ele>
        <time>2017-12-17T11:24:08Z</time>
      </trkpt>
      <trkpt lat="43.44223" lon="6.25119">
        <ele>323.8</ele>
        <time>2017-12-17T11:24:12Z</time>
      </trkpt>
      <trkpt lat="43.44226" lon="6.25132">
        <ele>324.6</ele>
        <time>2017-12-17T11:24:16Z</time>
      </trkpt>
      <trkpt lat="43.44227" lon="6.25147">
        <ele>324.9</ele>
        <time>2017-12-17T11:24:20Z</time>
      </trkpt>
      <trkpt lat="43.44226" lon="6.25161">
        <ele>326</ele>
        <time>2017-12-17T11:24:25Z</time>
      </trkpt>
      <trkpt lat="43.44225" lon="6.25174">
        <ele>326.6</ele>
        <time>2017-12-17T11:24:29Z</time>
      </trkpt>
      <trkpt lat="43.44223" lon="6.25186">
        <ele>327.2</ele>
        <time>2017-12-17T11:24:33Z</time>
      </trkpt>
      <trkpt lat="43.44225" lon="6.252">
        <ele>328</ele>
        <time>2017-12-17T11:24:37Z</time>
      </trkpt>
      <trkpt lat="43.44222" lon="6.25212">
        <ele>328.8</ele>
        <time>2017-12-17T11:24:41Z</time>
      </trkpt>
      <trkpt lat="43.44223" lon="6.25226">
        <ele>329.6</ele>
        <time>2017-12-17T11:24:48Z</time>
      </trkpt>
      <trkpt lat="43.44218" lon="6.25238">
        <ele>330.4</ele>
        <time>2017-12-17T11:24:55Z</time>
      </trkpt>
      <trkpt lat="43.4421" lon="6.25247">
        <ele>331</ele>
        <time>2017-12-17T11:25:01Z</time>
      </trkpt>
      <trkpt lat="43.44203" lon="6.25255">
        <ele>332.2</ele>
        <time>2017-12-17T11:25:08Z</time>
      </trkpt>
      <trkpt lat="43.44198" lon="6.25266">
        <ele>333</ele>
        <time>2017-12-17T11:25:14Z</time>
      </trkpt>
      <trkpt lat="43.44197" lon="6.25279">
        <ele>333.8</ele>
        <time>2017-12-17T11:25:20Z</time>
      </trkpt>
      <trkpt lat="43.44195" lon="6.25292">
        <ele>334.3</ele>
        <time>2017-12-17T11:25:25Z</time>
      </trkpt>
      <trkpt lat="43.442" lon="6.25303">
        <ele>334.7</ele>
        <time>2017-12-17T11:25:29Z</time>
      </trkpt>
      <trkpt lat="43.442" lon="6.25317">
        <ele>335.2</ele>
        <time>2017-12-17T11:25:34Z</time>
      </trkpt>
      <trkpt lat="43.44198" lon="6.25331">
        <ele>336.2</ele>
        <time>2017-12-17T11:25:41Z</time>
      </trkpt>
      <trkpt lat="43.44193" lon="6.25342">
        <ele>336.9</ele>
        <time>2017-12-17T11:25:48Z</time>
      </trkpt>
      <trkpt lat="43.44195" lon="6.25356">
        <ele>337.8</ele>
        <time>2017-12-17T11:25:54Z</time>
      </trkpt>
      <trkpt lat="43.44193" lon="6.25369">
        <ele>338</ele>
        <time>2017-12-17T11:26:01Z</time>
      </trkpt>
      <trkpt lat="43.44196" lon="6.25381">
        <ele>338.4</ele>
        <time>2017-12-17T11:26:08Z</time>
      </trkpt>
      <trkpt lat="43.44198" lon="6.25393">
        <ele>338.8</ele>
        <time>2017-12-17T11:26:13Z</time>
      </trkpt>
      <trkpt lat="43.44194" lon="6.25405">
        <ele>339</ele>
        <time>2017-12-17T11:26:21Z</time>
      </trkpt>
      <trkpt lat="43.4419" lon="6.25417">
        <ele>339.1</ele>
        <time>2017-12-17T11:26:29Z</time>
      </trkpt>
      <trkpt lat="43.44187" lon="6.25429">
        <ele>339.2</ele>
        <time>2017-12-17T11:26:36Z</time>
      </trkpt>
      <trkpt lat="43.44187" lon="6.25442">
        <ele>339.3</ele>
        <time>2017-12-17T11:26:43Z</time>
      </trkpt>
      <trkpt lat="43.44192" lon="6.25453">
        <ele>339.6</ele>
        <time>2017-12-17T11:26:51Z</time>
      </trkpt>
      <trkpt lat="43.44196" lon="6.25466">
        <ele>339.7</ele>
        <time>2017-12-17T11:26:59Z</time>
      </trkpt>
      <trkpt lat="43.44198" lon="6.25478">
        <ele>339.8</ele>
        <time>2017-12-17T11:27:06Z</time>
      </trkpt>
      <trkpt lat="43.44202" lon="6.25491">
        <ele>339.8</ele>
        <time>2017-12-17T11:27:13Z</time>
      </trkpt>
      <trkpt lat="43.44208" lon="6.25503">
        <ele>339.9</ele>
        <time>2017-12-17T11:27:20Z</time>
      </trkpt>
      <trkpt lat="43.4421" lon="6.25515">
        <ele>340.2</ele>
        <time>2017-12-17T11:27:27Z</time>
      </trkpt>
      <trkpt lat="43.44212" lon="6.25528">
        <ele>340.7</ele>
        <time>2017-12-17T11:27:35Z</time>
      </trkpt>
      <trkpt lat="43.44213" lon="6.25542">
        <ele>340.2</ele>
        <time>2017-12-17T11:27:43Z</time>
      </trkpt>
      <trkpt lat="43.44216" lon="6.25554">
        <ele>340.3</ele>
        <time>2017-12-17T11:27:50Z</time>
      </trkpt>
      <trkpt lat="43.44217" lon="6.25566">
        <ele>341.1</ele>
        <time>2017-12-17T11:27:58Z</time>
      </trkpt>
      <trkpt lat="43.44217" lon="6.25579">
        <ele>342.6</ele>
        <time>2017-12-17T11:28:15Z</time>
      </trkpt>
      <trkpt lat="43.44224" lon="6.25588">
        <ele>342.9</ele>
        <time>2017-12-17T11:28:26Z</time>
      </trkpt>
      <trkpt lat="43.44229" lon="6.256">
        <ele>343</ele>
        <time>2017-12-17T11:28:37Z</time>
      </trkpt>
      <trkpt lat="43.44234" lon="6.25611">
        <ele>343.4</ele>
        <time>2017-12-17T11:28:47Z</time>
      </trkpt>
      <trkpt lat="43.44232" lon="6.25623">
        <ele>343.3</ele>
        <time>2017-12-17T11:29:02Z</time>
      </trkpt>
      <trkpt lat="43.4423" lon="6.25636">
        <ele>342.8</ele>
        <time>2017-12-17T11:29:14Z</time>
      </trkpt>
      <trkpt lat="43.44235" lon="6.25647">
        <ele>343.3</ele>
        <time>2017-12-17T11:29:28Z</time>
      </trkpt>
      <trkpt lat="43.4424" lon="6.25658">
        <ele>342.8</ele>
        <time>2017-12-17T11:29:42Z</time>
      </trkpt>
      <trkpt lat="43.44247" lon="6.25666">
        <ele>343.5</ele>
        <time>2017-12-17T11:29:56Z</time>
      </trkpt>
      <trkpt lat="43.44255" lon="6.25674">
        <ele>344</ele>
        <time>2017-12-17T11:30:15Z</time>
      </trkpt>
      <trkpt lat="43.44264" lon="6.25678">
        <ele>343.6</ele>
        <time>2017-12-17T11:30:36Z</time>
      </trkpt>
      <trkpt lat="43.44255" lon="6.25676">
        <ele>343.3</ele>
        <time>2017-12-17T11:31:17Z</time>
      </trkpt>
      <trkpt lat="43.44246" lon="6.25675">
        <ele>342.3</ele>
        <time>2017-12-17T11:34:48Z</time>
      </trkpt>
      <trkpt lat="43.44255" lon="6.25677">
        <ele>342.3</ele>
        <time>2017-12-17T11:38:30Z</time>
      </trkpt>
      <trkpt lat="43.44246" lon="6.25676">
        <ele>342.5</ele>
        <time>2017-12-17T11:40:36Z</time>
      </trkpt>
      <trkpt lat="43.44255" lon="6.25682">
        <ele>346.5</ele>
        <time>2017-12-17T12:02:26Z</time>
      </trkpt>
      <trkpt lat="43.44247" lon="6.25687">
        <ele>347.2</ele>
        <time>2017-12-17T12:14:01Z</time>
      </trkpt>
      <trkpt lat="43.44252" lon="6.25677">
        <ele>347.7</ele>
        <time>2017-12-17T12:20:33Z</time>
      </trkpt>
      <trkpt lat="43.44251" lon="6.2569">
        <ele>347.7</ele>
        <time>2017-12-17T12:24:03Z</time>
      </trkpt>
      <trkpt lat="43.4426" lon="6.25684">
        <ele>347.3</ele>
        <time>2017-12-17T12:28:17Z</time>
      </trkpt>
      <trkpt lat="43.44269" lon="6.25687">
        <ele>348.6</ele>
        <time>2017-12-17T12:30:24Z</time>
      </trkpt>
      <trkpt lat="43.44278" lon="6.25692">
        <ele>349.7</ele>
        <time>2017-12-17T12:30:37Z</time>
      </trkpt>
      <trkpt lat="43.44287" lon="6.25688">
        <ele>351.3</ele>
        <time>2017-12-17T12:30:53Z</time>
      </trkpt>
      <trkpt lat="43.44294" lon="6.25696">
        <ele>351.9</ele>
        <time>2017-12-17T12:31:05Z</time>
      </trkpt>
      <trkpt lat="43.443" lon="6.25708">
        <ele>352.1</ele>
        <time>2017-12-17T12:31:13Z</time>
      </trkpt>
      <trkpt lat="43.44302" lon="6.25721">
        <ele>352.3</ele>
        <time>2017-12-17T12:31:23Z</time>
      </trkpt>
      <trkpt lat="43.44306" lon="6.25733">
        <ele>353.3</ele>
        <time>2017-12-17T12:31:33Z</time>
      </trkpt>
      <trkpt lat="43.4431" lon="6.25744">
        <ele>353.9</ele>
        <time>2017-12-17T12:31:42Z</time>
      </trkpt>
      <trkpt lat="43.44316" lon="6.25753">
        <ele>354.5</ele>
        <time>2017-12-17T12:31:51Z</time>
      </trkpt>
      <trkpt lat="43.44319" lon="6.25767">
        <ele>355.4</ele>
        <time>2017-12-17T12:32:00Z</time>
      </trkpt>
      <trkpt lat="43.44321" lon="6.25779">
        <ele>356.3</ele>
        <time>2017-12-17T12:32:11Z</time>
      </trkpt>
      <trkpt lat="43.4432" lon="6.25792">
        <ele>357</ele>
        <time>2017-12-17T12:32:20Z</time>
      </trkpt>
      <trkpt lat="43.44317" lon="6.25805">
        <ele>357.9</ele>
        <time>2017-12-17T12:32:31Z</time>
      </trkpt>
      <trkpt lat="43.44312" lon="6.25815">
        <ele>358.4</ele>
        <time>2017-12-17T12:32:41Z</time>
      </trkpt>
      <trkpt lat="43.44312" lon="6.25828">
        <ele>358.7</ele>
        <time>2017-12-17T12:32:49Z</time>
      </trkpt>
      <trkpt lat="43.44311" lon="6.25842">
        <ele>358.9</ele>
        <time>2017-12-17T12:33:00Z</time>
      </trkpt>
      <trkpt lat="43.44309" lon="6.25854">
        <ele>359</ele>
        <time>2017-12-17T12:33:08Z</time>
      </trkpt>
      <trkpt lat="43.44312" lon="6.25866">
        <ele>359.4</ele>
        <time>2017-12-17T12:33:24Z</time>
      </trkpt>
      <trkpt lat="43.4431" lon="6.25879">
        <ele>359.2</ele>
        <time>2017-12-17T12:33:32Z</time>
      </trkpt>
      <trkpt lat="43.44308" lon="6.25891">
        <ele>358.5</ele>
        <time>2017-12-17T12:33:39Z</time>
      </trkpt>
      <trkpt lat="43.44312" lon="6.25904">
        <ele>357.9</ele>
        <time>2017-12-17T12:33:48Z</time>
      </trkpt>
      <trkpt lat="43.44318" lon="6.25915">
        <ele>357.1</ele>
        <time>2017-12-17T12:33:55Z</time>
      </trkpt>
      <trkpt lat="43.44325" lon="6.25924">
        <ele>357.3</ele>
        <time>2017-12-17T12:34:05Z</time>
      </trkpt>
      <trkpt lat="43.44331" lon="6.25933">
        <ele>357.6</ele>
        <time>2017-12-17T12:34:13Z</time>
      </trkpt>
      <trkpt lat="43.44335" lon="6.25946">
        <ele>358.4</ele>
        <time>2017-12-17T12:34:21Z</time>
      </trkpt>
      <trkpt lat="43.44336" lon="6.25959">
        <ele>358</ele>
        <time>2017-12-17T12:34:31Z</time>
      </trkpt>
      <trkpt lat="43.44337" lon="6.25972">
        <ele>357.5</ele>
        <time>2017-12-17T12:34:38Z</time>
      </trkpt>
      <trkpt lat="43.44339" lon="6.25984">
        <ele>356.4</ele>
        <time>2017-12-17T12:34:47Z</time>
      </trkpt>
      <trkpt lat="43.44338" lon="6.25998">
        <ele>355.6</ele>
        <time>2017-12-17T12:34:55Z</time>
      </trkpt>
      <trkpt lat="43.44338" lon="6.26011">
        <ele>354.3</ele>
        <time>2017-12-17T12:35:04Z</time>
      </trkpt>
      <trkpt lat="43.44339" lon="6.26025">
        <ele>354</ele>
        <time>2017-12-17T12:35:12Z</time>
      </trkpt>
      <trkpt lat="43.44338" lon="6.26038">
        <ele>353.7</ele>
        <time>2017-12-17T12:35:23Z</time>
      </trkpt>
      <trkpt lat="43.44339" lon="6.26051">
        <ele>354.3</ele>
        <time>2017-12-17T12:35:31Z</time>
      </trkpt>
      <trkpt lat="43.4434" lon="6.26063">
        <ele>354.4</ele>
        <time>2017-12-17T12:35:38Z</time>
      </trkpt>
      <trkpt lat="43.44336" lon="6.26075">
        <ele>354.8</ele>
        <time>2017-12-17T12:35:46Z</time>
      </trkpt>
      <trkpt lat="43.44337" lon="6.26088">
        <ele>355</ele>
        <time>2017-12-17T12:35:54Z</time>
      </trkpt>
      <trkpt lat="43.44339" lon="6.261">
        <ele>354.9</ele>
        <time>2017-12-17T12:36:02Z</time>
      </trkpt>
      <trkpt lat="43.44338" lon="6.26114">
        <ele>354.9</ele>
        <time>2017-12-17T12:36:09Z</time>
      </trkpt>
      <trkpt lat="43.44337" lon="6.26129">
        <ele>355</ele>
        <time>2017-12-17T12:36:16Z</time>
      </trkpt>
      <trkpt lat="43.44337" lon="6.26143">
        <ele>354.8</ele>
        <time>2017-12-17T12:36:28Z</time>
      </trkpt>
      <trkpt lat="43.44339" lon="6.26155">
        <ele>354.9</ele>
        <time>2017-12-17T12:36:37Z</time>
      </trkpt>
      <trkpt lat="43.44343" lon="6.26167">
        <ele>355.2</ele>
        <time>2017-12-17T12:36:46Z</time>
      </trkpt>
      <trkpt lat="43.44342" lon="6.2618">
        <ele>355.6</ele>
        <time>2017-12-17T12:36:55Z</time>
      </trkpt>
      <trkpt lat="43.44341" lon="6.26193">
        <ele>356.3</ele>
        <time>2017-12-17T12:37:05Z</time>
      </trkpt>
      <trkpt lat="43.44338" lon="6.26206">
        <ele>357</ele>
        <time>2017-12-17T12:37:13Z</time>
      </trkpt>
      <trkpt lat="43.44342" lon="6.26217">
        <ele>358.6</ele>
        <time>2017-12-17T12:37:23Z</time>
      </trkpt>
      <trkpt lat="43.44349" lon="6.26227">
        <ele>359.6</ele>
        <time>2017-12-17T12:37:33Z</time>
      </trkpt>
      <trkpt lat="43.44357" lon="6.26233">
        <ele>360</ele>
        <time>2017-12-17T12:37:43Z</time>
      </trkpt>
      <trkpt lat="43.44366" lon="6.2624">
        <ele>360.7</ele>
        <time>2017-12-17T12:37:52Z</time>
      </trkpt>
      <trkpt lat="43.44375" lon="6.26244">
        <ele>360.4</ele>
        <time>2017-12-17T12:37:58Z</time>
      </trkpt>
      <trkpt lat="43.44382" lon="6.26252">
        <ele>360.3</ele>
        <time>2017-12-17T12:38:06Z</time>
      </trkpt>
      <trkpt lat="43.44391" lon="6.26256">
        <ele>360.2</ele>
        <time>2017-12-17T12:38:13Z</time>
      </trkpt>
      <trkpt lat="43.44399" lon="6.26262">
        <ele>360.3</ele>
        <time>2017-12-17T12:38:20Z</time>
      </trkpt>
      <trkpt lat="43.44397" lon="6.26275">
        <ele>360.3</ele>
        <time>2017-12-17T12:38:27Z</time>
      </trkpt>
      <trkpt lat="43.44392" lon="6.26286">
        <ele>360.6</ele>
        <time>2017-12-17T12:38:34Z</time>
      </trkpt>
      <trkpt lat="43.44389" lon="6.26298">
        <ele>362.4</ele>
        <time>2017-12-17T12:38:44Z</time>
      </trkpt>
      <trkpt lat="43.44388" lon="6.2631">
        <ele>364.1</ele>
        <time>2017-12-17T12:38:56Z</time>
      </trkpt>
      <trkpt lat="43.44385" lon="6.26323">
        <ele>365.9</ele>
        <time>2017-12-17T12:39:07Z</time>
      </trkpt>
      <trkpt lat="43.44383" lon="6.26335">
        <ele>367.6</ele>
        <time>2017-12-17T12:39:17Z</time>
      </trkpt>
      <trkpt lat="43.44384" lon="6.26349">
        <ele>368.6</ele>
        <time>2017-12-17T12:39:27Z</time>
      </trkpt>
      <trkpt lat="43.44388" lon="6.26361">
        <ele>370</ele>
        <time>2017-12-17T12:39:38Z</time>
      </trkpt>
      <trkpt lat="43.44392" lon="6.26373">
        <ele>370.6</ele>
        <time>2017-12-17T12:39:46Z</time>
      </trkpt>
      <trkpt lat="43.44396" lon="6.26385">
        <ele>371.1</ele>
        <time>2017-12-17T12:39:54Z</time>
      </trkpt>
      <trkpt lat="43.44399" lon="6.26397">
        <ele>371.4</ele>
        <time>2017-12-17T12:40:03Z</time>
      </trkpt>
      <trkpt lat="43.44402" lon="6.26409">
        <ele>371.3</ele>
        <time>2017-12-17T12:40:11Z</time>
      </trkpt>
      <trkpt lat="43.44401" lon="6.26422">
        <ele>371.1</ele>
        <time>2017-12-17T12:40:20Z</time>
      </trkpt>
      <trkpt lat="43.44401" lon="6.26436">
        <ele>371</ele>
        <time>2017-12-17T12:40:28Z</time>
      </trkpt>
      <trkpt lat="43.44403" lon="6.26448">
        <ele>371.3</ele>
        <time>2017-12-17T12:40:36Z</time>
      </trkpt>
      <trkpt lat="43.44406" lon="6.26461">
        <ele>371.6</ele>
        <time>2017-12-17T12:40:45Z</time>
      </trkpt>
      <trkpt lat="43.44406" lon="6.26474">
        <ele>372.2</ele>
        <time>2017-12-17T12:40:56Z</time>
      </trkpt>
      <trkpt lat="43.44404" lon="6.26488">
        <ele>373.1</ele>
        <time>2017-12-17T12:41:06Z</time>
      </trkpt>
      <trkpt lat="43.444" lon="6.265">
        <ele>373.5</ele>
        <time>2017-12-17T12:41:13Z</time>
      </trkpt>
      <trkpt lat="43.44396" lon="6.26512">
        <ele>374.3</ele>
        <time>2017-12-17T12:41:23Z</time>
      </trkpt>
      <trkpt lat="43.44393" lon="6.26525">
        <ele>374.6</ele>
        <time>2017-12-17T12:41:30Z</time>
      </trkpt>
      <trkpt lat="43.44393" lon="6.26537">
        <ele>375.1</ele>
        <time>2017-12-17T12:41:37Z</time>
      </trkpt>
      <trkpt lat="43.44393" lon="6.26552">
        <ele>374.9</ele>
        <time>2017-12-17T12:41:46Z</time>
      </trkpt>
      <trkpt lat="43.44393" lon="6.26564">
        <ele>375.1</ele>
        <time>2017-12-17T12:41:53Z</time>
      </trkpt>
      <trkpt lat="43.44393" lon="6.26577">
        <ele>375.2</ele>
        <time>2017-12-17T12:42:02Z</time>
      </trkpt>
      <trkpt lat="43.44395" lon="6.26591">
        <ele>375.3</ele>
        <time>2017-12-17T12:42:11Z</time>
      </trkpt>
      <trkpt lat="43.44395" lon="6.26605">
        <ele>375.2</ele>
        <time>2017-12-17T12:42:19Z</time>
      </trkpt>
      <trkpt lat="43.44396" lon="6.26618">
        <ele>375.1</ele>
        <time>2017-12-17T12:42:26Z</time>
      </trkpt>
      <trkpt lat="43.44396" lon="6.26633">
        <ele>375.7</ele>
        <time>2017-12-17T12:42:34Z</time>
      </trkpt>
      <trkpt lat="43.44397" lon="6.26646">
        <ele>376.1</ele>
        <time>2017-12-17T12:42:44Z</time>
      </trkpt>
      <trkpt lat="43.44396" lon="6.26659">
        <ele>376.4</ele>
        <time>2017-12-17T12:42:52Z</time>
      </trkpt>
      <trkpt lat="43.44395" lon="6.26672">
        <ele>376.6</ele>
        <time>2017-12-17T12:43:01Z</time>
      </trkpt>
      <trkpt lat="43.44393" lon="6.26686">
        <ele>376.7</ele>
        <time>2017-12-17T12:43:09Z</time>
      </trkpt>
      <trkpt lat="43.44392" lon="6.26699">
        <ele>377.1</ele>
        <time>2017-12-17T12:43:17Z</time>
      </trkpt>
      <trkpt lat="43.44389" lon="6.26711">
        <ele>376.9</ele>
        <time>2017-12-17T12:43:25Z</time>
      </trkpt>
      <trkpt lat="43.44386" lon="6.26724">
        <ele>377.3</ele>
        <time>2017-12-17T12:43:32Z</time>
      </trkpt>
      <trkpt lat="43.44382" lon="6.26735">
        <ele>377.4</ele>
        <time>2017-12-17T12:43:40Z</time>
      </trkpt>
      <trkpt lat="43.44379" lon="6.26747">
        <ele>377.4</ele>
        <time>2017-12-17T12:43:48Z</time>
      </trkpt>
      <trkpt lat="43.44372" lon="6.26756">
        <ele>377.3</ele>
        <time>2017-12-17T12:43:58Z</time>
      </trkpt>
      <trkpt lat="43.44381" lon="6.2676">
        <ele>377</ele>
        <time>2017-12-17T12:44:21Z</time>
      </trkpt>
      <trkpt lat="43.44372" lon="6.26763">
        <ele>377.1</ele>
        <time>2017-12-17T12:45:29Z</time>
      </trkpt>
      <trkpt lat="43.44368" lon="6.26775">
        <ele>376.2</ele>
        <time>2017-12-17T12:45:39Z</time>
      </trkpt>
      <trkpt lat="43.44364" lon="6.26788">
        <ele>375.7</ele>
        <time>2017-12-17T12:45:48Z</time>
      </trkpt>
      <trkpt lat="43.44359" lon="6.268">
        <ele>375.5</ele>
        <time>2017-12-17T12:45:57Z</time>
      </trkpt>
      <trkpt lat="43.44354" lon="6.2681">
        <ele>375.6</ele>
        <time>2017-12-17T12:46:06Z</time>
      </trkpt>
      <trkpt lat="43.44349" lon="6.2682">
        <ele>375.6</ele>
        <time>2017-12-17T12:46:16Z</time>
      </trkpt>
      <trkpt lat="43.44344" lon="6.26831">
        <ele>375.4</ele>
        <time>2017-12-17T12:46:25Z</time>
      </trkpt>
      <trkpt lat="43.44339" lon="6.26841">
        <ele>375.3</ele>
        <time>2017-12-17T12:46:34Z</time>
      </trkpt>
      <trkpt lat="43.44335" lon="6.26854">
        <ele>375.2</ele>
        <time>2017-12-17T12:46:43Z</time>
      </trkpt>
      <trkpt lat="43.44332" lon="6.26866">
        <ele>375.1</ele>
        <time>2017-12-17T12:46:53Z</time>
      </trkpt>
      <trkpt lat="43.4433" lon="6.26879">
        <ele>375.4</ele>
        <time>2017-12-17T12:47:02Z</time>
      </trkpt>
      <trkpt lat="43.44327" lon="6.26893">
        <ele>375.2</ele>
        <time>2017-12-17T12:47:10Z</time>
      </trkpt>
      <trkpt lat="43.44324" lon="6.26906">
        <ele>375</ele>
        <time>2017-12-17T12:47:20Z</time>
      </trkpt>
      <trkpt lat="43.4432" lon="6.26917">
        <ele>374.6</ele>
        <time>2017-12-17T12:47:30Z</time>
      </trkpt>
      <trkpt lat="43.44316" lon="6.26929">
        <ele>374.2</ele>
        <time>2017-12-17T12:48:49Z</time>
      </trkpt>
      <trkpt lat="43.44312" lon="6.26941">
        <ele>373.3</ele>
        <time>2017-12-17T12:48:58Z</time>
      </trkpt>
      <trkpt lat="43.44308" lon="6.26952">
        <ele>373.1</ele>
        <time>2017-12-17T12:49:09Z</time>
      </trkpt>
      <trkpt lat="43.44304" lon="6.26964">
        <ele>373.3</ele>
        <time>2017-12-17T12:49:22Z</time>
      </trkpt>
      <trkpt lat="43.44299" lon="6.26975">
        <ele>372.5</ele>
        <time>2017-12-17T12:49:31Z</time>
      </trkpt>
      <trkpt lat="43.44295" lon="6.26987">
        <ele>372.3</ele>
        <time>2017-12-17T12:49:42Z</time>
      </trkpt>
      <trkpt lat="43.44293" lon="6.27">
        <ele>372.7</ele>
        <time>2017-12-17T12:49:52Z</time>
      </trkpt>
      <trkpt lat="43.4429" lon="6.27012">
        <ele>372.3</ele>
        <time>2017-12-17T12:50:02Z</time>
      </trkpt>
      <trkpt lat="43.44288" lon="6.27024">
        <ele>372.3</ele>
        <time>2017-12-17T12:50:13Z</time>
      </trkpt>
      <trkpt lat="43.44285" lon="6.27036">
        <ele>372.1</ele>
        <time>2017-12-17T12:50:23Z</time>
      </trkpt>
      <trkpt lat="43.4428" lon="6.27048">
        <ele>371.8</ele>
        <time>2017-12-17T12:50:31Z</time>
      </trkpt>
      <trkpt lat="43.44275" lon="6.27058">
        <ele>371</ele>
        <time>2017-12-17T12:50:39Z</time>
      </trkpt>
      <trkpt lat="43.4427" lon="6.27069">
        <ele>370.7</ele>
        <time>2017-12-17T12:50:46Z</time>
      </trkpt>
      <trkpt lat="43.44265" lon="6.27081">
        <ele>370.8</ele>
        <time>2017-12-17T12:50:55Z</time>
      </trkpt>
      <trkpt lat="43.44263" lon="6.27093">
        <ele>370.9</ele>
        <time>2017-12-17T12:51:04Z</time>
      </trkpt>
      <trkpt lat="43.44261" lon="6.27106">
        <ele>370.5</ele>
        <time>2017-12-17T12:51:12Z</time>
      </trkpt>
      <trkpt lat="43.44258" lon="6.27119">
        <ele>370.8</ele>
        <time>2017-12-17T12:51:22Z</time>
      </trkpt>
      <trkpt lat="43.44255" lon="6.27131">
        <ele>370.7</ele>
        <time>2017-12-17T12:51:30Z</time>
      </trkpt>
      <trkpt lat="43.44251" lon="6.27143">
        <ele>370.7</ele>
        <time>2017-12-17T12:51:38Z</time>
      </trkpt>
      <trkpt lat="43.44247" lon="6.27154">
        <ele>370.6</ele>
        <time>2017-12-17T12:51:47Z</time>
      </trkpt>
      <trkpt lat="43.44242" lon="6.27166">
        <ele>370.6</ele>
        <time>2017-12-17T12:51:55Z</time>
      </trkpt>
      <trkpt lat="43.44238" lon="6.27178">
        <ele>370</ele>
        <time>2017-12-17T12:52:05Z</time>
      </trkpt>
      <trkpt lat="43.44234" lon="6.27191">
        <ele>369.7</ele>
        <time>2017-12-17T12:52:16Z</time>
      </trkpt>
      <trkpt lat="43.44232" lon="6.27203">
        <ele>369.5</ele>
        <time>2017-12-17T12:52:25Z</time>
      </trkpt>
      <trkpt lat="43.44227" lon="6.27214">
        <ele>369.2</ele>
        <time>2017-12-17T12:52:32Z</time>
      </trkpt>
      <trkpt lat="43.44222" lon="6.27225">
        <ele>368.7</ele>
        <time>2017-12-17T12:52:41Z</time>
      </trkpt>
      <trkpt lat="43.44218" lon="6.27236">
        <ele>368.5</ele>
        <time>2017-12-17T12:52:50Z</time>
      </trkpt>
      <trkpt lat="43.44212" lon="6.27247">
        <ele>368</ele>
        <time>2017-12-17T12:52:58Z</time>
      </trkpt>
      <trkpt lat="43.44204" lon="6.27256">
        <ele>367.4</ele>
        <time>2017-12-17T12:53:06Z</time>
      </trkpt>
      <trkpt lat="43.44197" lon="6.27265">
        <ele>367</ele>
        <time>2017-12-17T12:53:14Z</time>
      </trkpt>
      <trkpt lat="43.4419" lon="6.27275">
        <ele>366.4</ele>
        <time>2017-12-17T12:53:24Z</time>
      </trkpt>
      <trkpt lat="43.44183" lon="6.27283">
        <ele>365.4</ele>
        <time>2017-12-17T12:53:33Z</time>
      </trkpt>
      <trkpt lat="43.44175" lon="6.27291">
        <ele>363.9</ele>
        <time>2017-12-17T12:53:42Z</time>
      </trkpt>
      <trkpt lat="43.44167" lon="6.27297">
        <ele>362.7</ele>
        <time>2017-12-17T12:53:51Z</time>
      </trkpt>
      <trkpt lat="43.44159" lon="6.27305">
        <ele>362.3</ele>
        <time>2017-12-17T12:53:59Z</time>
      </trkpt>
      <trkpt lat="43.44154" lon="6.27315">
        <ele>361.6</ele>
        <time>2017-12-17T12:54:06Z</time>
      </trkpt>
      <trkpt lat="43.44152" lon="6.27329">
        <ele>359.9</ele>
        <time>2017-12-17T12:54:16Z</time>
      </trkpt>
      <trkpt lat="43.4415" lon="6.27343">
        <ele>358.7</ele>
        <time>2017-12-17T12:54:25Z</time>
      </trkpt>
      <trkpt lat="43.44148" lon="6.27355">
        <ele>358.1</ele>
        <time>2017-12-17T12:54:34Z</time>
      </trkpt>
      <trkpt lat="43.44142" lon="6.27365">
        <ele>357.9</ele>
        <time>2017-12-17T12:54:43Z</time>
      </trkpt>
      <trkpt lat="43.44139" lon="6.27378">
        <ele>357.8</ele>
        <time>2017-12-17T12:54:52Z</time>
      </trkpt>
      <trkpt lat="43.44134" lon="6.27388">
        <ele>357.3</ele>
        <time>2017-12-17T12:55:00Z</time>
      </trkpt>
      <trkpt lat="43.44126" lon="6.27398">
        <ele>356.8</ele>
        <time>2017-12-17T12:55:07Z</time>
      </trkpt>
      <trkpt lat="43.4412" lon="6.27408">
        <ele>356.5</ele>
        <time>2017-12-17T12:55:15Z</time>
      </trkpt>
      <trkpt lat="43.44127" lon="6.274">
        <ele>356.4</ele>
        <time>2017-12-17T12:55:25Z</time>
      </trkpt>
      <trkpt lat="43.44135" lon="6.27391">
        <ele>356.8</ele>
        <time>2017-12-17T12:55:32Z</time>
      </trkpt>
      <trkpt lat="43.44142" lon="6.27382">
        <ele>357.2</ele>
        <time>2017-12-17T12:55:39Z</time>
      </trkpt>
      <trkpt lat="43.44152" lon="6.27378">
        <ele>357.5</ele>
        <time>2017-12-17T12:55:46Z</time>
      </trkpt>
      <trkpt lat="43.44162" lon="6.27378">
        <ele>357.8</ele>
        <time>2017-12-17T12:55:58Z</time>
      </trkpt>
      <trkpt lat="43.44169" lon="6.27386">
        <ele>358.4</ele>
        <time>2017-12-17T12:56:11Z</time>
      </trkpt>
      <trkpt lat="43.4417" lon="6.27399">
        <ele>358.2</ele>
        <time>2017-12-17T12:57:37Z</time>
      </trkpt>
      <trkpt lat="43.44176" lon="6.27408">
        <ele>357.6</ele>
        <time>2017-12-17T12:57:45Z</time>
      </trkpt>
      <trkpt lat="43.44183" lon="6.27417">
        <ele>356.2</ele>
        <time>2017-12-17T12:58:16Z</time>
      </trkpt>
      <trkpt lat="43.44181" lon="6.2743">
        <ele>355.4</ele>
        <time>2017-12-17T12:58:37Z</time>
      </trkpt>
      <trkpt lat="43.44175" lon="6.27441">
        <ele>354.8</ele>
        <time>2017-12-17T12:58:47Z</time>
      </trkpt>
      <trkpt lat="43.44166" lon="6.27446">
        <ele>354.2</ele>
        <time>2017-12-17T12:58:57Z</time>
      </trkpt>
      <trkpt lat="43.44158" lon="6.27451">
        <ele>354.6</ele>
        <time>2017-12-17T12:59:06Z</time>
      </trkpt>
      <trkpt lat="43.44152" lon="6.27462">
        <ele>354.3</ele>
        <time>2017-12-17T12:59:16Z</time>
      </trkpt>
      <trkpt lat="43.44145" lon="6.2747">
        <ele>353.8</ele>
        <time>2017-12-17T12:59:26Z</time>
      </trkpt>
      <trkpt lat="43.44143" lon="6.27483">
        <ele>352</ele>
        <time>2017-12-17T12:59:37Z</time>
      </trkpt>
      <trkpt lat="43.4414" lon="6.27495">
        <ele>350.5</ele>
        <time>2017-12-17T12:59:48Z</time>
      </trkpt>
      <trkpt lat="43.44134" lon="6.27505">
        <ele>349.1</ele>
        <time>2017-12-17T12:59:58Z</time>
      </trkpt>
      <trkpt lat="43.44129" lon="6.27516">
        <ele>347.2</ele>
        <time>2017-12-17T13:00:08Z</time>
      </trkpt>
      <trkpt lat="43.44124" lon="6.27527">
        <ele>345.4</ele>
        <time>2017-12-17T13:00:19Z</time>
      </trkpt>
      <trkpt lat="43.44119" lon="6.27538">
        <ele>343.8</ele>
        <time>2017-12-17T13:00:30Z</time>
      </trkpt>
      <trkpt lat="43.44111" lon="6.27549">
        <ele>343.2</ele>
        <time>2017-12-17T13:00:39Z</time>
      </trkpt>
      <trkpt lat="43.44107" lon="6.2756">
        <ele>342.6</ele>
        <time>2017-12-17T13:00:49Z</time>
      </trkpt>
      <trkpt lat="43.44104" lon="6.27573">
        <ele>341.7</ele>
        <time>2017-12-17T13:00:59Z</time>
      </trkpt>
      <trkpt lat="43.441" lon="6.27586">
        <ele>340.9</ele>
        <time>2017-12-17T13:01:07Z</time>
      </trkpt>
      <trkpt lat="43.44099" lon="6.27599">
        <ele>339.6</ele>
        <time>2017-12-17T13:01:16Z</time>
      </trkpt>
      <trkpt lat="43.44098" lon="6.27612">
        <ele>338.7</ele>
        <time>2017-12-17T13:01:26Z</time>
      </trkpt>
      <trkpt lat="43.44096" lon="6.27624">
        <ele>337.1</ele>
        <time>2017-12-17T13:01:35Z</time>
      </trkpt>
      <trkpt lat="43.44097" lon="6.27636">
        <ele>335.2</ele>
        <time>2017-12-17T13:01:46Z</time>
      </trkpt>
      <trkpt lat="43.44096" lon="6.27649">
        <ele>333.5</ele>
        <time>2017-12-17T13:01:57Z</time>
      </trkpt>
      <trkpt lat="43.44098" lon="6.27662">
        <ele>331.3</ele>
        <time>2017-12-17T13:02:07Z</time>
      </trkpt>
      <trkpt lat="43.44097" lon="6.27675">
        <ele>329.2</ele>
        <time>2017-12-17T13:02:17Z</time>
      </trkpt>
      <trkpt lat="43.44096" lon="6.27689">
        <ele>328.2</ele>
        <time>2017-12-17T13:02:26Z</time>
      </trkpt>
      <trkpt lat="43.44095" lon="6.27701">
        <ele>326.7</ele>
        <time>2017-12-17T13:02:37Z</time>
      </trkpt>
      <trkpt lat="43.44094" lon="6.27715">
        <ele>326.5</ele>
        <time>2017-12-17T13:02:46Z</time>
      </trkpt>
      <trkpt lat="43.44094" lon="6.27729">
        <ele>326.5</ele>
        <time>2017-12-17T13:02:55Z</time>
      </trkpt>
      <trkpt lat="43.44094" lon="6.27743">
        <ele>326.3</ele>
        <time>2017-12-17T13:03:03Z</time>
      </trkpt>
      <trkpt lat="43.44093" lon="6.27756">
        <ele>325.7</ele>
        <time>2017-12-17T13:03:12Z</time>
      </trkpt>
      <trkpt lat="43.44088" lon="6.27768">
        <ele>326.6</ele>
        <time>2017-12-17T13:03:22Z</time>
      </trkpt>
      <trkpt lat="43.4409" lon="6.2778">
        <ele>327.1</ele>
        <time>2017-12-17T13:03:30Z</time>
      </trkpt>
      <trkpt lat="43.44088" lon="6.27792">
        <ele>326.9</ele>
        <time>2017-12-17T13:03:37Z</time>
      </trkpt>
      <trkpt lat="43.44086" lon="6.27804">
        <ele>326.8</ele>
        <time>2017-12-17T13:03:45Z</time>
      </trkpt>
      <trkpt lat="43.44086" lon="6.27819">
        <ele>327.1</ele>
        <time>2017-12-17T13:03:56Z</time>
      </trkpt>
      <trkpt lat="43.44089" lon="6.27832">
        <ele>326.1</ele>
        <time>2017-12-17T13:04:06Z</time>
      </trkpt>
      <trkpt lat="43.44094" lon="6.27842">
        <ele>323.8</ele>
        <time>2017-12-17T13:04:15Z</time>
      </trkpt>
      <trkpt lat="43.44099" lon="6.27853">
        <ele>322</ele>
        <time>2017-12-17T13:04:23Z</time>
      </trkpt>
      <trkpt lat="43.44102" lon="6.27865">
        <ele>319.8</ele>
        <time>2017-12-17T13:04:33Z</time>
      </trkpt>
      <trkpt lat="43.44105" lon="6.27878">
        <ele>317.6</ele>
        <time>2017-12-17T13:04:44Z</time>
      </trkpt>
      <trkpt lat="43.44107" lon="6.27891">
        <ele>316</ele>
        <time>2017-12-17T13:04:53Z</time>
      </trkpt>
      <trkpt lat="43.44104" lon="6.27903">
        <ele>314.5</ele>
        <time>2017-12-17T13:05:01Z</time>
      </trkpt>
      <trkpt lat="43.4411" lon="6.27915">
        <ele>312.4</ele>
        <time>2017-12-17T13:05:10Z</time>
      </trkpt>
      <trkpt lat="43.44113" lon="6.27927">
        <ele>309.6</ele>
        <time>2017-12-17T13:05:21Z</time>
      </trkpt>
      <trkpt lat="43.44117" lon="6.27939">
        <ele>306.4</ele>
        <time>2017-12-17T13:05:36Z</time>
      </trkpt>
      <trkpt lat="43.44123" lon="6.27949">
        <ele>304.6</ele>
        <time>2017-12-17T13:05:44Z</time>
      </trkpt>
      <trkpt lat="43.44123" lon="6.27962">
        <ele>302.2</ele>
        <time>2017-12-17T13:05:56Z</time>
      </trkpt>
      <trkpt lat="43.44129" lon="6.27971">
        <ele>299.9</ele>
        <time>2017-12-17T13:06:09Z</time>
      </trkpt>
      <trkpt lat="43.44138" lon="6.27976">
        <ele>297.9</ele>
        <time>2017-12-17T13:06:20Z</time>
      </trkpt>
      <trkpt lat="43.44147" lon="6.27975">
        <ele>295.3</ele>
        <time>2017-12-17T13:06:33Z</time>
      </trkpt>
      <trkpt lat="43.44147" lon="6.27963">
        <ele>293.2</ele>
        <time>2017-12-17T13:07:31Z</time>
      </trkpt>
      <trkpt lat="43.44145" lon="6.2795">
        <ele>294.5</ele>
        <time>2017-12-17T13:07:51Z</time>
      </trkpt>
      <trkpt lat="43.44146" lon="6.27937">
        <ele>296.1</ele>
        <time>2017-12-17T13:08:04Z</time>
      </trkpt>
      <trkpt lat="43.44148" lon="6.27924">
        <ele>297.5</ele>
        <time>2017-12-17T13:08:16Z</time>
      </trkpt>
      <trkpt lat="43.44151" lon="6.27911">
        <ele>298.7</ele>
        <time>2017-12-17T13:08:26Z</time>
      </trkpt>
      <trkpt lat="43.44156" lon="6.27899">
        <ele>299</ele>
        <time>2017-12-17T13:08:36Z</time>
      </trkpt>
      <trkpt lat="43.44158" lon="6.27885">
        <ele>300.8</ele>
        <time>2017-12-17T13:08:47Z</time>
      </trkpt>
      <trkpt lat="43.44164" lon="6.27876">
        <ele>302</ele>
        <time>2017-12-17T13:08:58Z</time>
      </trkpt>
      <trkpt lat="43.44171" lon="6.27868">
        <ele>300.6</ele>
        <time>2017-12-17T13:09:13Z</time>
      </trkpt>
      <trkpt lat="43.44177" lon="6.27859">
        <ele>297.7</ele>
        <time>2017-12-17T13:09:27Z</time>
      </trkpt>
      <trkpt lat="43.44183" lon="6.27848">
        <ele>295.7</ele>
        <time>2017-12-17T13:09:38Z</time>
      </trkpt>
      <trkpt lat="43.44187" lon="6.27837">
        <ele>294.6</ele>
        <time>2017-12-17T13:09:47Z</time>
      </trkpt>
      <trkpt lat="43.44189" lon="6.27823">
        <ele>294.3</ele>
        <time>2017-12-17T13:09:57Z</time>
      </trkpt>
      <trkpt lat="43.44191" lon="6.27811">
        <ele>294</ele>
        <time>2017-12-17T13:10:05Z</time>
      </trkpt>
      <trkpt lat="43.44188" lon="6.27798">
        <ele>293.5</ele>
        <time>2017-12-17T13:10:19Z</time>
      </trkpt>
      <trkpt lat="43.44187" lon="6.27785">
        <ele>293.1</ele>
        <time>2017-12-17T13:10:27Z</time>
      </trkpt>
      <trkpt lat="43.44188" lon="6.27771">
        <ele>292.2</ele>
        <time>2017-12-17T13:10:36Z</time>
      </trkpt>
      <trkpt lat="43.44187" lon="6.27757">
        <ele>291.3</ele>
        <time>2017-12-17T13:10:46Z</time>
      </trkpt>
      <trkpt lat="43.44187" lon="6.27744">
        <ele>290.7</ele>
        <time>2017-12-17T13:10:55Z</time>
      </trkpt>
      <trkpt lat="43.4419" lon="6.27731">
        <ele>290.2</ele>
        <time>2017-12-17T13:11:06Z</time>
      </trkpt>
      <trkpt lat="43.44193" lon="6.27719">
        <ele>289.2</ele>
        <time>2017-12-17T13:11:16Z</time>
      </trkpt>
      <trkpt lat="43.442" lon="6.27709">
        <ele>287.5</ele>
        <time>2017-12-17T13:11:29Z</time>
      </trkpt>
      <trkpt lat="43.44206" lon="6.277">
        <ele>284.5</ele>
        <time>2017-12-17T13:11:41Z</time>
      </trkpt>
      <trkpt lat="43.44215" lon="6.27694">
        <ele>281.8</ele>
        <time>2017-12-17T13:11:53Z</time>
      </trkpt>
      <trkpt lat="43.44221" lon="6.27685">
        <ele>279.7</ele>
        <time>2017-12-17T13:12:04Z</time>
      </trkpt>
      <trkpt lat="43.44229" lon="6.27678">
        <ele>281</ele>
        <time>2017-12-17T13:12:15Z</time>
      </trkpt>
      <trkpt lat="43.44238" lon="6.27674">
        <ele>282.9</ele>
        <time>2017-12-17T13:12:23Z</time>
      </trkpt>
      <trkpt lat="43.44248" lon="6.27671">
        <ele>285.1</ele>
        <time>2017-12-17T13:12:33Z</time>
      </trkpt>
      <trkpt lat="43.44256" lon="6.27665">
        <ele>286.2</ele>
        <time>2017-12-17T13:12:44Z</time>
      </trkpt>
      <trkpt lat="43.44263" lon="6.27657">
        <ele>286.2</ele>
        <time>2017-12-17T13:12:53Z</time>
      </trkpt>
      <trkpt lat="43.44269" lon="6.27647">
        <ele>286.3</ele>
        <time>2017-12-17T13:13:05Z</time>
      </trkpt>
      <trkpt lat="43.44276" lon="6.27639">
        <ele>283.3</ele>
        <time>2017-12-17T13:13:18Z</time>
      </trkpt>
      <trkpt lat="43.44284" lon="6.27633">
        <ele>281.7</ele>
        <time>2017-12-17T13:13:28Z</time>
      </trkpt>
      <trkpt lat="43.44294" lon="6.27632">
        <ele>283.9</ele>
        <time>2017-12-17T13:13:45Z</time>
      </trkpt>
      <trkpt lat="43.44303" lon="6.27632">
        <ele>285.6</ele>
        <time>2017-12-17T13:13:56Z</time>
      </trkpt>
      <trkpt lat="43.44311" lon="6.27641">
        <ele>285.9</ele>
        <time>2017-12-17T13:14:05Z</time>
      </trkpt>
      <trkpt lat="43.44317" lon="6.2765">
        <ele>284.6</ele>
        <time>2017-12-17T13:14:14Z</time>
      </trkpt>
      <trkpt lat="43.44322" lon="6.27661">
        <ele>283.5</ele>
        <time>2017-12-17T13:14:23Z</time>
      </trkpt>
      <trkpt lat="43.44327" lon="6.27672">
        <ele>282.6</ele>
        <time>2017-12-17T13:14:31Z</time>
      </trkpt>
      <trkpt lat="43.44333" lon="6.27683">
        <ele>281.2</ele>
        <time>2017-12-17T13:14:39Z</time>
      </trkpt>
      <trkpt lat="43.44342" lon="6.27688">
        <ele>281.2</ele>
        <time>2017-12-17T13:14:49Z</time>
      </trkpt>
      <trkpt lat="43.44352" lon="6.27686">
        <ele>279.8</ele>
        <time>2017-12-17T13:15:00Z</time>
      </trkpt>
      <trkpt lat="43.44357" lon="6.27675">
        <ele>278.3</ele>
        <time>2017-12-17T13:15:10Z</time>
      </trkpt>
      <trkpt lat="43.44361" lon="6.27663">
        <ele>277.9</ele>
        <time>2017-12-17T13:15:18Z</time>
      </trkpt>
      <trkpt lat="43.44365" lon="6.27652">
        <ele>277.2</ele>
        <time>2017-12-17T13:15:26Z</time>
      </trkpt>
      <trkpt lat="43.44368" lon="6.27639">
        <ele>276.1</ele>
        <time>2017-12-17T13:15:33Z</time>
      </trkpt>
      <trkpt lat="43.44371" lon="6.27626">
        <ele>276.3</ele>
        <time>2017-12-17T13:15:40Z</time>
      </trkpt>
      <trkpt lat="43.44375" lon="6.27613">
        <ele>276.3</ele>
        <time>2017-12-17T13:15:48Z</time>
      </trkpt>
      <trkpt lat="43.44378" lon="6.27601">
        <ele>276.8</ele>
        <time>2017-12-17T13:15:57Z</time>
      </trkpt>
      <trkpt lat="43.44378" lon="6.27588">
        <ele>277.3</ele>
        <time>2017-12-17T13:16:05Z</time>
      </trkpt>
      <trkpt lat="43.44381" lon="6.27575">
        <ele>278</ele>
        <time>2017-12-17T13:16:13Z</time>
      </trkpt>
      <trkpt lat="43.44384" lon="6.27563">
        <ele>277.4</ele>
        <time>2017-12-17T13:16:21Z</time>
      </trkpt>
      <trkpt lat="43.44389" lon="6.27552">
        <ele>276.5</ele>
        <time>2017-12-17T13:16:29Z</time>
      </trkpt>
      <trkpt lat="43.44394" lon="6.27542">
        <ele>276.4</ele>
        <time>2017-12-17T13:16:36Z</time>
      </trkpt>
      <trkpt lat="43.44399" lon="6.27531">
        <ele>276.7</ele>
        <time>2017-12-17T13:16:43Z</time>
      </trkpt>
      <trkpt lat="43.44407" lon="6.27522">
        <ele>276.5</ele>
        <time>2017-12-17T13:16:50Z</time>
      </trkpt>
      <trkpt lat="43.44412" lon="6.27511">
        <ele>276.5</ele>
        <time>2017-12-17T13:16:58Z</time>
      </trkpt>
      <trkpt lat="43.44417" lon="6.275">
        <ele>277.1</ele>
        <time>2017-12-17T13:17:07Z</time>
      </trkpt>
      <trkpt lat="43.44423" lon="6.27489">
        <ele>277.9</ele>
        <time>2017-12-17T13:17:17Z</time>
      </trkpt>
      <trkpt lat="43.44429" lon="6.2748">
        <ele>278.6</ele>
        <time>2017-12-17T13:17:26Z</time>
      </trkpt>
      <trkpt lat="43.44434" lon="6.27469">
        <ele>279</ele>
        <time>2017-12-17T13:17:35Z</time>
      </trkpt>
      <trkpt lat="43.4444" lon="6.2746">
        <ele>278.9</ele>
        <time>2017-12-17T13:17:43Z</time>
      </trkpt>
      <trkpt lat="43.44446" lon="6.27448">
        <ele>278.6</ele>
        <time>2017-12-17T13:17:52Z</time>
      </trkpt>
      <trkpt lat="43.4445" lon="6.27437">
        <ele>279.2</ele>
        <time>2017-12-17T13:18:01Z</time>
      </trkpt>
      <trkpt lat="43.44456" lon="6.27427">
        <ele>279.5</ele>
        <time>2017-12-17T13:18:09Z</time>
      </trkpt>
      <trkpt lat="43.44463" lon="6.27419">
        <ele>279.5</ele>
        <time>2017-12-17T13:18:19Z</time>
      </trkpt>
      <trkpt lat="43.44471" lon="6.27411">
        <ele>279.7</ele>
        <time>2017-12-17T13:18:29Z</time>
      </trkpt>
      <trkpt lat="43.44477" lon="6.27403">
        <ele>280.6</ele>
        <time>2017-12-17T13:18:38Z</time>
      </trkpt>
      <trkpt lat="43.44486" lon="6.27399">
        <ele>281.3</ele>
        <time>2017-12-17T13:18:59Z</time>
      </trkpt>
      <trkpt lat="43.44492" lon="6.27388">
        <ele>281.6</ele>
        <time>2017-12-17T13:19:08Z</time>
      </trkpt>
      <trkpt lat="43.44497" lon="6.27378">
        <ele>281</ele>
        <time>2017-12-17T13:19:17Z</time>
      </trkpt>
      <trkpt lat="43.44503" lon="6.27367">
        <ele>279.5</ele>
        <time>2017-12-17T13:19:39Z</time>
      </trkpt>
      <trkpt lat="43.44509" lon="6.27356">
        <ele>278.9</ele>
        <time>2017-12-17T13:19:47Z</time>
      </trkpt>
      <trkpt lat="43.44514" lon="6.27345">
        <ele>278.5</ele>
        <time>2017-12-17T13:19:56Z</time>
      </trkpt>
      <trkpt lat="43.44519" lon="6.27333">
        <ele>278.3</ele>
        <time>2017-12-17T13:20:06Z</time>
      </trkpt>
      <trkpt lat="43.44523" lon="6.27321">
        <ele>277.7</ele>
        <time>2017-12-17T13:20:16Z</time>
      </trkpt>
      <trkpt lat="43.44527" lon="6.27308">
        <ele>276.7</ele>
        <time>2017-12-17T13:20:28Z</time>
      </trkpt>
      <trkpt lat="43.44531" lon="6.27296">
        <ele>276.4</ele>
        <time>2017-12-17T13:20:37Z</time>
      </trkpt>
      <trkpt lat="43.44534" lon="6.27285">
        <ele>276.7</ele>
        <time>2017-12-17T13:20:47Z</time>
      </trkpt>
      <trkpt lat="43.44534" lon="6.27272">
        <ele>276.5</ele>
        <time>2017-12-17T13:20:57Z</time>
      </trkpt>
      <trkpt lat="43.4454" lon="6.27262">
        <ele>275.9</ele>
        <time>2017-12-17T13:21:09Z</time>
      </trkpt>
      <trkpt lat="43.44549" lon="6.27259">
        <ele>274.5</ele>
        <time>2017-12-17T13:21:19Z</time>
      </trkpt>
      <trkpt lat="43.44558" lon="6.27256">
        <ele>273</ele>
        <time>2017-12-17T13:21:31Z</time>
      </trkpt>
      <trkpt lat="43.44564" lon="6.27247">
        <ele>271.6</ele>
        <time>2017-12-17T13:21:40Z</time>
      </trkpt>
      <trkpt lat="43.44566" lon="6.27233">
        <ele>270.7</ele>
        <time>2017-12-17T13:21:49Z</time>
      </trkpt>
      <trkpt lat="43.4457" lon="6.27222">
        <ele>269.8</ele>
        <time>2017-12-17T13:21:57Z</time>
      </trkpt>
      <trkpt lat="43.44574" lon="6.2721">
        <ele>269.3</ele>
        <time>2017-12-17T13:22:06Z</time>
      </trkpt>
      <trkpt lat="43.44577" lon="6.27197">
        <ele>269</ele>
        <time>2017-12-17T13:22:16Z</time>
      </trkpt>
      <trkpt lat="43.44578" lon="6.27185">
        <ele>268.9</ele>
        <time>2017-12-17T13:22:26Z</time>
      </trkpt>
      <trkpt lat="43.4458" lon="6.27172">
        <ele>268.9</ele>
        <time>2017-12-17T13:22:35Z</time>
      </trkpt>
      <trkpt lat="43.44586" lon="6.27162">
        <ele>269</ele>
        <time>2017-12-17T13:22:44Z</time>
      </trkpt>
      <trkpt lat="43.44596" lon="6.27161">
        <ele>269.5</ele>
        <time>2017-12-17T13:22:54Z</time>
      </trkpt>
      <trkpt lat="43.44605" lon="6.27167">
        <ele>271</ele>
        <time>2017-12-17T13:23:06Z</time>
      </trkpt>
      <trkpt lat="43.44614" lon="6.27171">
        <ele>272.3</ele>
        <time>2017-12-17T13:23:15Z</time>
      </trkpt>
      <trkpt lat="43.44623" lon="6.27172">
        <ele>273.7</ele>
        <time>2017-12-17T13:23:27Z</time>
      </trkpt>
      <trkpt lat="43.44632" lon="6.27174">
        <ele>275.1</ele>
        <time>2017-12-17T13:23:37Z</time>
      </trkpt>
      <trkpt lat="43.44641" lon="6.27172">
        <ele>275.2</ele>
        <time>2017-12-17T13:23:45Z</time>
      </trkpt>
      <trkpt lat="43.44649" lon="6.27167">
        <ele>275.7</ele>
        <time>2017-12-17T13:23:50Z</time>
      </trkpt>
      <trkpt lat="43.4466" lon="6.27164">
        <ele>276.8</ele>
        <time>2017-12-17T13:23:59Z</time>
      </trkpt>
      <trkpt lat="43.44669" lon="6.2716">
        <ele>278.2</ele>
        <time>2017-12-17T13:24:07Z</time>
      </trkpt>
      <trkpt lat="43.44679" lon="6.27159">
        <ele>280.3</ele>
        <time>2017-12-17T13:24:19Z</time>
      </trkpt>
      <trkpt lat="43.44689" lon="6.27159">
        <ele>280.7</ele>
        <time>2017-12-17T13:24:29Z</time>
      </trkpt>
      <trkpt lat="43.44699" lon="6.27158">
        <ele>281</ele>
        <time>2017-12-17T13:24:38Z</time>
      </trkpt>
      <trkpt lat="43.44708" lon="6.27154">
        <ele>281.8</ele>
        <time>2017-12-17T13:24:47Z</time>
      </trkpt>
      <trkpt lat="43.44716" lon="6.27148">
        <ele>283.5</ele>
        <time>2017-12-17T13:24:57Z</time>
      </trkpt>
      <trkpt lat="43.44725" lon="6.27141">
        <ele>285.1</ele>
        <time>2017-12-17T13:25:05Z</time>
      </trkpt>
      <trkpt lat="43.44728" lon="6.27129">
        <ele>285.4</ele>
        <time>2017-12-17T13:25:13Z</time>
      </trkpt>
      <trkpt lat="43.44729" lon="6.27116">
        <ele>286.2</ele>
        <time>2017-12-17T13:25:21Z</time>
      </trkpt>
      <trkpt lat="43.44728" lon="6.27103">
        <ele>286</ele>
        <time>2017-12-17T13:25:29Z</time>
      </trkpt>
      <trkpt lat="43.44727" lon="6.27089">
        <ele>286.1</ele>
        <time>2017-12-17T13:25:38Z</time>
      </trkpt>
      <trkpt lat="43.44726" lon="6.27075">
        <ele>285.8</ele>
        <time>2017-12-17T13:25:47Z</time>
      </trkpt>
      <trkpt lat="43.44726" lon="6.27061">
        <ele>285.7</ele>
        <time>2017-12-17T13:25:55Z</time>
      </trkpt>
      <trkpt lat="43.44726" lon="6.27049">
        <ele>285.3</ele>
        <time>2017-12-17T13:26:04Z</time>
      </trkpt>
      <trkpt lat="43.44726" lon="6.27036">
        <ele>284.2</ele>
        <time>2017-12-17T13:26:13Z</time>
      </trkpt>
      <trkpt lat="43.44728" lon="6.27023">
        <ele>282.9</ele>
        <time>2017-12-17T13:26:21Z</time>
      </trkpt>
      <trkpt lat="43.44737" lon="6.27016">
        <ele>282.4</ele>
        <time>2017-12-17T13:26:28Z</time>
      </trkpt>
      <trkpt lat="43.44746" lon="6.27021">
        <ele>282.9</ele>
        <time>2017-12-17T13:26:38Z</time>
      </trkpt>
      <trkpt lat="43.44755" lon="6.27026">
        <ele>284.1</ele>
        <time>2017-12-17T13:26:49Z</time>
      </trkpt>
      <trkpt lat="43.44763" lon="6.27029">
        <ele>285.5</ele>
        <time>2017-12-17T13:26:58Z</time>
      </trkpt>
      <trkpt lat="43.44773" lon="6.27033">
        <ele>286.2</ele>
        <time>2017-12-17T13:27:09Z</time>
      </trkpt>
      <trkpt lat="43.44782" lon="6.27032">
        <ele>288</ele>
        <time>2017-12-17T13:27:39Z</time>
      </trkpt>
      <trkpt lat="43.44791" lon="6.27029">
        <ele>287.7</ele>
        <time>2017-12-17T13:31:11Z</time>
      </trkpt>
      <trkpt lat="43.448" lon="6.27027">
        <ele>288.3</ele>
        <time>2017-12-17T13:31:21Z</time>
      </trkpt>
      <trkpt lat="43.44809" lon="6.27023">
        <ele>289</ele>
        <time>2017-12-17T13:31:34Z</time>
      </trkpt>
      <trkpt lat="43.44819" lon="6.2702">
        <ele>288.6</ele>
        <time>2017-12-17T13:31:44Z</time>
      </trkpt>
      <trkpt lat="43.44829" lon="6.27014">
        <ele>288.3</ele>
        <time>2017-12-17T13:31:54Z</time>
      </trkpt>
      <trkpt lat="43.44837" lon="6.27008">
        <ele>287.6</ele>
        <time>2017-12-17T13:32:02Z</time>
      </trkpt>
      <trkpt lat="43.44846" lon="6.27001">
        <ele>287</ele>
        <time>2017-12-17T13:32:13Z</time>
      </trkpt>
      <trkpt lat="43.44853" lon="6.26995">
        <ele>287.1</ele>
        <time>2017-12-17T13:32:21Z</time>
      </trkpt>
      <trkpt lat="43.44862" lon="6.26989">
        <ele>286.8</ele>
        <time>2017-12-17T13:32:30Z</time>
      </trkpt>
      <trkpt lat="43.4487" lon="6.26984">
        <ele>287</ele>
        <time>2017-12-17T13:32:37Z</time>
      </trkpt>
      <trkpt lat="43.44879" lon="6.2698">
        <ele>286.9</ele>
        <time>2017-12-17T13:32:45Z</time>
      </trkpt>
      <trkpt lat="43.44886" lon="6.26972">
        <ele>287.1</ele>
        <time>2017-12-17T13:32:54Z</time>
      </trkpt>
      <trkpt lat="43.44889" lon="6.26959">
        <ele>287.5</ele>
        <time>2017-12-17T13:33:24Z</time>
      </trkpt>
      <trkpt lat="43.44889" lon="6.26946">
        <ele>287.6</ele>
        <time>2017-12-17T13:33:35Z</time>
      </trkpt>
      <trkpt lat="43.44888" lon="6.26933">
        <ele>288.5</ele>
        <time>2017-12-17T13:33:43Z</time>
      </trkpt>
      <trkpt lat="43.44886" lon="6.2692">
        <ele>288.9</ele>
        <time>2017-12-17T13:33:52Z</time>
      </trkpt>
      <trkpt lat="43.44886" lon="6.26907">
        <ele>289.3</ele>
        <time>2017-12-17T13:34:00Z</time>
      </trkpt>
      <trkpt lat="43.44885" lon="6.26894">
        <ele>289.4</ele>
        <time>2017-12-17T13:34:08Z</time>
      </trkpt>
      <trkpt lat="43.44881" lon="6.26882">
        <ele>290.4</ele>
        <time>2017-12-17T13:34:17Z</time>
      </trkpt>
      <trkpt lat="43.4488" lon="6.26869">
        <ele>291.6</ele>
        <time>2017-12-17T13:34:26Z</time>
      </trkpt>
      <trkpt lat="43.44879" lon="6.26856">
        <ele>292.2</ele>
        <time>2017-12-17T13:34:35Z</time>
      </trkpt>
      <trkpt lat="43.4488" lon="6.26843">
        <ele>292.5</ele>
        <time>2017-12-17T13:34:43Z</time>
      </trkpt>
      <trkpt lat="43.44884" lon="6.26831">
        <ele>293.7</ele>
        <time>2017-12-17T13:34:51Z</time>
      </trkpt>
      <trkpt lat="43.44888" lon="6.2682">
        <ele>293.3</ele>
        <time>2017-12-17T13:35:00Z</time>
      </trkpt>
      <trkpt lat="43.44891" lon="6.26808">
        <ele>294.2</ele>
        <time>2017-12-17T13:35:09Z</time>
      </trkpt>
      <trkpt lat="43.44894" lon="6.26796">
        <ele>294.9</ele>
        <time>2017-12-17T13:35:17Z</time>
      </trkpt>
      <trkpt lat="43.44897" lon="6.26784">
        <ele>296.1</ele>
        <time>2017-12-17T13:35:26Z</time>
      </trkpt>
      <trkpt lat="43.44902" lon="6.26773">
        <ele>297.3</ele>
        <time>2017-12-17T13:35:36Z</time>
      </trkpt>
      <trkpt lat="43.44909" lon="6.26764">
        <ele>298.2</ele>
        <time>2017-12-17T13:35:46Z</time>
      </trkpt>
      <trkpt lat="43.44916" lon="6.26755">
        <ele>300.2</ele>
        <time>2017-12-17T13:35:56Z</time>
      </trkpt>
      <trkpt lat="43.44922" lon="6.26745">
        <ele>301.5</ele>
        <time>2017-12-17T13:36:06Z</time>
      </trkpt>
      <trkpt lat="43.44928" lon="6.26735">
        <ele>302.1</ele>
        <time>2017-12-17T13:36:15Z</time>
      </trkpt>
      <trkpt lat="43.44936" lon="6.26731">
        <ele>302.4</ele>
        <time>2017-12-17T13:36:29Z</time>
      </trkpt>
      <trkpt lat="43.44946" lon="6.26732">
        <ele>303.7</ele>
        <time>2017-12-17T13:36:38Z</time>
      </trkpt>
      <trkpt lat="43.44954" lon="6.26729">
        <ele>305.8</ele>
        <time>2017-12-17T13:36:47Z</time>
      </trkpt>
      <trkpt lat="43.44963" lon="6.26724">
        <ele>306.1</ele>
        <time>2017-12-17T13:36:55Z</time>
      </trkpt>
      <trkpt lat="43.44971" lon="6.26715">
        <ele>306.2</ele>
        <time>2017-12-17T13:37:03Z</time>
      </trkpt>
      <trkpt lat="43.44977" lon="6.26706">
        <ele>306.7</ele>
        <time>2017-12-17T13:37:10Z</time>
      </trkpt>
      <trkpt lat="43.44982" lon="6.26694">
        <ele>307.4</ele>
        <time>2017-12-17T13:37:19Z</time>
      </trkpt>
      <trkpt lat="43.44986" lon="6.26681">
        <ele>308.3</ele>
        <time>2017-12-17T13:37:29Z</time>
      </trkpt>
      <trkpt lat="43.4499" lon="6.26669">
        <ele>309.3</ele>
        <time>2017-12-17T13:37:38Z</time>
      </trkpt>
      <trkpt lat="43.44995" lon="6.26658">
        <ele>309.9</ele>
        <time>2017-12-17T13:37:47Z</time>
      </trkpt>
      <trkpt lat="43.45001" lon="6.26647">
        <ele>311.2</ele>
        <time>2017-12-17T13:37:56Z</time>
      </trkpt>
      <trkpt lat="43.45006" lon="6.26636">
        <ele>310.8</ele>
        <time>2017-12-17T13:38:05Z</time>
      </trkpt>
      <trkpt lat="43.45012" lon="6.26625">
        <ele>310.4</ele>
        <time>2017-12-17T13:38:14Z</time>
      </trkpt>
      <trkpt lat="43.45018" lon="6.26615">
        <ele>310.2</ele>
        <time>2017-12-17T13:38:24Z</time>
      </trkpt>
      <trkpt lat="43.45025" lon="6.26607">
        <ele>310.1</ele>
        <time>2017-12-17T13:38:32Z</time>
      </trkpt>
      <trkpt lat="43.45033" lon="6.266">
        <ele>310.1</ele>
        <time>2017-12-17T13:38:40Z</time>
      </trkpt>
      <trkpt lat="43.45042" lon="6.26593">
        <ele>309.5</ele>
        <time>2017-12-17T13:38:48Z</time>
      </trkpt>
      <trkpt lat="43.4505" lon="6.26585">
        <ele>309.1</ele>
        <time>2017-12-17T13:38:57Z</time>
      </trkpt>
      <trkpt lat="43.45057" lon="6.26577">
        <ele>308.4</ele>
        <time>2017-12-17T13:39:04Z</time>
      </trkpt>
      <trkpt lat="43.45061" lon="6.26565">
        <ele>308.2</ele>
        <time>2017-12-17T13:39:13Z</time>
      </trkpt>
      <trkpt lat="43.45067" lon="6.26554">
        <ele>307.9</ele>
        <time>2017-12-17T13:39:20Z</time>
      </trkpt>
      <trkpt lat="43.45069" lon="6.26542">
        <ele>307.2</ele>
        <time>2017-12-17T13:39:29Z</time>
      </trkpt>
      <trkpt lat="43.45071" lon="6.26529">
        <ele>306.4</ele>
        <time>2017-12-17T13:39:38Z</time>
      </trkpt>
      <trkpt lat="43.45075" lon="6.26516">
        <ele>304.7</ele>
        <time>2017-12-17T13:39:47Z</time>
      </trkpt>
      <trkpt lat="43.4508" lon="6.26504">
        <ele>303.3</ele>
        <time>2017-12-17T13:39:56Z</time>
      </trkpt>
      <trkpt lat="43.45084" lon="6.26492">
        <ele>301.9</ele>
        <time>2017-12-17T13:40:05Z</time>
      </trkpt>
      <trkpt lat="43.45086" lon="6.26479">
        <ele>300.7</ele>
        <time>2017-12-17T13:40:13Z</time>
      </trkpt>
      <trkpt lat="43.4509" lon="6.26468">
        <ele>299.7</ele>
        <time>2017-12-17T13:40:22Z</time>
      </trkpt>
      <trkpt lat="43.45095" lon="6.26457">
        <ele>298.1</ele>
        <time>2017-12-17T13:40:30Z</time>
      </trkpt>
      <trkpt lat="43.451" lon="6.26445">
        <ele>297.3</ele>
        <time>2017-12-17T13:40:39Z</time>
      </trkpt>
      <trkpt lat="43.45105" lon="6.26434">
        <ele>296.1</ele>
        <time>2017-12-17T13:40:48Z</time>
      </trkpt>
      <trkpt lat="43.4511" lon="6.26423">
        <ele>295.6</ele>
        <time>2017-12-17T13:40:57Z</time>
      </trkpt>
      <trkpt lat="43.45115" lon="6.26413">
        <ele>294.7</ele>
        <time>2017-12-17T13:41:06Z</time>
      </trkpt>
      <trkpt lat="43.4512" lon="6.26402">
        <ele>293.9</ele>
        <time>2017-12-17T13:41:15Z</time>
      </trkpt>
      <trkpt lat="43.45125" lon="6.26391">
        <ele>293.2</ele>
        <time>2017-12-17T13:41:24Z</time>
      </trkpt>
      <trkpt lat="43.4513" lon="6.26379">
        <ele>292.5</ele>
        <time>2017-12-17T13:41:34Z</time>
      </trkpt>
      <trkpt lat="43.45136" lon="6.26368">
        <ele>292.1</ele>
        <time>2017-12-17T13:41:43Z</time>
      </trkpt>
      <trkpt lat="43.45141" lon="6.26355">
        <ele>291.3</ele>
        <time>2017-12-17T13:41:53Z</time>
      </trkpt>
      <trkpt lat="43.45146" lon="6.26343">
        <ele>290.3</ele>
        <time>2017-12-17T13:42:03Z</time>
      </trkpt>
      <trkpt lat="43.45149" lon="6.2633">
        <ele>289.2</ele>
        <time>2017-12-17T13:42:12Z</time>
      </trkpt>
      <trkpt lat="43.45153" lon="6.26319">
        <ele>288.4</ele>
        <time>2017-12-17T13:42:22Z</time>
      </trkpt>
      <trkpt lat="43.45156" lon="6.26305">
        <ele>287.5</ele>
        <time>2017-12-17T13:42:32Z</time>
      </trkpt>
      <trkpt lat="43.45161" lon="6.26295">
        <ele>286.8</ele>
        <time>2017-12-17T13:42:42Z</time>
      </trkpt>
      <trkpt lat="43.45166" lon="6.26284">
        <ele>286.6</ele>
        <time>2017-12-17T13:42:51Z</time>
      </trkpt>
      <trkpt lat="43.45173" lon="6.26274">
        <ele>285.6</ele>
        <time>2017-12-17T13:43:00Z</time>
      </trkpt>
      <trkpt lat="43.45177" lon="6.26263">
        <ele>284.7</ele>
        <time>2017-12-17T13:43:09Z</time>
      </trkpt>
      <trkpt lat="43.45184" lon="6.26252">
        <ele>283.6</ele>
        <time>2017-12-17T13:43:18Z</time>
      </trkpt>
      <trkpt lat="43.45189" lon="6.26241">
        <ele>282.3</ele>
        <time>2017-12-17T13:43:29Z</time>
      </trkpt>
      <trkpt lat="43.45194" lon="6.26231">
        <ele>281.5</ele>
        <time>2017-12-17T13:43:37Z</time>
      </trkpt>
      <trkpt lat="43.452" lon="6.26221">
        <ele>280.8</ele>
        <time>2017-12-17T13:43:46Z</time>
      </trkpt>
      <trkpt lat="43.45205" lon="6.2621">
        <ele>279.7</ele>
        <time>2017-12-17T13:43:55Z</time>
      </trkpt>
      <trkpt lat="43.45211" lon="6.26199">
        <ele>279.2</ele>
        <time>2017-12-17T13:44:04Z</time>
      </trkpt>
      <trkpt lat="43.45216" lon="6.26189">
        <ele>278.8</ele>
        <time>2017-12-17T13:44:13Z</time>
      </trkpt>
      <trkpt lat="43.45221" lon="6.26177">
        <ele>278.3</ele>
        <time>2017-12-17T13:44:22Z</time>
      </trkpt>
      <trkpt lat="43.45226" lon="6.26167">
        <ele>277.6</ele>
        <time>2017-12-17T13:44:31Z</time>
      </trkpt>
      <trkpt lat="43.45232" lon="6.26157">
        <ele>276.9</ele>
        <time>2017-12-17T13:44:39Z</time>
      </trkpt>
      <trkpt lat="43.45238" lon="6.26146">
        <ele>276.1</ele>
        <time>2017-12-17T13:44:48Z</time>
      </trkpt>
      <trkpt lat="43.45241" lon="6.26134">
        <ele>275.4</ele>
        <time>2017-12-17T13:44:57Z</time>
      </trkpt>
      <trkpt lat="43.45248" lon="6.26124">
        <ele>275.2</ele>
        <time>2017-12-17T13:45:07Z</time>
      </trkpt>
      <trkpt lat="43.45253" lon="6.26114">
        <ele>275.1</ele>
        <time>2017-12-17T13:45:17Z</time>
      </trkpt>
      <trkpt lat="43.45256" lon="6.26101">
        <ele>275.2</ele>
        <time>2017-12-17T13:45:26Z</time>
      </trkpt>
      <trkpt lat="43.4526" lon="6.26088">
        <ele>275.1</ele>
        <time>2017-12-17T13:45:35Z</time>
      </trkpt>
      <trkpt lat="43.45264" lon="6.26077">
        <ele>274.5</ele>
        <time>2017-12-17T13:45:42Z</time>
      </trkpt>
      <trkpt lat="43.45267" lon="6.26065">
        <ele>273.8</ele>
        <time>2017-12-17T13:45:51Z</time>
      </trkpt>
      <trkpt lat="43.45271" lon="6.26054">
        <ele>272.8</ele>
        <time>2017-12-17T13:46:03Z</time>
      </trkpt>
      <trkpt lat="43.45276" lon="6.26041">
        <ele>271.7</ele>
        <time>2017-12-17T13:46:14Z</time>
      </trkpt>
      <trkpt lat="43.45281" lon="6.26029">
        <ele>270.4</ele>
        <time>2017-12-17T13:46:23Z</time>
      </trkpt>
      <trkpt lat="43.45287" lon="6.26019">
        <ele>269.2</ele>
        <time>2017-12-17T13:46:32Z</time>
      </trkpt>
      <trkpt lat="43.4529" lon="6.26007">
        <ele>268</ele>
        <time>2017-12-17T13:46:41Z</time>
      </trkpt>
      <trkpt lat="43.45294" lon="6.25995">
        <ele>266.5</ele>
        <time>2017-12-17T13:46:50Z</time>
      </trkpt>
      <trkpt lat="43.45294" lon="6.25981">
        <ele>265.6</ele>
        <time>2017-12-17T13:46:59Z</time>
      </trkpt>
      <trkpt lat="43.45294" lon="6.25968">
        <ele>264.4</ele>
        <time>2017-12-17T13:47:07Z</time>
      </trkpt>
      <trkpt lat="43.45294" lon="6.25954">
        <ele>263.1</ele>
        <time>2017-12-17T13:47:16Z</time>
      </trkpt>
      <trkpt lat="43.45295" lon="6.25941">
        <ele>262.3</ele>
        <time>2017-12-17T13:47:24Z</time>
      </trkpt>
      <trkpt lat="43.45296" lon="6.25929">
        <ele>261.9</ele>
        <time>2017-12-17T13:47:31Z</time>
      </trkpt>
      <trkpt lat="43.45299" lon="6.25916">
        <ele>260.8</ele>
        <time>2017-12-17T13:47:39Z</time>
      </trkpt>
      <trkpt lat="43.45304" lon="6.25904">
        <ele>259.8</ele>
        <time>2017-12-17T13:47:47Z</time>
      </trkpt>
      <trkpt lat="43.4531" lon="6.25894">
        <ele>259.6</ele>
        <time>2017-12-17T13:47:56Z</time>
      </trkpt>
      <trkpt lat="43.45319" lon="6.25889">
        <ele>258.9</ele>
        <time>2017-12-17T13:48:05Z</time>
      </trkpt>
      <trkpt lat="43.45328" lon="6.25887">
        <ele>258.3</ele>
        <time>2017-12-17T13:48:15Z</time>
      </trkpt>
      <trkpt lat="43.45338" lon="6.25887">
        <ele>257.5</ele>
        <time>2017-12-17T13:48:25Z</time>
      </trkpt>
      <trkpt lat="43.45346" lon="6.25893">
        <ele>256.9</ele>
        <time>2017-12-17T13:48:36Z</time>
      </trkpt>
      <trkpt lat="43.45352" lon="6.25903">
        <ele>255.9</ele>
        <time>2017-12-17T13:49:06Z</time>
      </trkpt>
      <trkpt lat="43.4536" lon="6.2591">
        <ele>255.5</ele>
        <time>2017-12-17T13:49:18Z</time>
      </trkpt>
      <trkpt lat="43.45367" lon="6.25918">
        <ele>254.6</ele>
        <time>2017-12-17T13:49:29Z</time>
      </trkpt>
      <trkpt lat="43.45375" lon="6.25926">
        <ele>253.6</ele>
        <time>2017-12-17T13:49:41Z</time>
      </trkpt>
      <trkpt lat="43.45382" lon="6.25934">
        <ele>252.9</ele>
        <time>2017-12-17T13:49:51Z</time>
      </trkpt>
      <trkpt lat="43.45389" lon="6.25943">
        <ele>252.8</ele>
        <time>2017-12-17T13:50:01Z</time>
      </trkpt>
      <trkpt lat="43.45396" lon="6.25952">
        <ele>252.6</ele>
        <time>2017-12-17T13:50:09Z</time>
      </trkpt>
      <trkpt lat="43.45403" lon="6.25961">
        <ele>252.1</ele>
        <time>2017-12-17T13:50:17Z</time>
      </trkpt>
      <trkpt lat="43.45408" lon="6.25971">
        <ele>251.6</ele>
        <time>2017-12-17T13:50:25Z</time>
      </trkpt>
      <trkpt lat="43.45415" lon="6.2598">
        <ele>250.7</ele>
        <time>2017-12-17T13:50:34Z</time>
      </trkpt>
      <trkpt lat="43.45421" lon="6.25989">
        <ele>250.2</ele>
        <time>2017-12-17T13:50:43Z</time>
      </trkpt>
      <trkpt lat="43.45428" lon="6.25997">
        <ele>249.8</ele>
        <time>2017-12-17T13:50:52Z</time>
      </trkpt>
      <trkpt lat="43.45438" lon="6.26001">
        <ele>249.1</ele>
        <time>2017-12-17T13:51:02Z</time>
      </trkpt>
      <trkpt lat="43.45448" lon="6.26002">
        <ele>248.7</ele>
        <time>2017-12-17T13:51:10Z</time>
      </trkpt>
      <trkpt lat="43.45457" lon="6.26004">
        <ele>248.1</ele>
        <time>2017-12-17T13:51:17Z</time>
      </trkpt>
      <trkpt lat="43.45467" lon="6.26006">
        <ele>247.6</ele>
        <time>2017-12-17T13:51:24Z</time>
      </trkpt>
      <trkpt lat="43.45476" lon="6.26011">
        <ele>246.6</ele>
        <time>2017-12-17T13:51:33Z</time>
      </trkpt>
      <trkpt lat="43.45484" lon="6.26017">
        <ele>245.7</ele>
        <time>2017-12-17T13:51:44Z</time>
      </trkpt>
      <trkpt lat="43.45493" lon="6.26021">
        <ele>244.8</ele>
        <time>2017-12-17T13:51:53Z</time>
      </trkpt>
      <trkpt lat="43.45502" lon="6.26027">
        <ele>243.2</ele>
        <time>2017-12-17T13:52:02Z</time>
      </trkpt>
      <trkpt lat="43.4551" lon="6.26033">
        <ele>242</ele>
        <time>2017-12-17T13:52:10Z</time>
      </trkpt>
      <trkpt lat="43.45519" lon="6.26036">
        <ele>240.7</ele>
        <time>2017-12-17T13:52:17Z</time>
      </trkpt>
      <trkpt lat="43.45529" lon="6.26041">
        <ele>239.5</ele>
        <time>2017-12-17T13:52:27Z</time>
      </trkpt>
      <trkpt lat="43.45538" lon="6.26045">
        <ele>238.2</ele>
        <time>2017-12-17T13:52:37Z</time>
      </trkpt>
      <trkpt lat="43.45548" lon="6.26048">
        <ele>237.2</ele>
        <time>2017-12-17T13:52:46Z</time>
      </trkpt>
      <trkpt lat="43.45557" lon="6.26051">
        <ele>236.6</ele>
        <time>2017-12-17T13:52:53Z</time>
      </trkpt>
      <trkpt lat="43.45566" lon="6.26055">
        <ele>234.9</ele>
        <time>2017-12-17T13:53:03Z</time>
      </trkpt>
      <trkpt lat="43.45577" lon="6.26054">
        <ele>233.6</ele>
        <time>2017-12-17T13:53:11Z</time>
      </trkpt>
      <trkpt lat="43.45586" lon="6.26055">
        <ele>233.3</ele>
        <time>2017-12-17T13:53:21Z</time>
      </trkpt>
      <trkpt lat="43.45595" lon="6.26058">
        <ele>232.2</ele>
        <time>2017-12-17T13:53:29Z</time>
      </trkpt>
      <trkpt lat="43.45603" lon="6.26065">
        <ele>231.2</ele>
        <time>2017-12-17T13:53:38Z</time>
      </trkpt>
      <trkpt lat="43.45611" lon="6.26071">
        <ele>230.6</ele>
        <time>2017-12-17T13:53:45Z</time>
      </trkpt>
      <trkpt lat="43.4562" lon="6.26075">
        <ele>230</ele>
        <time>2017-12-17T13:53:56Z</time>
      </trkpt>
      <trkpt lat="43.45629" lon="6.26078">
        <ele>229.5</ele>
        <time>2017-12-17T13:54:02Z</time>
      </trkpt>
      <trkpt lat="43.45638" lon="6.26077">
        <ele>228.7</ele>
        <time>2017-12-17T13:54:10Z</time>
      </trkpt>
      <trkpt lat="43.45648" lon="6.26076">
        <ele>228.6</ele>
        <time>2017-12-17T13:54:18Z</time>
      </trkpt>
      <trkpt lat="43.45658" lon="6.26074">
        <ele>228.7</ele>
        <time>2017-12-17T13:54:27Z</time>
      </trkpt>
      <trkpt lat="43.45667" lon="6.26074">
        <ele>227.7</ele>
        <time>2017-12-17T13:54:35Z</time>
      </trkpt>
      <trkpt lat="43.45677" lon="6.26071">
        <ele>226.7</ele>
        <time>2017-12-17T13:54:43Z</time>
      </trkpt>
      <trkpt lat="43.45687" lon="6.2607">
        <ele>225.2</ele>
        <time>2017-12-17T13:54:52Z</time>
      </trkpt>
      <trkpt lat="43.45697" lon="6.2607">
        <ele>224.6</ele>
        <time>2017-12-17T13:55:01Z</time>
      </trkpt>
      <trkpt lat="43.45707" lon="6.26071">
        <ele>223.4</ele>
        <time>2017-12-17T13:55:10Z</time>
      </trkpt>
      <trkpt lat="43.45717" lon="6.26073">
        <ele>222.6</ele>
        <time>2017-12-17T13:55:18Z</time>
      </trkpt>
      <trkpt lat="43.45726" lon="6.26076">
        <ele>220.7</ele>
        <time>2017-12-17T13:55:28Z</time>
      </trkpt>
      <trkpt lat="43.45735" lon="6.26082">
        <ele>219</ele>
        <time>2017-12-17T13:55:37Z</time>
      </trkpt>
      <trkpt lat="43.45744" lon="6.26088">
        <ele>217.5</ele>
        <time>2017-12-17T13:55:44Z</time>
      </trkpt>
      <trkpt lat="43.45753" lon="6.26092">
        <ele>215.7</ele>
        <time>2017-12-17T13:55:53Z</time>
      </trkpt>
      <trkpt lat="43.45762" lon="6.26097">
        <ele>213.9</ele>
        <time>2017-12-17T13:56:03Z</time>
      </trkpt>
      <trkpt lat="43.45769" lon="6.26106">
        <ele>212.3</ele>
        <time>2017-12-17T13:56:13Z</time>
      </trkpt>
      <trkpt lat="43.45778" lon="6.26108">
        <ele>210.4</ele>
        <time>2017-12-17T13:56:23Z</time>
      </trkpt>
      <trkpt lat="43.45787" lon="6.26114">
        <ele>208.9</ele>
        <time>2017-12-17T13:56:31Z</time>
      </trkpt>
      <trkpt lat="43.45796" lon="6.26116">
        <ele>208</ele>
        <time>2017-12-17T13:56:38Z</time>
      </trkpt>
      <trkpt lat="43.45806" lon="6.26114">
        <ele>206.8</ele>
        <time>2017-12-17T13:56:45Z</time>
      </trkpt>
      <trkpt lat="43.45816" lon="6.26115">
        <ele>205.8</ele>
        <time>2017-12-17T13:56:56Z</time>
      </trkpt>
      <trkpt lat="43.45825" lon="6.2612">
        <ele>205.6</ele>
        <time>2017-12-17T13:57:04Z</time>
      </trkpt>
      <trkpt lat="43.45834" lon="6.26123">
        <ele>205.2</ele>
        <time>2017-12-17T13:57:12Z</time>
      </trkpt>
      <trkpt lat="43.45843" lon="6.26124">
        <ele>204.5</ele>
        <time>2017-12-17T13:57:19Z</time>
      </trkpt>
      <trkpt lat="43.45852" lon="6.26127">
        <ele>203.8</ele>
        <time>2017-12-17T13:57:26Z</time>
      </trkpt>
      <trkpt lat="43.4586" lon="6.26135">
        <ele>203</ele>
        <time>2017-12-17T13:57:36Z</time>
      </trkpt>
      <trkpt lat="43.45869" lon="6.26142">
        <ele>202.7</ele>
        <time>2017-12-17T13:57:44Z</time>
      </trkpt>
      <trkpt lat="43.45874" lon="6.26153">
        <ele>202.4</ele>
        <time>2017-12-17T13:57:50Z</time>
      </trkpt>
      <trkpt lat="43.4588" lon="6.26163">
        <ele>202.3</ele>
        <time>2017-12-17T13:57:56Z</time>
      </trkpt>
      <trkpt lat="43.45886" lon="6.26172">
        <ele>201.9</ele>
        <time>2017-12-17T13:58:04Z</time>
      </trkpt>
      <trkpt lat="43.45894" lon="6.26181">
        <ele>201.5</ele>
        <time>2017-12-17T13:58:12Z</time>
      </trkpt>
      <trkpt lat="43.45898" lon="6.26193">
        <ele>201.4</ele>
        <time>2017-12-17T13:58:19Z</time>
      </trkpt>
      <trkpt lat="43.45904" lon="6.26204">
        <ele>201.1</ele>
        <time>2017-12-17T13:58:28Z</time>
      </trkpt>
      <trkpt lat="43.45911" lon="6.26213">
        <ele>201.4</ele>
        <time>2017-12-17T13:58:35Z</time>
      </trkpt>
      <trkpt lat="43.45918" lon="6.2622">
        <ele>201.3</ele>
        <time>2017-12-17T13:58:42Z</time>
      </trkpt>
      <trkpt lat="43.45921" lon="6.26233">
        <ele>200.8</ele>
        <time>2017-12-17T13:58:49Z</time>
      </trkpt>
      <trkpt lat="43.45926" lon="6.26244">
        <ele>199.7</ele>
        <time>2017-12-17T13:58:56Z</time>
      </trkpt>
      <trkpt lat="43.45929" lon="6.26256">
        <ele>198.3</ele>
        <time>2017-12-17T13:59:03Z</time>
      </trkpt>
      <trkpt lat="43.4593" lon="6.2627">
        <ele>196.9</ele>
        <time>2017-12-17T13:59:12Z</time>
      </trkpt>
      <trkpt lat="43.45929" lon="6.26283">
        <ele>195.8</ele>
        <time>2017-12-17T13:59:20Z</time>
      </trkpt>
      <trkpt lat="43.45934" lon="6.26295">
        <ele>194.7</ele>
        <time>2017-12-17T13:59:28Z</time>
      </trkpt>
      <trkpt lat="43.4594" lon="6.26306">
        <ele>193.3</ele>
        <time>2017-12-17T13:59:39Z</time>
      </trkpt>
      <trkpt lat="43.4595" lon="6.26308">
        <ele>191.4</ele>
        <time>2017-12-17T13:59:52Z</time>
      </trkpt>
      <trkpt lat="43.45959" lon="6.26305">
        <ele>190.3</ele>
        <time>2017-12-17T14:00:02Z</time>
      </trkpt>
      <trkpt lat="43.45963" lon="6.26293">
        <ele>189.3</ele>
        <time>2017-12-17T14:00:11Z</time>
      </trkpt>
      <trkpt lat="43.45967" lon="6.26281">
        <ele>186.7</ele>
        <time>2017-12-17T14:00:24Z</time>
      </trkpt>
      <trkpt lat="43.45974" lon="6.26271">
        <ele>185.8</ele>
        <time>2017-12-17T14:00:37Z</time>
      </trkpt>
      <trkpt lat="43.45983" lon="6.26263">
        <ele>184.8</ele>
        <time>2017-12-17T14:00:47Z</time>
      </trkpt>
      <trkpt lat="43.4599" lon="6.26256">
        <ele>184.7</ele>
        <time>2017-12-17T14:00:55Z</time>
      </trkpt>
      <trkpt lat="43.45995" lon="6.26245">
        <ele>184.6</ele>
        <time>2017-12-17T14:01:31Z</time>
      </trkpt>
      <trkpt lat="43.46002" lon="6.26236">
        <ele>184.3</ele>
        <time>2017-12-17T14:01:41Z</time>
      </trkpt>
      <trkpt lat="43.46009" lon="6.26227">
        <ele>185</ele>
        <time>2017-12-17T14:02:03Z</time>
      </trkpt>
      <trkpt lat="43.46018" lon="6.26221">
        <ele>185.4</ele>
        <time>2017-12-17T14:02:14Z</time>
      </trkpt>
      <trkpt lat="43.46026" lon="6.26215">
        <ele>185.6</ele>
        <time>2017-12-17T14:02:21Z</time>
      </trkpt>
      <trkpt lat="43.46033" lon="6.26207">
        <ele>185.8</ele>
        <time>2017-12-17T14:02:30Z</time>
      </trkpt>
      <trkpt lat="43.46042" lon="6.262">
        <ele>185.8</ele>
        <time>2017-12-17T14:02:40Z</time>
      </trkpt>
      <trkpt lat="43.4605" lon="6.26193">
        <ele>185.8</ele>
        <time>2017-12-17T14:02:48Z</time>
      </trkpt>
      <trkpt lat="43.46057" lon="6.26187">
        <ele>185.8</ele>
        <time>2017-12-17T14:02:56Z</time>
      </trkpt>
      <trkpt lat="43.46064" lon="6.26178">
        <ele>185.9</ele>
        <time>2017-12-17T14:03:04Z</time>
      </trkpt>
      <trkpt lat="43.46065" lon="6.26165">
        <ele>186.1</ele>
        <time>2017-12-17T14:03:13Z</time>
      </trkpt>
      <trkpt lat="43.46069" lon="6.26152">
        <ele>186.5</ele>
        <time>2017-12-17T14:03:21Z</time>
      </trkpt>
      <trkpt lat="43.46073" lon="6.26139">
        <ele>187.3</ele>
        <time>2017-12-17T14:03:29Z</time>
      </trkpt>
      <trkpt lat="43.46069" lon="6.26126">
        <ele>187.5</ele>
        <time>2017-12-17T14:03:37Z</time>
      </trkpt>
      <trkpt lat="43.46062" lon="6.26116">
        <ele>187.6</ele>
        <time>2017-12-17T14:03:44Z</time>
      </trkpt>
      <trkpt lat="43.46059" lon="6.26104">
        <ele>188</ele>
        <time>2017-12-17T14:03:53Z</time>
      </trkpt>
      <trkpt lat="43.4606" lon="6.26091">
        <ele>188.2</ele>
        <time>2017-12-17T14:04:54Z</time>
      </trkpt>
      <trkpt lat="43.46055" lon="6.26095">
        <ele>188.2</ele>
        <time>2017-12-17T14:06:22Z</time>
      </trkpt>
    </trkseg>
  </trk>
</gpx>